<?xml version="1.0" encoding="UTF-8" standalone="no" ?>
<gpx xmlns="http://www.topografix.com/GPX/1/1" xmlns:xsi="http://www.w3.org/2001/XMLSchema-instance" xsi:schemaLocation="http://www.topografix.com/GPX/1/1 http://www.topografix.com/GPX/1/1/gpx.xsd" version="1.1" creator="VisuGPX - https://www.visugpx.com">
  <metadata>
    <name>Ducambanderie avec Gringo seul</name>
    <desc><![CDATA[Enfin de compte, Gringo n'est pas plus stressé seul qu'à plusieurs ! Il a un bon pas et répond bien à l'assiette (ça, c'est mieux seul !). 
2 grands trots et deux grands "petits" galops !
Peut être qu'à force de sortir, il sera moins stressé... (7 crottins en 2h19 ! et à partir du 4ème c'est très mou ! une fois au pré le crottin est normal !)]]></desc>
  </metadata>
  <trk>
    <name><![CDATA[Untitled]]></name>
    <trkseg>
      <trkpt lat="48.70756" lon="1.75397">
        <ele>172.19999694824</ele>
        <time>2013-04-29T11:45:57.000Z</time>
      </trkpt>
      <trkpt lat="48.7076" lon="1.75379">
        <ele>172.60000610352</ele>
        <time>2013-04-29T11:46:04.000Z</time>
      </trkpt>
      <trkpt lat="48.70765" lon="1.75369">
        <ele>172.80000305176</ele>
        <time>2013-04-29T11:46:10.000Z</time>
      </trkpt>
      <trkpt lat="48.70769" lon="1.75359">
        <ele>172.80000305176</ele>
        <time>2013-04-29T11:46:16.000Z</time>
      </trkpt>
      <trkpt lat="48.70771" lon="1.75355">
        <ele>173</ele>
        <time>2013-04-29T11:46:19.000Z</time>
      </trkpt>
      <trkpt lat="48.70778" lon="1.75344">
        <ele>173.19999694824</ele>
        <time>2013-04-29T11:46:27.000Z</time>
      </trkpt>
      <trkpt lat="48.70782" lon="1.75333">
        <ele>173.19999694824</ele>
        <time>2013-04-29T11:46:33.000Z</time>
      </trkpt>
      <trkpt lat="48.70785" lon="1.75322">
        <ele>173.39999389648</ele>
        <time>2013-04-29T11:46:38.000Z</time>
      </trkpt>
      <trkpt lat="48.70788" lon="1.75313">
        <ele>173.39999389648</ele>
        <time>2013-04-29T11:46:42.000Z</time>
      </trkpt>
      <trkpt lat="48.70788" lon="1.75311">
        <ele>173.39999389648</ele>
        <time>2013-04-29T11:46:43.000Z</time>
      </trkpt>
      <trkpt lat="48.70788" lon="1.75311">
        <ele>173.39999389648</ele>
        <time>2013-04-29T11:46:43.000Z</time>
      </trkpt>
      <trkpt lat="48.70791" lon="1.75302">
        <ele>173.39999389648</ele>
        <time>2013-04-29T11:46:47.000Z</time>
      </trkpt>
      <trkpt lat="48.70792" lon="1.753">
        <ele>173.39999389648</ele>
        <time>2013-04-29T11:46:48.000Z</time>
      </trkpt>
      <trkpt lat="48.70792" lon="1.75299">
        <ele>173.39999389648</ele>
        <time>2013-04-29T11:46:51.000Z</time>
      </trkpt>
      <trkpt lat="48.70797" lon="1.75282">
        <ele>173.39999389648</ele>
        <time>2013-04-29T11:46:57.000Z</time>
      </trkpt>
      <trkpt lat="48.708" lon="1.75273">
        <ele>173.60000610352</ele>
        <time>2013-04-29T11:47:02.000Z</time>
      </trkpt>
      <trkpt lat="48.70804" lon="1.75259">
        <ele>173.60000610352</ele>
        <time>2013-04-29T11:47:08.000Z</time>
      </trkpt>
      <trkpt lat="48.70807" lon="1.75257">
        <ele>173.60000610352</ele>
        <time>2013-04-29T11:47:13.000Z</time>
      </trkpt>
      <trkpt lat="48.70811" lon="1.75247">
        <ele>173.60000610352</ele>
        <time>2013-04-29T11:47:19.000Z</time>
      </trkpt>
      <trkpt lat="48.70814" lon="1.75237">
        <ele>173.60000610352</ele>
        <time>2013-04-29T11:47:24.000Z</time>
      </trkpt>
      <trkpt lat="48.70819" lon="1.75218">
        <ele>173.80000305176</ele>
        <time>2013-04-29T11:47:32.000Z</time>
      </trkpt>
      <trkpt lat="48.70828" lon="1.75197">
        <ele>173.80000305176</ele>
        <time>2013-04-29T11:47:43.000Z</time>
      </trkpt>
      <trkpt lat="48.70835" lon="1.75179">
        <ele>174</ele>
        <time>2013-04-29T11:47:53.000Z</time>
      </trkpt>
      <trkpt lat="48.70844" lon="1.75159">
        <ele>174</ele>
        <time>2013-04-29T11:48:04.000Z</time>
      </trkpt>
      <trkpt lat="48.7085" lon="1.75145">
        <ele>174</ele>
        <time>2013-04-29T11:48:12.000Z</time>
      </trkpt>
      <trkpt lat="48.70858" lon="1.75127">
        <ele>174</ele>
        <time>2013-04-29T11:48:22.000Z</time>
      </trkpt>
      <trkpt lat="48.70866" lon="1.75109">
        <ele>174</ele>
        <time>2013-04-29T11:48:32.000Z</time>
      </trkpt>
      <trkpt lat="48.70872" lon="1.75096">
        <ele>174</ele>
        <time>2013-04-29T11:48:39.000Z</time>
      </trkpt>
      <trkpt lat="48.70878" lon="1.75085">
        <ele>174</ele>
        <time>2013-04-29T11:48:46.000Z</time>
      </trkpt>
      <trkpt lat="48.70885" lon="1.75073">
        <ele>174</ele>
        <time>2013-04-29T11:48:53.000Z</time>
      </trkpt>
      <trkpt lat="48.70887" lon="1.75069">
        <ele>174</ele>
        <time>2013-04-29T11:48:56.000Z</time>
      </trkpt>
      <trkpt lat="48.70898" lon="1.75048">
        <ele>174.39999389648</ele>
        <time>2013-04-29T11:49:08.000Z</time>
      </trkpt>
      <trkpt lat="48.70905" lon="1.7504">
        <ele>174.39999389648</ele>
        <time>2013-04-29T11:49:15.000Z</time>
      </trkpt>
      <trkpt lat="48.70914" lon="1.75035">
        <ele>174.39999389648</ele>
        <time>2013-04-29T11:49:22.000Z</time>
      </trkpt>
      <trkpt lat="48.70922" lon="1.75024">
        <ele>174.80000305176</ele>
        <time>2013-04-29T11:49:30.000Z</time>
      </trkpt>
      <trkpt lat="48.70929" lon="1.75004">
        <ele>175.39999389648</ele>
        <time>2013-04-29T11:49:40.000Z</time>
      </trkpt>
      <trkpt lat="48.70934" lon="1.74994">
        <ele>175.60000610352</ele>
        <time>2013-04-29T11:49:46.000Z</time>
      </trkpt>
      <trkpt lat="48.70939" lon="1.74985">
        <ele>175.80000305176</ele>
        <time>2013-04-29T11:49:52.000Z</time>
      </trkpt>
      <trkpt lat="48.70942" lon="1.74977">
        <ele>175.80000305176</ele>
        <time>2013-04-29T11:49:56.000Z</time>
      </trkpt>
      <trkpt lat="48.70942" lon="1.74975">
        <ele>176</ele>
        <time>2013-04-29T11:49:57.000Z</time>
      </trkpt>
      <trkpt lat="48.70949" lon="1.7496">
        <ele>176.19999694824</ele>
        <time>2013-04-29T11:50:04.000Z</time>
      </trkpt>
      <trkpt lat="48.70953" lon="1.74951">
        <ele>176.39999389648</ele>
        <time>2013-04-29T11:50:08.000Z</time>
      </trkpt>
      <trkpt lat="48.7096" lon="1.74936">
        <ele>176.80000305176</ele>
        <time>2013-04-29T11:50:15.000Z</time>
      </trkpt>
      <trkpt lat="48.70968" lon="1.74924">
        <ele>177.19999694824</ele>
        <time>2013-04-29T11:50:23.000Z</time>
      </trkpt>
      <trkpt lat="48.70971" lon="1.74916">
        <ele>177.60000610352</ele>
        <time>2013-04-29T11:50:29.000Z</time>
      </trkpt>
      <trkpt lat="48.70974" lon="1.74909">
        <ele>177.80000305176</ele>
        <time>2013-04-29T11:50:32.000Z</time>
      </trkpt>
      <trkpt lat="48.70977" lon="1.74903">
        <ele>178</ele>
        <time>2013-04-29T11:50:35.000Z</time>
      </trkpt>
      <trkpt lat="48.70982" lon="1.74895">
        <ele>178.19999694824</ele>
        <time>2013-04-29T11:50:39.000Z</time>
      </trkpt>
      <trkpt lat="48.70986" lon="1.74892">
        <ele>178.39999389648</ele>
        <time>2013-04-29T11:50:42.000Z</time>
      </trkpt>
      <trkpt lat="48.70991" lon="1.74886">
        <ele>178.60000610352</ele>
        <time>2013-04-29T11:50:46.000Z</time>
      </trkpt>
      <trkpt lat="48.70994" lon="1.74883">
        <ele>178.80000305176</ele>
        <time>2013-04-29T11:50:49.000Z</time>
      </trkpt>
      <trkpt lat="48.70999" lon="1.74875">
        <ele>178.80000305176</ele>
        <time>2013-04-29T11:50:54.000Z</time>
      </trkpt>
      <trkpt lat="48.71" lon="1.74872">
        <ele>178.80000305176</ele>
        <time>2013-04-29T11:50:55.000Z</time>
      </trkpt>
      <trkpt lat="48.71007" lon="1.74857">
        <ele>178.60000610352</ele>
        <time>2013-04-29T11:51:02.000Z</time>
      </trkpt>
      <trkpt lat="48.7101" lon="1.74849">
        <ele>178.39999389648</ele>
        <time>2013-04-29T11:51:05.000Z</time>
      </trkpt>
      <trkpt lat="48.71011" lon="1.74841">
        <ele>178.19999694824</ele>
        <time>2013-04-29T11:51:08.000Z</time>
      </trkpt>
      <trkpt lat="48.71011" lon="1.74834">
        <ele>178.19999694824</ele>
        <time>2013-04-29T11:51:12.000Z</time>
      </trkpt>
      <trkpt lat="48.71006" lon="1.74831">
        <ele>178.39999389648</ele>
        <time>2013-04-29T11:51:16.000Z</time>
      </trkpt>
      <trkpt lat="48.71002" lon="1.74828">
        <ele>178.60000610352</ele>
        <time>2013-04-29T11:51:20.000Z</time>
      </trkpt>
      <trkpt lat="48.70998" lon="1.74826">
        <ele>178.80000305176</ele>
        <time>2013-04-29T11:51:24.000Z</time>
      </trkpt>
      <trkpt lat="48.70995" lon="1.74821">
        <ele>178.80000305176</ele>
        <time>2013-04-29T11:51:28.000Z</time>
      </trkpt>
      <trkpt lat="48.70992" lon="1.74821">
        <ele>178.60000610352</ele>
        <time>2013-04-29T11:51:32.000Z</time>
      </trkpt>
      <trkpt lat="48.70988" lon="1.74816">
        <ele>178.60000610352</ele>
        <time>2013-04-29T11:51:36.000Z</time>
      </trkpt>
      <trkpt lat="48.70985" lon="1.74812">
        <ele>178.60000610352</ele>
        <time>2013-04-29T11:51:40.000Z</time>
      </trkpt>
      <trkpt lat="48.70978" lon="1.74805">
        <ele>178.39999389648</ele>
        <time>2013-04-29T11:51:45.000Z</time>
      </trkpt>
      <trkpt lat="48.70973" lon="1.74798">
        <ele>178.19999694824</ele>
        <time>2013-04-29T11:51:50.000Z</time>
      </trkpt>
      <trkpt lat="48.7097" lon="1.74793">
        <ele>178.19999694824</ele>
        <time>2013-04-29T11:51:54.000Z</time>
      </trkpt>
      <trkpt lat="48.70959" lon="1.74773">
        <ele>178</ele>
        <time>2013-04-29T11:52:01.000Z</time>
      </trkpt>
      <trkpt lat="48.70955" lon="1.74768">
        <ele>178</ele>
        <time>2013-04-29T11:52:05.000Z</time>
      </trkpt>
      <trkpt lat="48.70948" lon="1.74758">
        <ele>178</ele>
        <time>2013-04-29T11:52:11.000Z</time>
      </trkpt>
      <trkpt lat="48.70942" lon="1.74748">
        <ele>177.80000305176</ele>
        <time>2013-04-29T11:52:17.000Z</time>
      </trkpt>
      <trkpt lat="48.7094" lon="1.74746">
        <ele>177.80000305176</ele>
        <time>2013-04-29T11:52:20.000Z</time>
      </trkpt>
      <trkpt lat="48.70933" lon="1.74734">
        <ele>177.60000610352</ele>
        <time>2013-04-29T11:53:03.000Z</time>
      </trkpt>
      <trkpt lat="48.70924" lon="1.74723">
        <ele>177.39999389648</ele>
        <time>2013-04-29T11:53:09.000Z</time>
      </trkpt>
      <trkpt lat="48.70912" lon="1.7471">
        <ele>177</ele>
        <time>2013-04-29T11:53:19.000Z</time>
      </trkpt>
      <trkpt lat="48.70909" lon="1.74705">
        <ele>176.80000305176</ele>
        <time>2013-04-29T11:53:22.000Z</time>
      </trkpt>
      <trkpt lat="48.70904" lon="1.74698">
        <ele>176.80000305176</ele>
        <time>2013-04-29T11:53:27.000Z</time>
      </trkpt>
      <trkpt lat="48.70898" lon="1.74691">
        <ele>176.60000610352</ele>
        <time>2013-04-29T11:53:35.000Z</time>
      </trkpt>
      <trkpt lat="48.70891" lon="1.74678">
        <ele>176.19999694824</ele>
        <time>2013-04-29T11:53:41.000Z</time>
      </trkpt>
      <trkpt lat="48.7089" lon="1.74677">
        <ele>176.19999694824</ele>
        <time>2013-04-29T11:53:42.000Z</time>
      </trkpt>
      <trkpt lat="48.70881" lon="1.74661">
        <ele>175.80000305176</ele>
        <time>2013-04-29T11:53:49.000Z</time>
      </trkpt>
      <trkpt lat="48.70871" lon="1.74649">
        <ele>175.80000305176</ele>
        <time>2013-04-29T11:53:58.000Z</time>
      </trkpt>
      <trkpt lat="48.70864" lon="1.74643">
        <ele>175.80000305176</ele>
        <time>2013-04-29T11:54:06.000Z</time>
      </trkpt>
      <trkpt lat="48.70856" lon="1.74633">
        <ele>175.80000305176</ele>
        <time>2013-04-29T11:54:13.000Z</time>
      </trkpt>
      <trkpt lat="48.70848" lon="1.74628">
        <ele>175.80000305176</ele>
        <time>2013-04-29T11:54:19.000Z</time>
      </trkpt>
      <trkpt lat="48.70843" lon="1.74624">
        <ele>175.80000305176</ele>
        <time>2013-04-29T11:54:25.000Z</time>
      </trkpt>
      <trkpt lat="48.70832" lon="1.74603">
        <ele>176</ele>
        <time>2013-04-29T11:54:34.000Z</time>
      </trkpt>
      <trkpt lat="48.70824" lon="1.74593">
        <ele>176</ele>
        <time>2013-04-29T11:54:42.000Z</time>
      </trkpt>
      <trkpt lat="48.70814" lon="1.74579">
        <ele>176.19999694824</ele>
        <time>2013-04-29T11:54:50.000Z</time>
      </trkpt>
      <trkpt lat="48.70808" lon="1.7457">
        <ele>176.19999694824</ele>
        <time>2013-04-29T11:54:56.000Z</time>
      </trkpt>
      <trkpt lat="48.70801" lon="1.74561">
        <ele>176.19999694824</ele>
        <time>2013-04-29T11:55:03.000Z</time>
      </trkpt>
      <trkpt lat="48.70791" lon="1.74549">
        <ele>176.39999389648</ele>
        <time>2013-04-29T11:55:12.000Z</time>
      </trkpt>
      <trkpt lat="48.7078" lon="1.74535">
        <ele>176.60000610352</ele>
        <time>2013-04-29T11:55:22.000Z</time>
      </trkpt>
      <trkpt lat="48.70777" lon="1.74532">
        <ele>176.60000610352</ele>
        <time>2013-04-29T11:55:25.000Z</time>
      </trkpt>
      <trkpt lat="48.70769" lon="1.74522">
        <ele>176.60000610352</ele>
        <time>2013-04-29T11:55:32.000Z</time>
      </trkpt>
      <trkpt lat="48.70765" lon="1.74515">
        <ele>176.80000305176</ele>
        <time>2013-04-29T11:55:37.000Z</time>
      </trkpt>
      <trkpt lat="48.70763" lon="1.74511">
        <ele>176.80000305176</ele>
        <time>2013-04-29T11:55:41.000Z</time>
      </trkpt>
      <trkpt lat="48.70759" lon="1.74504">
        <ele>176.80000305176</ele>
        <time>2013-04-29T11:55:47.000Z</time>
      </trkpt>
      <trkpt lat="48.7076" lon="1.74503">
        <ele>176.80000305176</ele>
        <time>2013-04-29T11:55:51.000Z</time>
      </trkpt>
      <trkpt lat="48.70746" lon="1.74492">
        <ele>177.19999694824</ele>
        <time>2013-04-29T11:57:14.000Z</time>
      </trkpt>
      <trkpt lat="48.70744" lon="1.7449">
        <ele>177.19999694824</ele>
        <time>2013-04-29T11:57:15.000Z</time>
      </trkpt>
      <trkpt lat="48.70742" lon="1.74487">
        <ele>177.39999389648</ele>
        <time>2013-04-29T11:57:17.000Z</time>
      </trkpt>
      <trkpt lat="48.70737" lon="1.7448">
        <ele>177.60000610352</ele>
        <time>2013-04-29T11:57:24.000Z</time>
      </trkpt>
      <trkpt lat="48.7073" lon="1.74473">
        <ele>178</ele>
        <time>2013-04-29T11:57:30.000Z</time>
      </trkpt>
      <trkpt lat="48.70728" lon="1.74466">
        <ele>178.19999694824</ele>
        <time>2013-04-29T11:57:34.000Z</time>
      </trkpt>
      <trkpt lat="48.70729" lon="1.74458">
        <ele>178.19999694824</ele>
        <time>2013-04-29T11:57:38.000Z</time>
      </trkpt>
      <trkpt lat="48.70734" lon="1.74452">
        <ele>178</ele>
        <time>2013-04-29T11:57:43.000Z</time>
      </trkpt>
      <trkpt lat="48.70741" lon="1.74447">
        <ele>177.80000305176</ele>
        <time>2013-04-29T11:57:48.000Z</time>
      </trkpt>
      <trkpt lat="48.70741" lon="1.74449">
        <ele>177.80000305176</ele>
        <time>2013-04-29T11:57:51.000Z</time>
      </trkpt>
      <trkpt lat="48.70742" lon="1.74449">
        <ele>177.80000305176</ele>
        <time>2013-04-29T11:57:52.000Z</time>
      </trkpt>
      <trkpt lat="48.70747" lon="1.74445">
        <ele>177.60000610352</ele>
        <time>2013-04-29T11:58:00.000Z</time>
      </trkpt>
      <trkpt lat="48.70752" lon="1.74442">
        <ele>177.60000610352</ele>
        <time>2013-04-29T11:58:03.000Z</time>
      </trkpt>
      <trkpt lat="48.70763" lon="1.74435">
        <ele>177.39999389648</ele>
        <time>2013-04-29T11:58:12.000Z</time>
      </trkpt>
      <trkpt lat="48.70771" lon="1.7443">
        <ele>177.19999694824</ele>
        <time>2013-04-29T11:58:18.000Z</time>
      </trkpt>
      <trkpt lat="48.70774" lon="1.74426">
        <ele>177.19999694824</ele>
        <time>2013-04-29T11:58:21.000Z</time>
      </trkpt>
      <trkpt lat="48.7078" lon="1.74419">
        <ele>177.19999694824</ele>
        <time>2013-04-29T11:58:27.000Z</time>
      </trkpt>
      <trkpt lat="48.7079" lon="1.74413">
        <ele>177</ele>
        <time>2013-04-29T11:58:34.000Z</time>
      </trkpt>
      <trkpt lat="48.70791" lon="1.74412">
        <ele>177</ele>
        <time>2013-04-29T11:58:35.000Z</time>
      </trkpt>
      <trkpt lat="48.708" lon="1.74407">
        <ele>176.80000305176</ele>
        <time>2013-04-29T11:58:41.000Z</time>
      </trkpt>
      <trkpt lat="48.70806" lon="1.74403">
        <ele>176.80000305176</ele>
        <time>2013-04-29T11:58:46.000Z</time>
      </trkpt>
      <trkpt lat="48.70807" lon="1.74402">
        <ele>176.80000305176</ele>
        <time>2013-04-29T11:58:47.000Z</time>
      </trkpt>
      <trkpt lat="48.70816" lon="1.74393">
        <ele>176.60000610352</ele>
        <time>2013-04-29T11:58:54.000Z</time>
      </trkpt>
      <trkpt lat="48.70822" lon="1.74387">
        <ele>176.60000610352</ele>
        <time>2013-04-29T11:58:59.000Z</time>
      </trkpt>
      <trkpt lat="48.70832" lon="1.74377">
        <ele>176.39999389648</ele>
        <time>2013-04-29T11:59:07.000Z</time>
      </trkpt>
      <trkpt lat="48.70839" lon="1.74367">
        <ele>176.39999389648</ele>
        <time>2013-04-29T11:59:14.000Z</time>
      </trkpt>
      <trkpt lat="48.7084" lon="1.74365">
        <ele>176.39999389648</ele>
        <time>2013-04-29T11:59:15.000Z</time>
      </trkpt>
      <trkpt lat="48.70845" lon="1.74358">
        <ele>176.39999389648</ele>
        <time>2013-04-29T11:59:20.000Z</time>
      </trkpt>
      <trkpt lat="48.70847" lon="1.74354">
        <ele>176.39999389648</ele>
        <time>2013-04-29T11:59:22.000Z</time>
      </trkpt>
      <trkpt lat="48.70853" lon="1.74344">
        <ele>176.60000610352</ele>
        <time>2013-04-29T11:59:29.000Z</time>
      </trkpt>
      <trkpt lat="48.70859" lon="1.74333">
        <ele>176.60000610352</ele>
        <time>2013-04-29T11:59:36.000Z</time>
      </trkpt>
      <trkpt lat="48.70864" lon="1.74324">
        <ele>177</ele>
        <time>2013-04-29T11:59:42.000Z</time>
      </trkpt>
      <trkpt lat="48.70865" lon="1.74321">
        <ele>177</ele>
        <time>2013-04-29T11:59:44.000Z</time>
      </trkpt>
      <trkpt lat="48.70873" lon="1.7431">
        <ele>177.60000610352</ele>
        <time>2013-04-29T11:59:52.000Z</time>
      </trkpt>
      <trkpt lat="48.70879" lon="1.74298">
        <ele>178</ele>
        <time>2013-04-29T11:59:59.000Z</time>
      </trkpt>
      <trkpt lat="48.70883" lon="1.74289">
        <ele>178.60000610352</ele>
        <time>2013-04-29T12:00:05.000Z</time>
      </trkpt>
      <trkpt lat="48.70886" lon="1.74284">
        <ele>178.80000305176</ele>
        <time>2013-04-29T12:00:10.000Z</time>
      </trkpt>
      <trkpt lat="48.70891" lon="1.74273">
        <ele>179.39999389648</ele>
        <time>2013-04-29T12:00:17.000Z</time>
      </trkpt>
      <trkpt lat="48.70892" lon="1.7427">
        <ele>179.60000610352</ele>
        <time>2013-04-29T12:00:19.000Z</time>
      </trkpt>
      <trkpt lat="48.70895" lon="1.74267">
        <ele>179.80000305176</ele>
        <time>2013-04-29T12:00:22.000Z</time>
      </trkpt>
      <trkpt lat="48.70899" lon="1.74261">
        <ele>180.19999694824</ele>
        <time>2013-04-29T12:00:26.000Z</time>
      </trkpt>
      <trkpt lat="48.70903" lon="1.74254">
        <ele>180.60000610352</ele>
        <time>2013-04-29T12:00:31.000Z</time>
      </trkpt>
      <trkpt lat="48.70906" lon="1.74243">
        <ele>181</ele>
        <time>2013-04-29T12:00:37.000Z</time>
      </trkpt>
      <trkpt lat="48.70903" lon="1.74236">
        <ele>181.19999694824</ele>
        <time>2013-04-29T12:00:46.000Z</time>
      </trkpt>
      <trkpt lat="48.70902" lon="1.74229">
        <ele>181.19999694824</ele>
        <time>2013-04-29T12:01:55.000Z</time>
      </trkpt>
      <trkpt lat="48.70904" lon="1.74219">
        <ele>181.60000610352</ele>
        <time>2013-04-29T12:01:59.000Z</time>
      </trkpt>
      <trkpt lat="48.70907" lon="1.74204">
        <ele>182</ele>
        <time>2013-04-29T12:02:07.000Z</time>
      </trkpt>
      <trkpt lat="48.70912" lon="1.74193">
        <ele>182.19999694824</ele>
        <time>2013-04-29T12:02:14.000Z</time>
      </trkpt>
      <trkpt lat="48.70915" lon="1.74183">
        <ele>182.60000610352</ele>
        <time>2013-04-29T12:02:20.000Z</time>
      </trkpt>
      <trkpt lat="48.70918" lon="1.7417">
        <ele>182.80000305176</ele>
        <time>2013-04-29T12:02:26.000Z</time>
      </trkpt>
      <trkpt lat="48.70918" lon="1.74168">
        <ele>182.80000305176</ele>
        <time>2013-04-29T12:02:27.000Z</time>
      </trkpt>
      <trkpt lat="48.70921" lon="1.74157">
        <ele>182.80000305176</ele>
        <time>2013-04-29T12:02:32.000Z</time>
      </trkpt>
      <trkpt lat="48.70923" lon="1.74146">
        <ele>182.80000305176</ele>
        <time>2013-04-29T12:02:37.000Z</time>
      </trkpt>
      <trkpt lat="48.70926" lon="1.74128">
        <ele>182.60000610352</ele>
        <time>2013-04-29T12:02:45.000Z</time>
      </trkpt>
      <trkpt lat="48.70926" lon="1.74116">
        <ele>182.60000610352</ele>
        <time>2013-04-29T12:02:50.000Z</time>
      </trkpt>
      <trkpt lat="48.70926" lon="1.74113">
        <ele>182.80000305176</ele>
        <time>2013-04-29T12:02:52.000Z</time>
      </trkpt>
      <trkpt lat="48.70929" lon="1.741">
        <ele>182.60000610352</ele>
        <time>2013-04-29T12:02:58.000Z</time>
      </trkpt>
      <trkpt lat="48.70932" lon="1.74089">
        <ele>182.60000610352</ele>
        <time>2013-04-29T12:03:04.000Z</time>
      </trkpt>
      <trkpt lat="48.70932" lon="1.74088">
        <ele>182.60000610352</ele>
        <time>2013-04-29T12:03:07.000Z</time>
      </trkpt>
      <trkpt lat="48.70942" lon="1.74083">
        <ele>182.60000610352</ele>
        <time>2013-04-29T12:03:25.000Z</time>
      </trkpt>
      <trkpt lat="48.70943" lon="1.74076">
        <ele>182.60000610352</ele>
        <time>2013-04-29T12:03:28.000Z</time>
      </trkpt>
      <trkpt lat="48.70946" lon="1.74064">
        <ele>182.60000610352</ele>
        <time>2013-04-29T12:03:34.000Z</time>
      </trkpt>
      <trkpt lat="48.7095" lon="1.74053">
        <ele>182.60000610352</ele>
        <time>2013-04-29T12:03:40.000Z</time>
      </trkpt>
      <trkpt lat="48.70953" lon="1.74037">
        <ele>182.39999389648</ele>
        <time>2013-04-29T12:03:48.000Z</time>
      </trkpt>
      <trkpt lat="48.70955" lon="1.74028">
        <ele>182.39999389648</ele>
        <time>2013-04-29T12:03:52.000Z</time>
      </trkpt>
      <trkpt lat="48.70957" lon="1.74005">
        <ele>182.39999389648</ele>
        <time>2013-04-29T12:04:01.000Z</time>
      </trkpt>
      <trkpt lat="48.70961" lon="1.73993">
        <ele>182.60000610352</ele>
        <time>2013-04-29T12:04:08.000Z</time>
      </trkpt>
      <trkpt lat="48.70963" lon="1.73983">
        <ele>182.60000610352</ele>
        <time>2013-04-29T12:04:16.000Z</time>
      </trkpt>
      <trkpt lat="48.70965" lon="1.73982">
        <ele>182.60000610352</ele>
        <time>2013-04-29T12:04:20.000Z</time>
      </trkpt>
      <trkpt lat="48.70965" lon="1.7398">
        <ele>182.80000305176</ele>
        <time>2013-04-29T12:04:23.000Z</time>
      </trkpt>
      <trkpt lat="48.70966" lon="1.73974">
        <ele>182.80000305176</ele>
        <time>2013-04-29T12:04:25.000Z</time>
      </trkpt>
      <trkpt lat="48.70967" lon="1.73971">
        <ele>183</ele>
        <time>2013-04-29T12:04:29.000Z</time>
      </trkpt>
      <trkpt lat="48.70973" lon="1.73944">
        <ele>183.60000610352</ele>
        <time>2013-04-29T12:04:53.000Z</time>
      </trkpt>
      <trkpt lat="48.70977" lon="1.73928">
        <ele>184</ele>
        <time>2013-04-29T12:05:01.000Z</time>
      </trkpt>
      <trkpt lat="48.70982" lon="1.73913">
        <ele>184.39999389648</ele>
        <time>2013-04-29T12:05:09.000Z</time>
      </trkpt>
      <trkpt lat="48.70985" lon="1.73898">
        <ele>184</ele>
        <time>2013-04-29T12:05:16.000Z</time>
      </trkpt>
      <trkpt lat="48.70985" lon="1.73897">
        <ele>184</ele>
        <time>2013-04-29T12:05:17.000Z</time>
      </trkpt>
      <trkpt lat="48.70986" lon="1.73883">
        <ele>183.60000610352</ele>
        <time>2013-04-29T12:05:24.000Z</time>
      </trkpt>
      <trkpt lat="48.70987" lon="1.73875">
        <ele>183.60000610352</ele>
        <time>2013-04-29T12:05:27.000Z</time>
      </trkpt>
      <trkpt lat="48.70988" lon="1.73862">
        <ele>183.19999694824</ele>
        <time>2013-04-29T12:05:32.000Z</time>
      </trkpt>
      <trkpt lat="48.7099" lon="1.73845">
        <ele>182.80000305176</ele>
        <time>2013-04-29T12:05:39.000Z</time>
      </trkpt>
      <trkpt lat="48.70993" lon="1.73834">
        <ele>182.60000610352</ele>
        <time>2013-04-29T12:05:44.000Z</time>
      </trkpt>
      <trkpt lat="48.71" lon="1.73817">
        <ele>182.39999389648</ele>
        <time>2013-04-29T12:05:54.000Z</time>
      </trkpt>
      <trkpt lat="48.71004" lon="1.738">
        <ele>182.19999694824</ele>
        <time>2013-04-29T12:06:01.000Z</time>
      </trkpt>
      <trkpt lat="48.71011" lon="1.73797">
        <ele>182</ele>
        <time>2013-04-29T12:06:06.000Z</time>
      </trkpt>
      <trkpt lat="48.71016" lon="1.73793">
        <ele>182</ele>
        <time>2013-04-29T12:06:10.000Z</time>
      </trkpt>
      <trkpt lat="48.71022" lon="1.73788">
        <ele>182</ele>
        <time>2013-04-29T12:06:15.000Z</time>
      </trkpt>
      <trkpt lat="48.71029" lon="1.73785">
        <ele>182</ele>
        <time>2013-04-29T12:06:21.000Z</time>
      </trkpt>
      <trkpt lat="48.71038" lon="1.73774">
        <ele>182</ele>
        <time>2013-04-29T12:06:28.000Z</time>
      </trkpt>
      <trkpt lat="48.71042" lon="1.73768">
        <ele>182</ele>
        <time>2013-04-29T12:06:32.000Z</time>
      </trkpt>
      <trkpt lat="48.7105" lon="1.73758">
        <ele>182.19999694824</ele>
        <time>2013-04-29T12:06:39.000Z</time>
      </trkpt>
      <trkpt lat="48.71057" lon="1.73751">
        <ele>182.19999694824</ele>
        <time>2013-04-29T12:06:45.000Z</time>
      </trkpt>
      <trkpt lat="48.71062" lon="1.73744">
        <ele>182.19999694824</ele>
        <time>2013-04-29T12:06:51.000Z</time>
      </trkpt>
      <trkpt lat="48.71071" lon="1.73736">
        <ele>182</ele>
        <time>2013-04-29T12:06:59.000Z</time>
      </trkpt>
      <trkpt lat="48.71081" lon="1.73729">
        <ele>181.80000305176</ele>
        <time>2013-04-29T12:07:06.000Z</time>
      </trkpt>
      <trkpt lat="48.71086" lon="1.73723">
        <ele>181.60000610352</ele>
        <time>2013-04-29T12:07:11.000Z</time>
      </trkpt>
      <trkpt lat="48.71093" lon="1.73716">
        <ele>181.60000610352</ele>
        <time>2013-04-29T12:07:16.000Z</time>
      </trkpt>
      <trkpt lat="48.71098" lon="1.73711">
        <ele>181.39999389648</ele>
        <time>2013-04-29T12:07:19.000Z</time>
      </trkpt>
      <trkpt lat="48.71107" lon="1.737">
        <ele>181.19999694824</ele>
        <time>2013-04-29T12:07:26.000Z</time>
      </trkpt>
      <trkpt lat="48.71112" lon="1.73693">
        <ele>181.19999694824</ele>
        <time>2013-04-29T12:07:31.000Z</time>
      </trkpt>
      <trkpt lat="48.71119" lon="1.73688">
        <ele>181.39999389648</ele>
        <time>2013-04-29T12:07:36.000Z</time>
      </trkpt>
      <trkpt lat="48.7112" lon="1.73687">
        <ele>181.39999389648</ele>
        <time>2013-04-29T12:07:37.000Z</time>
      </trkpt>
      <trkpt lat="48.71127" lon="1.73678">
        <ele>181.39999389648</ele>
        <time>2013-04-29T12:07:44.000Z</time>
      </trkpt>
      <trkpt lat="48.71133" lon="1.7367">
        <ele>181.39999389648</ele>
        <time>2013-04-29T12:07:49.000Z</time>
      </trkpt>
      <trkpt lat="48.71137" lon="1.73666">
        <ele>181.39999389648</ele>
        <time>2013-04-29T12:07:53.000Z</time>
      </trkpt>
      <trkpt lat="48.71141" lon="1.73663">
        <ele>181.60000610352</ele>
        <time>2013-04-29T12:07:56.000Z</time>
      </trkpt>
      <trkpt lat="48.71143" lon="1.73661">
        <ele>181.60000610352</ele>
        <time>2013-04-29T12:07:58.000Z</time>
      </trkpt>
      <trkpt lat="48.71149" lon="1.73655">
        <ele>181.60000610352</ele>
        <time>2013-04-29T12:08:02.000Z</time>
      </trkpt>
      <trkpt lat="48.7116" lon="1.73645">
        <ele>181.80000305176</ele>
        <time>2013-04-29T12:08:10.000Z</time>
      </trkpt>
      <trkpt lat="48.71172" lon="1.73634">
        <ele>181.80000305176</ele>
        <time>2013-04-29T12:08:19.000Z</time>
      </trkpt>
      <trkpt lat="48.71181" lon="1.73624">
        <ele>181.80000305176</ele>
        <time>2013-04-29T12:08:26.000Z</time>
      </trkpt>
      <trkpt lat="48.71192" lon="1.73611">
        <ele>182</ele>
        <time>2013-04-29T12:08:35.000Z</time>
      </trkpt>
      <trkpt lat="48.71194" lon="1.73608">
        <ele>182</ele>
        <time>2013-04-29T12:08:37.000Z</time>
      </trkpt>
      <trkpt lat="48.71202" lon="1.73604">
        <ele>182.19999694824</ele>
        <time>2013-04-29T12:08:42.000Z</time>
      </trkpt>
      <trkpt lat="48.71206" lon="1.73605">
        <ele>182.39999389648</ele>
        <time>2013-04-29T12:08:44.000Z</time>
      </trkpt>
      <trkpt lat="48.71214" lon="1.73612">
        <ele>182.80000305176</ele>
        <time>2013-04-29T12:08:49.000Z</time>
      </trkpt>
      <trkpt lat="48.71225" lon="1.73614">
        <ele>183.19999694824</ele>
        <time>2013-04-29T12:08:57.000Z</time>
      </trkpt>
      <trkpt lat="48.71228" lon="1.73615">
        <ele>183.39999389648</ele>
        <time>2013-04-29T12:08:59.000Z</time>
      </trkpt>
      <trkpt lat="48.71237" lon="1.73616">
        <ele>183.60000610352</ele>
        <time>2013-04-29T12:09:05.000Z</time>
      </trkpt>
      <trkpt lat="48.71244" lon="1.73618">
        <ele>183.80000305176</ele>
        <time>2013-04-29T12:09:10.000Z</time>
      </trkpt>
      <trkpt lat="48.71254" lon="1.73618">
        <ele>183.39999389648</ele>
        <time>2013-04-29T12:09:16.000Z</time>
      </trkpt>
      <trkpt lat="48.71255" lon="1.73618">
        <ele>183.19999694824</ele>
        <time>2013-04-29T12:09:17.000Z</time>
      </trkpt>
      <trkpt lat="48.71264" lon="1.73613">
        <ele>181.80000305176</ele>
        <time>2013-04-29T12:09:23.000Z</time>
      </trkpt>
      <trkpt lat="48.71276" lon="1.73608">
        <ele>179.80000305176</ele>
        <time>2013-04-29T12:09:30.000Z</time>
      </trkpt>
      <trkpt lat="48.71286" lon="1.73601">
        <ele>178.39999389648</ele>
        <time>2013-04-29T12:09:36.000Z</time>
      </trkpt>
      <trkpt lat="48.71287" lon="1.73599">
        <ele>178.19999694824</ele>
        <time>2013-04-29T12:09:37.000Z</time>
      </trkpt>
      <trkpt lat="48.71293" lon="1.73588">
        <ele>177.60000610352</ele>
        <time>2013-04-29T12:09:43.000Z</time>
      </trkpt>
      <trkpt lat="48.713" lon="1.73572">
        <ele>176.80000305176</ele>
        <time>2013-04-29T12:09:52.000Z</time>
      </trkpt>
      <trkpt lat="48.71305" lon="1.73558">
        <ele>176.60000610352</ele>
        <time>2013-04-29T12:09:59.000Z</time>
      </trkpt>
      <trkpt lat="48.71309" lon="1.73548">
        <ele>176.39999389648</ele>
        <time>2013-04-29T12:10:04.000Z</time>
      </trkpt>
      <trkpt lat="48.71314" lon="1.7354">
        <ele>176.19999694824</ele>
        <time>2013-04-29T12:10:09.000Z</time>
      </trkpt>
      <trkpt lat="48.71325" lon="1.73531">
        <ele>175.60000610352</ele>
        <time>2013-04-29T12:10:17.000Z</time>
      </trkpt>
      <trkpt lat="48.71335" lon="1.73527">
        <ele>174.80000305176</ele>
        <time>2013-04-29T12:10:24.000Z</time>
      </trkpt>
      <trkpt lat="48.71344" lon="1.73532">
        <ele>173.19999694824</ele>
        <time>2013-04-29T12:10:30.000Z</time>
      </trkpt>
      <trkpt lat="48.71351" lon="1.7354">
        <ele>171.80000305176</ele>
        <time>2013-04-29T12:10:36.000Z</time>
      </trkpt>
      <trkpt lat="48.71361" lon="1.73549">
        <ele>170.19999694824</ele>
        <time>2013-04-29T12:10:44.000Z</time>
      </trkpt>
      <trkpt lat="48.71363" lon="1.73552">
        <ele>169.60000610352</ele>
        <time>2013-04-29T12:10:46.000Z</time>
      </trkpt>
      <trkpt lat="48.71372" lon="1.73562">
        <ele>168</ele>
        <time>2013-04-29T12:10:53.000Z</time>
      </trkpt>
      <trkpt lat="48.71374" lon="1.73564">
        <ele>167.60000610352</ele>
        <time>2013-04-29T12:10:55.000Z</time>
      </trkpt>
      <trkpt lat="48.7138" lon="1.73571">
        <ele>166.60000610352</ele>
        <time>2013-04-29T12:11:00.000Z</time>
      </trkpt>
      <trkpt lat="48.71395" lon="1.73577">
        <ele>164.60000610352</ele>
        <time>2013-04-29T12:11:08.000Z</time>
      </trkpt>
      <trkpt lat="48.71403" lon="1.73576">
        <ele>163.80000305176</ele>
        <time>2013-04-29T12:11:15.000Z</time>
      </trkpt>
      <trkpt lat="48.71409" lon="1.73576">
        <ele>163</ele>
        <time>2013-04-29T12:11:21.000Z</time>
      </trkpt>
      <trkpt lat="48.71424" lon="1.73574">
        <ele>161.60000610352</ele>
        <time>2013-04-29T12:11:31.000Z</time>
      </trkpt>
      <trkpt lat="48.71441" lon="1.73573">
        <ele>160.19999694824</ele>
        <time>2013-04-29T12:11:41.000Z</time>
      </trkpt>
      <trkpt lat="48.7145" lon="1.73568">
        <ele>159.39999389648</ele>
        <time>2013-04-29T12:11:49.000Z</time>
      </trkpt>
      <trkpt lat="48.71462" lon="1.73564">
        <ele>158.19999694824</ele>
        <time>2013-04-29T12:11:56.000Z</time>
      </trkpt>
      <trkpt lat="48.71473" lon="1.73563">
        <ele>157</ele>
        <time>2013-04-29T12:12:03.000Z</time>
      </trkpt>
      <trkpt lat="48.71487" lon="1.73559">
        <ele>155.39999389648</ele>
        <time>2013-04-29T12:12:12.000Z</time>
      </trkpt>
      <trkpt lat="48.71503" lon="1.73555">
        <ele>153.60000610352</ele>
        <time>2013-04-29T12:12:22.000Z</time>
      </trkpt>
      <trkpt lat="48.71516" lon="1.73552">
        <ele>152</ele>
        <time>2013-04-29T12:12:30.000Z</time>
      </trkpt>
      <trkpt lat="48.71526" lon="1.73551">
        <ele>150.80000305176</ele>
        <time>2013-04-29T12:12:36.000Z</time>
      </trkpt>
      <trkpt lat="48.71534" lon="1.7355">
        <ele>150</ele>
        <time>2013-04-29T12:12:41.000Z</time>
      </trkpt>
      <trkpt lat="48.71544" lon="1.73546">
        <ele>148.80000305176</ele>
        <time>2013-04-29T12:12:47.000Z</time>
      </trkpt>
      <trkpt lat="48.71556" lon="1.73544">
        <ele>147.39999389648</ele>
        <time>2013-04-29T12:12:54.000Z</time>
      </trkpt>
      <trkpt lat="48.71569" lon="1.73541">
        <ele>146</ele>
        <time>2013-04-29T12:13:02.000Z</time>
      </trkpt>
      <trkpt lat="48.71581" lon="1.73537">
        <ele>144.60000610352</ele>
        <time>2013-04-29T12:13:10.000Z</time>
      </trkpt>
      <trkpt lat="48.71595" lon="1.73535">
        <ele>143.60000610352</ele>
        <time>2013-04-29T12:13:19.000Z</time>
      </trkpt>
      <trkpt lat="48.71602" lon="1.73534">
        <ele>143.39999389648</ele>
        <time>2013-04-29T12:13:23.000Z</time>
      </trkpt>
      <trkpt lat="48.71607" lon="1.73532">
        <ele>143</ele>
        <time>2013-04-29T12:13:27.000Z</time>
      </trkpt>
      <trkpt lat="48.71618" lon="1.73529">
        <ele>142.39999389648</ele>
        <time>2013-04-29T12:13:34.000Z</time>
      </trkpt>
      <trkpt lat="48.71633" lon="1.73524">
        <ele>141.60000610352</ele>
        <time>2013-04-29T12:13:43.000Z</time>
      </trkpt>
      <trkpt lat="48.71645" lon="1.73521">
        <ele>141</ele>
        <time>2013-04-29T12:13:50.000Z</time>
      </trkpt>
      <trkpt lat="48.71657" lon="1.73518">
        <ele>140.39999389648</ele>
        <time>2013-04-29T12:13:58.000Z</time>
      </trkpt>
      <trkpt lat="48.71669" lon="1.73515">
        <ele>139.80000305176</ele>
        <time>2013-04-29T12:14:05.000Z</time>
      </trkpt>
      <trkpt lat="48.71682" lon="1.73512">
        <ele>139.39999389648</ele>
        <time>2013-04-29T12:14:12.000Z</time>
      </trkpt>
      <trkpt lat="48.71692" lon="1.73509">
        <ele>139</ele>
        <time>2013-04-29T12:14:19.000Z</time>
      </trkpt>
      <trkpt lat="48.717" lon="1.73507">
        <ele>138.80000305176</ele>
        <time>2013-04-29T12:14:27.000Z</time>
      </trkpt>
      <trkpt lat="48.71701" lon="1.73507">
        <ele>138.80000305176</ele>
        <time>2013-04-29T12:14:28.000Z</time>
      </trkpt>
      <trkpt lat="48.71703" lon="1.73507">
        <ele>138.60000610352</ele>
        <time>2013-04-29T12:14:38.000Z</time>
      </trkpt>
      <trkpt lat="48.71713" lon="1.73505">
        <ele>138.39999389648</ele>
        <time>2013-04-29T12:14:44.000Z</time>
      </trkpt>
      <trkpt lat="48.71727" lon="1.73502">
        <ele>137.80000305176</ele>
        <time>2013-04-29T12:14:52.000Z</time>
      </trkpt>
      <trkpt lat="48.71741" lon="1.735">
        <ele>137.19999694824</ele>
        <time>2013-04-29T12:15:01.000Z</time>
      </trkpt>
      <trkpt lat="48.71748" lon="1.73494">
        <ele>137</ele>
        <time>2013-04-29T12:15:06.000Z</time>
      </trkpt>
      <trkpt lat="48.7175" lon="1.73491">
        <ele>136.80000305176</ele>
        <time>2013-04-29T12:15:08.000Z</time>
      </trkpt>
      <trkpt lat="48.71754" lon="1.73487">
        <ele>136.80000305176</ele>
        <time>2013-04-29T12:15:11.000Z</time>
      </trkpt>
      <trkpt lat="48.71754" lon="1.73475">
        <ele>136.80000305176</ele>
        <time>2013-04-29T12:15:17.000Z</time>
      </trkpt>
      <trkpt lat="48.71752" lon="1.73464">
        <ele>136.80000305176</ele>
        <time>2013-04-29T12:15:23.000Z</time>
      </trkpt>
      <trkpt lat="48.71746" lon="1.73442">
        <ele>137</ele>
        <time>2013-04-29T12:15:33.000Z</time>
      </trkpt>
      <trkpt lat="48.71741" lon="1.73419">
        <ele>137.19999694824</ele>
        <time>2013-04-29T12:15:43.000Z</time>
      </trkpt>
      <trkpt lat="48.7174" lon="1.73415">
        <ele>137.19999694824</ele>
        <time>2013-04-29T12:15:45.000Z</time>
      </trkpt>
      <trkpt lat="48.71737" lon="1.73403">
        <ele>137</ele>
        <time>2013-04-29T12:15:50.000Z</time>
      </trkpt>
      <trkpt lat="48.71733" lon="1.73385">
        <ele>136.80000305176</ele>
        <time>2013-04-29T12:15:58.000Z</time>
      </trkpt>
      <trkpt lat="48.71729" lon="1.73369">
        <ele>136.60000610352</ele>
        <time>2013-04-29T12:16:04.000Z</time>
      </trkpt>
      <trkpt lat="48.71723" lon="1.73351">
        <ele>136.19999694824</ele>
        <time>2013-04-29T12:16:12.000Z</time>
      </trkpt>
      <trkpt lat="48.7172" lon="1.73337">
        <ele>136</ele>
        <time>2013-04-29T12:16:18.000Z</time>
      </trkpt>
      <trkpt lat="48.71715" lon="1.73322">
        <ele>136</ele>
        <time>2013-04-29T12:16:25.000Z</time>
      </trkpt>
      <trkpt lat="48.71712" lon="1.73302">
        <ele>136</ele>
        <time>2013-04-29T12:16:34.000Z</time>
      </trkpt>
      <trkpt lat="48.71709" lon="1.73277">
        <ele>136</ele>
        <time>2013-04-29T12:16:45.000Z</time>
      </trkpt>
      <trkpt lat="48.71704" lon="1.73253">
        <ele>136.19999694824</ele>
        <time>2013-04-29T12:16:56.000Z</time>
      </trkpt>
      <trkpt lat="48.71702" lon="1.73234">
        <ele>136</ele>
        <time>2013-04-29T12:17:05.000Z</time>
      </trkpt>
      <trkpt lat="48.71699" lon="1.73214">
        <ele>136</ele>
        <time>2013-04-29T12:17:14.000Z</time>
      </trkpt>
      <trkpt lat="48.71697" lon="1.73203">
        <ele>136</ele>
        <time>2013-04-29T12:17:19.000Z</time>
      </trkpt>
      <trkpt lat="48.71693" lon="1.73184">
        <ele>136</ele>
        <time>2013-04-29T12:17:28.000Z</time>
      </trkpt>
      <trkpt lat="48.71691" lon="1.73168">
        <ele>136</ele>
        <time>2013-04-29T12:17:34.000Z</time>
      </trkpt>
      <trkpt lat="48.71688" lon="1.73148">
        <ele>136.60000610352</ele>
        <time>2013-04-29T12:17:43.000Z</time>
      </trkpt>
      <trkpt lat="48.71687" lon="1.73129">
        <ele>137</ele>
        <time>2013-04-29T12:17:51.000Z</time>
      </trkpt>
      <trkpt lat="48.71684" lon="1.7311">
        <ele>137.60000610352</ele>
        <time>2013-04-29T12:17:59.000Z</time>
      </trkpt>
      <trkpt lat="48.71682" lon="1.73089">
        <ele>138</ele>
        <time>2013-04-29T12:18:08.000Z</time>
      </trkpt>
      <trkpt lat="48.7168" lon="1.73071">
        <ele>138</ele>
        <time>2013-04-29T12:18:16.000Z</time>
      </trkpt>
      <trkpt lat="48.71677" lon="1.73051">
        <ele>138</ele>
        <time>2013-04-29T12:18:24.000Z</time>
      </trkpt>
      <trkpt lat="48.71675" lon="1.73026">
        <ele>137.80000305176</ele>
        <time>2013-04-29T12:18:35.000Z</time>
      </trkpt>
      <trkpt lat="48.71671" lon="1.73004">
        <ele>137.80000305176</ele>
        <time>2013-04-29T12:18:45.000Z</time>
      </trkpt>
      <trkpt lat="48.71663" lon="1.72986">
        <ele>138</ele>
        <time>2013-04-29T12:18:54.000Z</time>
      </trkpt>
      <trkpt lat="48.71659" lon="1.72976">
        <ele>138</ele>
        <time>2013-04-29T12:18:59.000Z</time>
      </trkpt>
      <trkpt lat="48.71653" lon="1.72955">
        <ele>138</ele>
        <time>2013-04-29T12:19:10.000Z</time>
      </trkpt>
      <trkpt lat="48.71645" lon="1.72941">
        <ele>138.19999694824</ele>
        <time>2013-04-29T12:19:16.000Z</time>
      </trkpt>
      <trkpt lat="48.71635" lon="1.72921">
        <ele>138.39999389648</ele>
        <time>2013-04-29T12:19:21.000Z</time>
      </trkpt>
      <trkpt lat="48.7162" lon="1.72887">
        <ele>139</ele>
        <time>2013-04-29T12:19:28.000Z</time>
      </trkpt>
      <trkpt lat="48.71605" lon="1.72856">
        <ele>139.39999389648</ele>
        <time>2013-04-29T12:19:34.000Z</time>
      </trkpt>
      <trkpt lat="48.71598" lon="1.72839">
        <ele>139.39999389648</ele>
        <time>2013-04-29T12:19:37.000Z</time>
      </trkpt>
      <trkpt lat="48.71593" lon="1.72828">
        <ele>139.60000610352</ele>
        <time>2013-04-29T12:19:39.000Z</time>
      </trkpt>
      <trkpt lat="48.71577" lon="1.72803">
        <ele>140.60000610352</ele>
        <time>2013-04-29T12:19:45.000Z</time>
      </trkpt>
      <trkpt lat="48.71574" lon="1.72799">
        <ele>140.80000305176</ele>
        <time>2013-04-29T12:19:46.000Z</time>
      </trkpt>
      <trkpt lat="48.71562" lon="1.72767">
        <ele>142</ele>
        <time>2013-04-29T12:19:52.000Z</time>
      </trkpt>
      <trkpt lat="48.71555" lon="1.72747">
        <ele>142.60000610352</ele>
        <time>2013-04-29T12:19:56.000Z</time>
      </trkpt>
      <trkpt lat="48.71543" lon="1.72724">
        <ele>142.80000305176</ele>
        <time>2013-04-29T12:20:01.000Z</time>
      </trkpt>
      <trkpt lat="48.71534" lon="1.72702">
        <ele>143</ele>
        <time>2013-04-29T12:20:05.000Z</time>
      </trkpt>
      <trkpt lat="48.7152" lon="1.72654">
        <ele>142.60000610352</ele>
        <time>2013-04-29T12:20:13.000Z</time>
      </trkpt>
      <trkpt lat="48.71509" lon="1.72613">
        <ele>142.19999694824</ele>
        <time>2013-04-29T12:20:20.000Z</time>
      </trkpt>
      <trkpt lat="48.71503" lon="1.72567">
        <ele>141.60000610352</ele>
        <time>2013-04-29T12:20:28.000Z</time>
      </trkpt>
      <trkpt lat="48.71498" lon="1.72543">
        <ele>141.60000610352</ele>
        <time>2013-04-29T12:20:32.000Z</time>
      </trkpt>
      <trkpt lat="48.71495" lon="1.72518">
        <ele>141.39999389648</ele>
        <time>2013-04-29T12:20:36.000Z</time>
      </trkpt>
      <trkpt lat="48.71492" lon="1.72497">
        <ele>141.39999389648</ele>
        <time>2013-04-29T12:20:39.000Z</time>
      </trkpt>
      <trkpt lat="48.7149" lon="1.72474">
        <ele>140.80000305176</ele>
        <time>2013-04-29T12:20:43.000Z</time>
      </trkpt>
      <trkpt lat="48.71487" lon="1.72449">
        <ele>140.39999389648</ele>
        <time>2013-04-29T12:20:47.000Z</time>
      </trkpt>
      <trkpt lat="48.71483" lon="1.7241">
        <ele>139.80000305176</ele>
        <time>2013-04-29T12:20:54.000Z</time>
      </trkpt>
      <trkpt lat="48.71482" lon="1.72376">
        <ele>139.39999389648</ele>
        <time>2013-04-29T12:21:00.000Z</time>
      </trkpt>
      <trkpt lat="48.71484" lon="1.72338">
        <ele>139</ele>
        <time>2013-04-29T12:21:06.000Z</time>
      </trkpt>
      <trkpt lat="48.71484" lon="1.72319">
        <ele>138.80000305176</ele>
        <time>2013-04-29T12:21:09.000Z</time>
      </trkpt>
      <trkpt lat="48.71484" lon="1.72298">
        <ele>138.60000610352</ele>
        <time>2013-04-29T12:21:13.000Z</time>
      </trkpt>
      <trkpt lat="48.71476" lon="1.7225">
        <ele>138.60000610352</ele>
        <time>2013-04-29T12:21:22.000Z</time>
      </trkpt>
      <trkpt lat="48.71467" lon="1.72223">
        <ele>140</ele>
        <time>2013-04-29T12:21:28.000Z</time>
      </trkpt>
      <trkpt lat="48.7146" lon="1.72203">
        <ele>141.19999694824</ele>
        <time>2013-04-29T12:21:32.000Z</time>
      </trkpt>
      <trkpt lat="48.71449" lon="1.7219">
        <ele>142.60000610352</ele>
        <time>2013-04-29T12:21:36.000Z</time>
      </trkpt>
      <trkpt lat="48.71437" lon="1.72173">
        <ele>144.39999389648</ele>
        <time>2013-04-29T12:21:42.000Z</time>
      </trkpt>
      <trkpt lat="48.7143" lon="1.72152">
        <ele>145</ele>
        <time>2013-04-29T12:21:46.000Z</time>
      </trkpt>
      <trkpt lat="48.71425" lon="1.72124">
        <ele>144.19999694824</ele>
        <time>2013-04-29T12:21:51.000Z</time>
      </trkpt>
      <trkpt lat="48.71415" lon="1.72102">
        <ele>144.19999694824</ele>
        <time>2013-04-29T12:21:56.000Z</time>
      </trkpt>
      <trkpt lat="48.7141" lon="1.72094">
        <ele>144.39999389648</ele>
        <time>2013-04-29T12:21:59.000Z</time>
      </trkpt>
      <trkpt lat="48.71409" lon="1.7208">
        <ele>144</ele>
        <time>2013-04-29T12:22:05.000Z</time>
      </trkpt>
      <trkpt lat="48.71409" lon="1.72067">
        <ele>144</ele>
        <time>2013-04-29T12:22:10.000Z</time>
      </trkpt>
      <trkpt lat="48.71398" lon="1.72047">
        <ele>145.19999694824</ele>
        <time>2013-04-29T12:22:15.000Z</time>
      </trkpt>
      <trkpt lat="48.71381" lon="1.72026">
        <ele>146.19999694824</ele>
        <time>2013-04-29T12:22:21.000Z</time>
      </trkpt>
      <trkpt lat="48.71365" lon="1.72011">
        <ele>146.39999389648</ele>
        <time>2013-04-29T12:22:26.000Z</time>
      </trkpt>
      <trkpt lat="48.71344" lon="1.71989">
        <ele>146.80000305176</ele>
        <time>2013-04-29T12:22:32.000Z</time>
      </trkpt>
      <trkpt lat="48.71334" lon="1.71977">
        <ele>147.39999389648</ele>
        <time>2013-04-29T12:22:35.000Z</time>
      </trkpt>
      <trkpt lat="48.71328" lon="1.71969">
        <ele>148.19999694824</ele>
        <time>2013-04-29T12:22:37.000Z</time>
      </trkpt>
      <trkpt lat="48.71321" lon="1.71964">
        <ele>149.19999694824</ele>
        <time>2013-04-29T12:22:39.000Z</time>
      </trkpt>
      <trkpt lat="48.71312" lon="1.7194">
        <ele>150.60000610352</ele>
        <time>2013-04-29T12:22:44.000Z</time>
      </trkpt>
      <trkpt lat="48.71312" lon="1.71928">
        <ele>151</ele>
        <time>2013-04-29T12:22:46.000Z</time>
      </trkpt>
      <trkpt lat="48.71314" lon="1.71897">
        <ele>151.19999694824</ele>
        <time>2013-04-29T12:22:51.000Z</time>
      </trkpt>
      <trkpt lat="48.71317" lon="1.71867">
        <ele>151.39999389648</ele>
        <time>2013-04-29T12:22:56.000Z</time>
      </trkpt>
      <trkpt lat="48.71319" lon="1.71862">
        <ele>151.19999694824</ele>
        <time>2013-04-29T12:22:57.000Z</time>
      </trkpt>
      <trkpt lat="48.71324" lon="1.71827">
        <ele>150.80000305176</ele>
        <time>2013-04-29T12:23:03.000Z</time>
      </trkpt>
      <trkpt lat="48.71322" lon="1.71793">
        <ele>149.60000610352</ele>
        <time>2013-04-29T12:23:09.000Z</time>
      </trkpt>
      <trkpt lat="48.71318" lon="1.71763">
        <ele>148.80000305176</ele>
        <time>2013-04-29T12:23:14.000Z</time>
      </trkpt>
      <trkpt lat="48.71316" lon="1.71727">
        <ele>148</ele>
        <time>2013-04-29T12:23:20.000Z</time>
      </trkpt>
      <trkpt lat="48.71315" lon="1.71691">
        <ele>147.19999694824</ele>
        <time>2013-04-29T12:23:26.000Z</time>
      </trkpt>
      <trkpt lat="48.71313" lon="1.71662">
        <ele>146.80000305176</ele>
        <time>2013-04-29T12:23:31.000Z</time>
      </trkpt>
      <trkpt lat="48.71311" lon="1.71618">
        <ele>145.39999389648</ele>
        <time>2013-04-29T12:23:39.000Z</time>
      </trkpt>
      <trkpt lat="48.71311" lon="1.7159">
        <ele>144.39999389648</ele>
        <time>2013-04-29T12:23:44.000Z</time>
      </trkpt>
      <trkpt lat="48.71311" lon="1.7155">
        <ele>143.80000305176</ele>
        <time>2013-04-29T12:23:51.000Z</time>
      </trkpt>
      <trkpt lat="48.7131" lon="1.71516">
        <ele>143.19999694824</ele>
        <time>2013-04-29T12:23:57.000Z</time>
      </trkpt>
      <trkpt lat="48.71309" lon="1.7149">
        <ele>143</ele>
        <time>2013-04-29T12:24:02.000Z</time>
      </trkpt>
      <trkpt lat="48.71309" lon="1.71476">
        <ele>142.80000305176</ele>
        <time>2013-04-29T12:24:06.000Z</time>
      </trkpt>
      <trkpt lat="48.71308" lon="1.71474">
        <ele>142.80000305176</ele>
        <time>2013-04-29T12:24:09.000Z</time>
      </trkpt>
      <trkpt lat="48.71308" lon="1.71468">
        <ele>142.80000305176</ele>
        <time>2013-04-29T12:24:15.000Z</time>
      </trkpt>
      <trkpt lat="48.71299" lon="1.71441">
        <ele>143.19999694824</ele>
        <time>2013-04-29T12:24:19.000Z</time>
      </trkpt>
      <trkpt lat="48.71294" lon="1.71403">
        <ele>143</ele>
        <time>2013-04-29T12:24:25.000Z</time>
      </trkpt>
      <trkpt lat="48.71289" lon="1.71362">
        <ele>142.60000610352</ele>
        <time>2013-04-29T12:24:32.000Z</time>
      </trkpt>
      <trkpt lat="48.71282" lon="1.71318">
        <ele>142.19999694824</ele>
        <time>2013-04-29T12:24:40.000Z</time>
      </trkpt>
      <trkpt lat="48.71275" lon="1.71286">
        <ele>141.80000305176</ele>
        <time>2013-04-29T12:24:46.000Z</time>
      </trkpt>
      <trkpt lat="48.71271" lon="1.71257">
        <ele>141.60000610352</ele>
        <time>2013-04-29T12:24:51.000Z</time>
      </trkpt>
      <trkpt lat="48.71271" lon="1.71226">
        <ele>141.39999389648</ele>
        <time>2013-04-29T12:24:56.000Z</time>
      </trkpt>
      <trkpt lat="48.71274" lon="1.71192">
        <ele>141.19999694824</ele>
        <time>2013-04-29T12:25:02.000Z</time>
      </trkpt>
      <trkpt lat="48.71268" lon="1.71151">
        <ele>141.19999694824</ele>
        <time>2013-04-29T12:25:09.000Z</time>
      </trkpt>
      <trkpt lat="48.71257" lon="1.71113">
        <ele>141.80000305176</ele>
        <time>2013-04-29T12:25:16.000Z</time>
      </trkpt>
      <trkpt lat="48.71246" lon="1.71089">
        <ele>142.19999694824</ele>
        <time>2013-04-29T12:25:21.000Z</time>
      </trkpt>
      <trkpt lat="48.71232" lon="1.7106">
        <ele>143.60000610352</ele>
        <time>2013-04-29T12:25:28.000Z</time>
      </trkpt>
      <trkpt lat="48.71221" lon="1.71034">
        <ele>144.60000610352</ele>
        <time>2013-04-29T12:25:34.000Z</time>
      </trkpt>
      <trkpt lat="48.71213" lon="1.71003">
        <ele>145.19999694824</ele>
        <time>2013-04-29T12:25:40.000Z</time>
      </trkpt>
      <trkpt lat="48.71208" lon="1.70961">
        <ele>146</ele>
        <time>2013-04-29T12:25:47.000Z</time>
      </trkpt>
      <trkpt lat="48.71207" lon="1.70935">
        <ele>146.80000305176</ele>
        <time>2013-04-29T12:25:51.000Z</time>
      </trkpt>
      <trkpt lat="48.71205" lon="1.70917">
        <ele>147.19999694824</ele>
        <time>2013-04-29T12:25:54.000Z</time>
      </trkpt>
      <trkpt lat="48.71201" lon="1.70885">
        <ele>149.19999694824</ele>
        <time>2013-04-29T12:25:59.000Z</time>
      </trkpt>
      <trkpt lat="48.71204" lon="1.70856">
        <ele>150.19999694824</ele>
        <time>2013-04-29T12:26:04.000Z</time>
      </trkpt>
      <trkpt lat="48.71215" lon="1.70827">
        <ele>150.19999694824</ele>
        <time>2013-04-29T12:26:10.000Z</time>
      </trkpt>
      <trkpt lat="48.71217" lon="1.7081">
        <ele>149.80000305176</ele>
        <time>2013-04-29T12:26:13.000Z</time>
      </trkpt>
      <trkpt lat="48.71215" lon="1.70772">
        <ele>149.60000610352</ele>
        <time>2013-04-29T12:26:20.000Z</time>
      </trkpt>
      <trkpt lat="48.71214" lon="1.70732">
        <ele>149.39999389648</ele>
        <time>2013-04-29T12:26:27.000Z</time>
      </trkpt>
      <trkpt lat="48.71214" lon="1.70704">
        <ele>149.39999389648</ele>
        <time>2013-04-29T12:26:32.000Z</time>
      </trkpt>
      <trkpt lat="48.71216" lon="1.70668">
        <ele>149.39999389648</ele>
        <time>2013-04-29T12:26:38.000Z</time>
      </trkpt>
      <trkpt lat="48.71216" lon="1.7064">
        <ele>149.19999694824</ele>
        <time>2013-04-29T12:26:43.000Z</time>
      </trkpt>
      <trkpt lat="48.71212" lon="1.70616">
        <ele>149.19999694824</ele>
        <time>2013-04-29T12:26:48.000Z</time>
      </trkpt>
      <trkpt lat="48.71207" lon="1.70588">
        <ele>149.60000610352</ele>
        <time>2013-04-29T12:26:54.000Z</time>
      </trkpt>
      <trkpt lat="48.71199" lon="1.70562">
        <ele>149.39999389648</ele>
        <time>2013-04-29T12:26:59.000Z</time>
      </trkpt>
      <trkpt lat="48.71191" lon="1.70525">
        <ele>148.80000305176</ele>
        <time>2013-04-29T12:27:06.000Z</time>
      </trkpt>
      <trkpt lat="48.71187" lon="1.70495">
        <ele>148</ele>
        <time>2013-04-29T12:27:12.000Z</time>
      </trkpt>
      <trkpt lat="48.71177" lon="1.70468">
        <ele>147.19999694824</ele>
        <time>2013-04-29T12:27:18.000Z</time>
      </trkpt>
      <trkpt lat="48.71164" lon="1.70434">
        <ele>145.80000305176</ele>
        <time>2013-04-29T12:27:25.000Z</time>
      </trkpt>
      <trkpt lat="48.71155" lon="1.70399">
        <ele>145</ele>
        <time>2013-04-29T12:27:32.000Z</time>
      </trkpt>
      <trkpt lat="48.71151" lon="1.7037">
        <ele>145.19999694824</ele>
        <time>2013-04-29T12:27:37.000Z</time>
      </trkpt>
      <trkpt lat="48.71148" lon="1.70338">
        <ele>145.80000305176</ele>
        <time>2013-04-29T12:27:42.000Z</time>
      </trkpt>
      <trkpt lat="48.71148" lon="1.70313">
        <ele>146.39999389648</ele>
        <time>2013-04-29T12:27:46.000Z</time>
      </trkpt>
      <trkpt lat="48.7115" lon="1.7029">
        <ele>147</ele>
        <time>2013-04-29T12:27:50.000Z</time>
      </trkpt>
      <trkpt lat="48.71154" lon="1.70253">
        <ele>147.80000305176</ele>
        <time>2013-04-29T12:27:57.000Z</time>
      </trkpt>
      <trkpt lat="48.71161" lon="1.70234">
        <ele>147.19999694824</ele>
        <time>2013-04-29T12:28:01.000Z</time>
      </trkpt>
      <trkpt lat="48.71167" lon="1.70215">
        <ele>146.80000305176</ele>
        <time>2013-04-29T12:28:05.000Z</time>
      </trkpt>
      <trkpt lat="48.71177" lon="1.70194">
        <ele>145.80000305176</ele>
        <time>2013-04-29T12:28:10.000Z</time>
      </trkpt>
      <trkpt lat="48.71185" lon="1.70165">
        <ele>145.19999694824</ele>
        <time>2013-04-29T12:28:15.000Z</time>
      </trkpt>
      <trkpt lat="48.71193" lon="1.70132">
        <ele>145.39999389648</ele>
        <time>2013-04-29T12:28:21.000Z</time>
      </trkpt>
      <trkpt lat="48.71202" lon="1.701">
        <ele>145.39999389648</ele>
        <time>2013-04-29T12:28:27.000Z</time>
      </trkpt>
      <trkpt lat="48.71205" lon="1.70074">
        <ele>146</ele>
        <time>2013-04-29T12:28:31.000Z</time>
      </trkpt>
      <trkpt lat="48.71209" lon="1.70058">
        <ele>146</ele>
        <time>2013-04-29T12:28:34.000Z</time>
      </trkpt>
      <trkpt lat="48.71214" lon="1.70026">
        <ele>146.39999389648</ele>
        <time>2013-04-29T12:28:40.000Z</time>
      </trkpt>
      <trkpt lat="48.71218" lon="1.69992">
        <ele>146.80000305176</ele>
        <time>2013-04-29T12:28:46.000Z</time>
      </trkpt>
      <trkpt lat="48.71224" lon="1.69965">
        <ele>146.80000305176</ele>
        <time>2013-04-29T12:28:51.000Z</time>
      </trkpt>
      <trkpt lat="48.71224" lon="1.69941">
        <ele>147</ele>
        <time>2013-04-29T12:28:56.000Z</time>
      </trkpt>
      <trkpt lat="48.71223" lon="1.69921">
        <ele>147.19999694824</ele>
        <time>2013-04-29T12:29:00.000Z</time>
      </trkpt>
      <trkpt lat="48.71224" lon="1.6989">
        <ele>147.19999694824</ele>
        <time>2013-04-29T12:29:05.000Z</time>
      </trkpt>
      <trkpt lat="48.71228" lon="1.69864">
        <ele>147.19999694824</ele>
        <time>2013-04-29T12:29:10.000Z</time>
      </trkpt>
      <trkpt lat="48.71233" lon="1.69819">
        <ele>147.39999389648</ele>
        <time>2013-04-29T12:29:18.000Z</time>
      </trkpt>
      <trkpt lat="48.71237" lon="1.69783">
        <ele>147.80000305176</ele>
        <time>2013-04-29T12:29:25.000Z</time>
      </trkpt>
      <trkpt lat="48.7124" lon="1.6975">
        <ele>148</ele>
        <time>2013-04-29T12:29:31.000Z</time>
      </trkpt>
      <trkpt lat="48.71244" lon="1.69724">
        <ele>149</ele>
        <time>2013-04-29T12:29:36.000Z</time>
      </trkpt>
      <trkpt lat="48.71249" lon="1.69688">
        <ele>150.19999694824</ele>
        <time>2013-04-29T12:29:43.000Z</time>
      </trkpt>
      <trkpt lat="48.71253" lon="1.69672">
        <ele>150.60000610352</ele>
        <time>2013-04-29T12:29:48.000Z</time>
      </trkpt>
      <trkpt lat="48.71255" lon="1.69668">
        <ele>150.60000610352</ele>
        <time>2013-04-29T12:29:51.000Z</time>
      </trkpt>
      <trkpt lat="48.71259" lon="1.69662">
        <ele>150.80000305176</ele>
        <time>2013-04-29T12:29:55.000Z</time>
      </trkpt>
      <trkpt lat="48.71259" lon="1.69654">
        <ele>151</ele>
        <time>2013-04-29T12:29:59.000Z</time>
      </trkpt>
      <trkpt lat="48.71266" lon="1.69636">
        <ele>151.19999694824</ele>
        <time>2013-04-29T12:30:09.000Z</time>
      </trkpt>
      <trkpt lat="48.71268" lon="1.69631">
        <ele>151.39999389648</ele>
        <time>2013-04-29T12:30:11.000Z</time>
      </trkpt>
      <trkpt lat="48.7127" lon="1.69619">
        <ele>151.60000610352</ele>
        <time>2013-04-29T12:30:16.000Z</time>
      </trkpt>
      <trkpt lat="48.7127" lon="1.69602">
        <ele>152.19999694824</ele>
        <time>2013-04-29T12:30:23.000Z</time>
      </trkpt>
      <trkpt lat="48.71272" lon="1.6959">
        <ele>152.39999389648</ele>
        <time>2013-04-29T12:30:28.000Z</time>
      </trkpt>
      <trkpt lat="48.71274" lon="1.69578">
        <ele>152.39999389648</ele>
        <time>2013-04-29T12:30:34.000Z</time>
      </trkpt>
      <trkpt lat="48.71274" lon="1.69575">
        <ele>152.19999694824</ele>
        <time>2013-04-29T12:30:35.000Z</time>
      </trkpt>
      <trkpt lat="48.71275" lon="1.69554">
        <ele>151.39999389648</ele>
        <time>2013-04-29T12:30:43.000Z</time>
      </trkpt>
      <trkpt lat="48.71278" lon="1.69538">
        <ele>150.80000305176</ele>
        <time>2013-04-29T12:30:50.000Z</time>
      </trkpt>
      <trkpt lat="48.7128" lon="1.69524">
        <ele>150.19999694824</ele>
        <time>2013-04-29T12:30:55.000Z</time>
      </trkpt>
      <trkpt lat="48.71281" lon="1.69511">
        <ele>149.60000610352</ele>
        <time>2013-04-29T12:31:01.000Z</time>
      </trkpt>
      <trkpt lat="48.71287" lon="1.69494">
        <ele>148.39999389648</ele>
        <time>2013-04-29T12:31:10.000Z</time>
      </trkpt>
      <trkpt lat="48.71289" lon="1.69478">
        <ele>147.19999694824</ele>
        <time>2013-04-29T12:31:17.000Z</time>
      </trkpt>
      <trkpt lat="48.71288" lon="1.69467">
        <ele>146.39999389648</ele>
        <time>2013-04-29T12:31:21.000Z</time>
      </trkpt>
      <trkpt lat="48.71289" lon="1.69452">
        <ele>145.39999389648</ele>
        <time>2013-04-29T12:31:27.000Z</time>
      </trkpt>
      <trkpt lat="48.71292" lon="1.69432">
        <ele>144</ele>
        <time>2013-04-29T12:31:35.000Z</time>
      </trkpt>
      <trkpt lat="48.71293" lon="1.69426">
        <ele>143.39999389648</ele>
        <time>2013-04-29T12:31:38.000Z</time>
      </trkpt>
      <trkpt lat="48.71294" lon="1.69415">
        <ele>142.80000305176</ele>
        <time>2013-04-29T12:31:43.000Z</time>
      </trkpt>
      <trkpt lat="48.71295" lon="1.69411">
        <ele>142.60000610352</ele>
        <time>2013-04-29T12:31:45.000Z</time>
      </trkpt>
      <trkpt lat="48.71301" lon="1.69396">
        <ele>141.80000305176</ele>
        <time>2013-04-29T12:31:52.000Z</time>
      </trkpt>
      <trkpt lat="48.71304" lon="1.6938">
        <ele>141.19999694824</ele>
        <time>2013-04-29T12:31:59.000Z</time>
      </trkpt>
      <trkpt lat="48.71307" lon="1.69364">
        <ele>140.39999389648</ele>
        <time>2013-04-29T12:32:06.000Z</time>
      </trkpt>
      <trkpt lat="48.71309" lon="1.6936">
        <ele>140.19999694824</ele>
        <time>2013-04-29T12:32:10.000Z</time>
      </trkpt>
      <trkpt lat="48.71312" lon="1.69347">
        <ele>139.39999389648</ele>
        <time>2013-04-29T12:32:16.000Z</time>
      </trkpt>
      <trkpt lat="48.71316" lon="1.69333">
        <ele>138.60000610352</ele>
        <time>2013-04-29T12:32:23.000Z</time>
      </trkpt>
      <trkpt lat="48.71318" lon="1.69315">
        <ele>138.60000610352</ele>
        <time>2013-04-29T12:32:31.000Z</time>
      </trkpt>
      <trkpt lat="48.71319" lon="1.69311">
        <ele>138.80000305176</ele>
        <time>2013-04-29T12:32:33.000Z</time>
      </trkpt>
      <trkpt lat="48.71318" lon="1.6929">
        <ele>139.19999694824</ele>
        <time>2013-04-29T12:32:41.000Z</time>
      </trkpt>
      <trkpt lat="48.71322" lon="1.69275">
        <ele>139.19999694824</ele>
        <time>2013-04-29T12:32:48.000Z</time>
      </trkpt>
      <trkpt lat="48.71324" lon="1.69268">
        <ele>139.19999694824</ele>
        <time>2013-04-29T12:32:52.000Z</time>
      </trkpt>
      <trkpt lat="48.71326" lon="1.69247">
        <ele>139.19999694824</ele>
        <time>2013-04-29T12:33:03.000Z</time>
      </trkpt>
      <trkpt lat="48.7133" lon="1.69228">
        <ele>138.60000610352</ele>
        <time>2013-04-29T12:33:12.000Z</time>
      </trkpt>
      <trkpt lat="48.71332" lon="1.69212">
        <ele>138</ele>
        <time>2013-04-29T12:33:21.000Z</time>
      </trkpt>
      <trkpt lat="48.71336" lon="1.69198">
        <ele>137.60000610352</ele>
        <time>2013-04-29T12:33:29.000Z</time>
      </trkpt>
      <trkpt lat="48.71336" lon="1.69185">
        <ele>137.19999694824</ele>
        <time>2013-04-29T12:33:36.000Z</time>
      </trkpt>
      <trkpt lat="48.71336" lon="1.69179">
        <ele>137</ele>
        <time>2013-04-29T12:33:42.000Z</time>
      </trkpt>
      <trkpt lat="48.71341" lon="1.6915">
        <ele>137.60000610352</ele>
        <time>2013-04-29T12:34:32.000Z</time>
      </trkpt>
      <trkpt lat="48.71342" lon="1.69139">
        <ele>138.39999389648</ele>
        <time>2013-04-29T12:34:37.000Z</time>
      </trkpt>
      <trkpt lat="48.71348" lon="1.69123">
        <ele>139</ele>
        <time>2013-04-29T12:34:46.000Z</time>
      </trkpt>
      <trkpt lat="48.71351" lon="1.6911">
        <ele>139.60000610352</ele>
        <time>2013-04-29T12:34:53.000Z</time>
      </trkpt>
      <trkpt lat="48.71357" lon="1.69086">
        <ele>140.39999389648</ele>
        <time>2013-04-29T12:35:04.000Z</time>
      </trkpt>
      <trkpt lat="48.71359" lon="1.69084">
        <ele>140.39999389648</ele>
        <time>2013-04-29T12:35:06.000Z</time>
      </trkpt>
      <trkpt lat="48.71362" lon="1.69071">
        <ele>140.80000305176</ele>
        <time>2013-04-29T12:35:13.000Z</time>
      </trkpt>
      <trkpt lat="48.71366" lon="1.69064">
        <ele>140.60000610352</ele>
        <time>2013-04-29T12:35:17.000Z</time>
      </trkpt>
      <trkpt lat="48.71367" lon="1.69055">
        <ele>141</ele>
        <time>2013-04-29T12:35:21.000Z</time>
      </trkpt>
      <trkpt lat="48.7137" lon="1.69044">
        <ele>141</ele>
        <time>2013-04-29T12:35:27.000Z</time>
      </trkpt>
      <trkpt lat="48.71374" lon="1.69031">
        <ele>141.19999694824</ele>
        <time>2013-04-29T12:35:33.000Z</time>
      </trkpt>
      <trkpt lat="48.71383" lon="1.69016">
        <ele>140.80000305176</ele>
        <time>2013-04-29T12:35:42.000Z</time>
      </trkpt>
      <trkpt lat="48.71393" lon="1.68998">
        <ele>140.19999694824</ele>
        <time>2013-04-29T12:35:52.000Z</time>
      </trkpt>
      <trkpt lat="48.714" lon="1.68985">
        <ele>139.60000610352</ele>
        <time>2013-04-29T12:36:00.000Z</time>
      </trkpt>
      <trkpt lat="48.71403" lon="1.68978">
        <ele>139.60000610352</ele>
        <time>2013-04-29T12:36:03.000Z</time>
      </trkpt>
      <trkpt lat="48.7141" lon="1.68962">
        <ele>139.19999694824</ele>
        <time>2013-04-29T12:36:11.000Z</time>
      </trkpt>
      <trkpt lat="48.71419" lon="1.68942">
        <ele>138.80000305176</ele>
        <time>2013-04-29T12:36:21.000Z</time>
      </trkpt>
      <trkpt lat="48.71426" lon="1.68928">
        <ele>138.60000610352</ele>
        <time>2013-04-29T12:36:29.000Z</time>
      </trkpt>
      <trkpt lat="48.71427" lon="1.68926">
        <ele>138.60000610352</ele>
        <time>2013-04-29T12:36:30.000Z</time>
      </trkpt>
      <trkpt lat="48.71427" lon="1.68914">
        <ele>138.80000305176</ele>
        <time>2013-04-29T12:36:36.000Z</time>
      </trkpt>
      <trkpt lat="48.71426" lon="1.68911">
        <ele>139</ele>
        <time>2013-04-29T12:36:38.000Z</time>
      </trkpt>
      <trkpt lat="48.71422" lon="1.68896">
        <ele>140</ele>
        <time>2013-04-29T12:36:48.000Z</time>
      </trkpt>
      <trkpt lat="48.71415" lon="1.68879">
        <ele>141.39999389648</ele>
        <time>2013-04-29T12:36:58.000Z</time>
      </trkpt>
      <trkpt lat="48.71412" lon="1.68868">
        <ele>142.19999694824</ele>
        <time>2013-04-29T12:37:04.000Z</time>
      </trkpt>
      <trkpt lat="48.7141" lon="1.68862">
        <ele>142.80000305176</ele>
        <time>2013-04-29T12:37:08.000Z</time>
      </trkpt>
      <trkpt lat="48.71407" lon="1.68853">
        <ele>143.39999389648</ele>
        <time>2013-04-29T12:37:14.000Z</time>
      </trkpt>
      <trkpt lat="48.71402" lon="1.68841">
        <ele>144.60000610352</ele>
        <time>2013-04-29T12:37:21.000Z</time>
      </trkpt>
      <trkpt lat="48.71401" lon="1.68837">
        <ele>144.80000305176</ele>
        <time>2013-04-29T12:37:23.000Z</time>
      </trkpt>
      <trkpt lat="48.71399" lon="1.68826">
        <ele>145.60000610352</ele>
        <time>2013-04-29T12:37:29.000Z</time>
      </trkpt>
      <trkpt lat="48.71397" lon="1.68823">
        <ele>145.80000305176</ele>
        <time>2013-04-29T12:37:31.000Z</time>
      </trkpt>
      <trkpt lat="48.71392" lon="1.68809">
        <ele>147</ele>
        <time>2013-04-29T12:37:39.000Z</time>
      </trkpt>
      <trkpt lat="48.7139" lon="1.688">
        <ele>147.60000610352</ele>
        <time>2013-04-29T12:37:44.000Z</time>
      </trkpt>
      <trkpt lat="48.71386" lon="1.68791">
        <ele>148.19999694824</ele>
        <time>2013-04-29T12:37:49.000Z</time>
      </trkpt>
      <trkpt lat="48.71381" lon="1.68774">
        <ele>149.19999694824</ele>
        <time>2013-04-29T12:37:58.000Z</time>
      </trkpt>
      <trkpt lat="48.71374" lon="1.68759">
        <ele>150.19999694824</ele>
        <time>2013-04-29T12:38:07.000Z</time>
      </trkpt>
      <trkpt lat="48.71368" lon="1.68746">
        <ele>151</ele>
        <time>2013-04-29T12:38:14.000Z</time>
      </trkpt>
      <trkpt lat="48.71362" lon="1.68728">
        <ele>151.39999389648</ele>
        <time>2013-04-29T12:38:22.000Z</time>
      </trkpt>
      <trkpt lat="48.71358" lon="1.68714">
        <ele>151.80000305176</ele>
        <time>2013-04-29T12:38:29.000Z</time>
      </trkpt>
      <trkpt lat="48.71355" lon="1.68703">
        <ele>152</ele>
        <time>2013-04-29T12:38:36.000Z</time>
      </trkpt>
      <trkpt lat="48.7135" lon="1.6869">
        <ele>152.39999389648</ele>
        <time>2013-04-29T12:38:43.000Z</time>
      </trkpt>
      <trkpt lat="48.71345" lon="1.68675">
        <ele>152.80000305176</ele>
        <time>2013-04-29T12:38:52.000Z</time>
      </trkpt>
      <trkpt lat="48.71339" lon="1.6866">
        <ele>153.19999694824</ele>
        <time>2013-04-29T12:39:00.000Z</time>
      </trkpt>
      <trkpt lat="48.71333" lon="1.68644">
        <ele>153.39999389648</ele>
        <time>2013-04-29T12:39:09.000Z</time>
      </trkpt>
      <trkpt lat="48.71328" lon="1.6863">
        <ele>154</ele>
        <time>2013-04-29T12:39:17.000Z</time>
      </trkpt>
      <trkpt lat="48.71327" lon="1.68629">
        <ele>154</ele>
        <time>2013-04-29T12:39:18.000Z</time>
      </trkpt>
      <trkpt lat="48.71322" lon="1.68615">
        <ele>154.39999389648</ele>
        <time>2013-04-29T12:39:25.000Z</time>
      </trkpt>
      <trkpt lat="48.7132" lon="1.68608">
        <ele>154.39999389648</ele>
        <time>2013-04-29T12:39:28.000Z</time>
      </trkpt>
      <trkpt lat="48.71319" lon="1.68596">
        <ele>154.39999389648</ele>
        <time>2013-04-29T12:39:34.000Z</time>
      </trkpt>
      <trkpt lat="48.71316" lon="1.6858">
        <ele>154.19999694824</ele>
        <time>2013-04-29T12:39:41.000Z</time>
      </trkpt>
      <trkpt lat="48.71314" lon="1.68564">
        <ele>154</ele>
        <time>2013-04-29T12:39:48.000Z</time>
      </trkpt>
      <trkpt lat="48.71313" lon="1.68562">
        <ele>154</ele>
        <time>2013-04-29T12:39:49.000Z</time>
      </trkpt>
      <trkpt lat="48.71313" lon="1.68552">
        <ele>153.60000610352</ele>
        <time>2013-04-29T12:39:54.000Z</time>
      </trkpt>
      <trkpt lat="48.7131" lon="1.68533">
        <ele>153.19999694824</ele>
        <time>2013-04-29T12:40:03.000Z</time>
      </trkpt>
      <trkpt lat="48.71309" lon="1.68519">
        <ele>152.80000305176</ele>
        <time>2013-04-29T12:40:09.000Z</time>
      </trkpt>
      <trkpt lat="48.71305" lon="1.68501">
        <ele>152.80000305176</ele>
        <time>2013-04-29T12:40:16.000Z</time>
      </trkpt>
      <trkpt lat="48.713" lon="1.68488">
        <ele>152.80000305176</ele>
        <time>2013-04-29T12:40:22.000Z</time>
      </trkpt>
      <trkpt lat="48.713" lon="1.68487">
        <ele>152.80000305176</ele>
        <time>2013-04-29T12:40:25.000Z</time>
      </trkpt>
      <trkpt lat="48.71298" lon="1.68476">
        <ele>152.60000610352</ele>
        <time>2013-04-29T12:40:36.000Z</time>
      </trkpt>
      <trkpt lat="48.71295" lon="1.68469">
        <ele>152.80000305176</ele>
        <time>2013-04-29T12:40:39.000Z</time>
      </trkpt>
      <trkpt lat="48.71288" lon="1.68459">
        <ele>153.19999694824</ele>
        <time>2013-04-29T12:40:47.000Z</time>
      </trkpt>
      <trkpt lat="48.71282" lon="1.68452">
        <ele>153.39999389648</ele>
        <time>2013-04-29T12:40:53.000Z</time>
      </trkpt>
      <trkpt lat="48.71282" lon="1.68453">
        <ele>153.60000610352</ele>
        <time>2013-04-29T12:40:58.000Z</time>
      </trkpt>
      <trkpt lat="48.71275" lon="1.68449">
        <ele>154.19999694824</ele>
        <time>2013-04-29T12:41:09.000Z</time>
      </trkpt>
      <trkpt lat="48.71268" lon="1.68444">
        <ele>154.60000610352</ele>
        <time>2013-04-29T12:41:14.000Z</time>
      </trkpt>
      <trkpt lat="48.71262" lon="1.6844">
        <ele>155</ele>
        <time>2013-04-29T12:41:20.000Z</time>
      </trkpt>
      <trkpt lat="48.71258" lon="1.68438">
        <ele>155.39999389648</ele>
        <time>2013-04-29T12:41:23.000Z</time>
      </trkpt>
      <trkpt lat="48.71249" lon="1.68435">
        <ele>156.19999694824</ele>
        <time>2013-04-29T12:41:30.000Z</time>
      </trkpt>
      <trkpt lat="48.71244" lon="1.68431">
        <ele>156.60000610352</ele>
        <time>2013-04-29T12:41:35.000Z</time>
      </trkpt>
      <trkpt lat="48.7124" lon="1.68428">
        <ele>156.80000305176</ele>
        <time>2013-04-29T12:41:37.000Z</time>
      </trkpt>
      <trkpt lat="48.71232" lon="1.68408">
        <ele>157.19999694824</ele>
        <time>2013-04-29T12:41:46.000Z</time>
      </trkpt>
      <trkpt lat="48.71228" lon="1.68397">
        <ele>157.39999389648</ele>
        <time>2013-04-29T12:41:52.000Z</time>
      </trkpt>
      <trkpt lat="48.71225" lon="1.68385">
        <ele>157.60000610352</ele>
        <time>2013-04-29T12:41:58.000Z</time>
      </trkpt>
      <trkpt lat="48.71218" lon="1.68375">
        <ele>158.60000610352</ele>
        <time>2013-04-29T12:42:05.000Z</time>
      </trkpt>
      <trkpt lat="48.71217" lon="1.68374">
        <ele>158.60000610352</ele>
        <time>2013-04-29T12:42:06.000Z</time>
      </trkpt>
      <trkpt lat="48.71213" lon="1.68363">
        <ele>159.19999694824</ele>
        <time>2013-04-29T12:42:11.000Z</time>
      </trkpt>
      <trkpt lat="48.71209" lon="1.68349">
        <ele>160</ele>
        <time>2013-04-29T12:42:18.000Z</time>
      </trkpt>
      <trkpt lat="48.71206" lon="1.68339">
        <ele>160.39999389648</ele>
        <time>2013-04-29T12:42:25.000Z</time>
      </trkpt>
      <trkpt lat="48.71205" lon="1.68337">
        <ele>160.39999389648</ele>
        <time>2013-04-29T12:42:26.000Z</time>
      </trkpt>
      <trkpt lat="48.71205" lon="1.68333">
        <ele>160.60000610352</ele>
        <time>2013-04-29T12:42:28.000Z</time>
      </trkpt>
      <trkpt lat="48.71201" lon="1.6832">
        <ele>161.39999389648</ele>
        <time>2013-04-29T12:42:36.000Z</time>
      </trkpt>
      <trkpt lat="48.71199" lon="1.68305">
        <ele>162.19999694824</ele>
        <time>2013-04-29T12:42:43.000Z</time>
      </trkpt>
      <trkpt lat="48.71196" lon="1.68295">
        <ele>163</ele>
        <time>2013-04-29T12:42:50.000Z</time>
      </trkpt>
      <trkpt lat="48.71196" lon="1.6828">
        <ele>163.19999694824</ele>
        <time>2013-04-29T12:42:55.000Z</time>
      </trkpt>
      <trkpt lat="48.71197" lon="1.68273">
        <ele>163</ele>
        <time>2013-04-29T12:42:57.000Z</time>
      </trkpt>
      <trkpt lat="48.71194" lon="1.68254">
        <ele>164.19999694824</ele>
        <time>2013-04-29T12:43:05.000Z</time>
      </trkpt>
      <trkpt lat="48.71193" lon="1.68248">
        <ele>164.60000610352</ele>
        <time>2013-04-29T12:43:08.000Z</time>
      </trkpt>
      <trkpt lat="48.71192" lon="1.68239">
        <ele>164.80000305176</ele>
        <time>2013-04-29T12:43:13.000Z</time>
      </trkpt>
      <trkpt lat="48.7119" lon="1.6822">
        <ele>165.19999694824</ele>
        <time>2013-04-29T12:43:21.000Z</time>
      </trkpt>
      <trkpt lat="48.71188" lon="1.68208">
        <ele>165.80000305176</ele>
        <time>2013-04-29T12:43:26.000Z</time>
      </trkpt>
      <trkpt lat="48.71187" lon="1.68203">
        <ele>166</ele>
        <time>2013-04-29T12:43:28.000Z</time>
      </trkpt>
      <trkpt lat="48.71187" lon="1.68194">
        <ele>165.80000305176</ele>
        <time>2013-04-29T12:43:32.000Z</time>
      </trkpt>
      <trkpt lat="48.71188" lon="1.68191">
        <ele>165.60000610352</ele>
        <time>2013-04-29T12:43:34.000Z</time>
      </trkpt>
      <trkpt lat="48.71187" lon="1.68186">
        <ele>165.80000305176</ele>
        <time>2013-04-29T12:43:36.000Z</time>
      </trkpt>
      <trkpt lat="48.71185" lon="1.68175">
        <ele>166.19999694824</ele>
        <time>2013-04-29T12:43:41.000Z</time>
      </trkpt>
      <trkpt lat="48.71185" lon="1.68161">
        <ele>166.19999694824</ele>
        <time>2013-04-29T12:43:48.000Z</time>
      </trkpt>
      <trkpt lat="48.71183" lon="1.68148">
        <ele>167</ele>
        <time>2013-04-29T12:43:55.000Z</time>
      </trkpt>
      <trkpt lat="48.71182" lon="1.68141">
        <ele>167.19999694824</ele>
        <time>2013-04-29T12:43:59.000Z</time>
      </trkpt>
      <trkpt lat="48.71179" lon="1.68132">
        <ele>168</ele>
        <time>2013-04-29T12:44:05.000Z</time>
      </trkpt>
      <trkpt lat="48.71177" lon="1.68125">
        <ele>168.39999389648</ele>
        <time>2013-04-29T12:44:11.000Z</time>
      </trkpt>
      <trkpt lat="48.7117" lon="1.68117">
        <ele>170</ele>
        <time>2013-04-29T12:44:19.000Z</time>
      </trkpt>
      <trkpt lat="48.71162" lon="1.68113">
        <ele>171</ele>
        <time>2013-04-29T12:44:26.000Z</time>
      </trkpt>
      <trkpt lat="48.71156" lon="1.68114">
        <ele>171.80000305176</ele>
        <time>2013-04-29T12:44:31.000Z</time>
      </trkpt>
      <trkpt lat="48.71152" lon="1.681">
        <ele>172.19999694824</ele>
        <time>2013-04-29T12:44:36.000Z</time>
      </trkpt>
      <trkpt lat="48.71147" lon="1.6809">
        <ele>173</ele>
        <time>2013-04-29T12:44:42.000Z</time>
      </trkpt>
      <trkpt lat="48.7114" lon="1.68085">
        <ele>173.80000305176</ele>
        <time>2013-04-29T12:44:49.000Z</time>
      </trkpt>
      <trkpt lat="48.7113" lon="1.68082">
        <ele>174.80000305176</ele>
        <time>2013-04-29T12:44:55.000Z</time>
      </trkpt>
      <trkpt lat="48.7112" lon="1.6808">
        <ele>175.80000305176</ele>
        <time>2013-04-29T12:45:02.000Z</time>
      </trkpt>
      <trkpt lat="48.71111" lon="1.68077">
        <ele>176.60000610352</ele>
        <time>2013-04-29T12:45:10.000Z</time>
      </trkpt>
      <trkpt lat="48.71101" lon="1.68075">
        <ele>177.60000610352</ele>
        <time>2013-04-29T12:45:18.000Z</time>
      </trkpt>
      <trkpt lat="48.71091" lon="1.68073">
        <ele>178.60000610352</ele>
        <time>2013-04-29T12:45:26.000Z</time>
      </trkpt>
      <trkpt lat="48.71077" lon="1.68071">
        <ele>179.60000610352</ele>
        <time>2013-04-29T12:45:36.000Z</time>
      </trkpt>
      <trkpt lat="48.71067" lon="1.68071">
        <ele>180</ele>
        <time>2013-04-29T12:45:43.000Z</time>
      </trkpt>
      <trkpt lat="48.71055" lon="1.68068">
        <ele>180.19999694824</ele>
        <time>2013-04-29T12:45:51.000Z</time>
      </trkpt>
      <trkpt lat="48.71045" lon="1.68067">
        <ele>180.60000610352</ele>
        <time>2013-04-29T12:45:59.000Z</time>
      </trkpt>
      <trkpt lat="48.7104" lon="1.68067">
        <ele>180.80000305176</ele>
        <time>2013-04-29T12:46:02.000Z</time>
      </trkpt>
      <trkpt lat="48.71035" lon="1.68066">
        <ele>181</ele>
        <time>2013-04-29T12:46:06.000Z</time>
      </trkpt>
      <trkpt lat="48.71023" lon="1.68066">
        <ele>181.39999389648</ele>
        <time>2013-04-29T12:46:14.000Z</time>
      </trkpt>
      <trkpt lat="48.71015" lon="1.68066">
        <ele>181.80000305176</ele>
        <time>2013-04-29T12:46:19.000Z</time>
      </trkpt>
      <trkpt lat="48.71005" lon="1.68066">
        <ele>182</ele>
        <time>2013-04-29T12:46:25.000Z</time>
      </trkpt>
      <trkpt lat="48.70994" lon="1.68061">
        <ele>182.39999389648</ele>
        <time>2013-04-29T12:46:34.000Z</time>
      </trkpt>
      <trkpt lat="48.70988" lon="1.68048">
        <ele>182.19999694824</ele>
        <time>2013-04-29T12:46:42.000Z</time>
      </trkpt>
      <trkpt lat="48.70986" lon="1.6803">
        <ele>181.80000305176</ele>
        <time>2013-04-29T12:46:49.000Z</time>
      </trkpt>
      <trkpt lat="48.70986" lon="1.68015">
        <ele>181.39999389648</ele>
        <time>2013-04-29T12:46:56.000Z</time>
      </trkpt>
      <trkpt lat="48.70986" lon="1.68011">
        <ele>181.39999389648</ele>
        <time>2013-04-29T12:46:58.000Z</time>
      </trkpt>
      <trkpt lat="48.70985" lon="1.67997">
        <ele>181</ele>
        <time>2013-04-29T12:47:05.000Z</time>
      </trkpt>
      <trkpt lat="48.70979" lon="1.67994">
        <ele>181.39999389648</ele>
        <time>2013-04-29T12:47:11.000Z</time>
      </trkpt>
      <trkpt lat="48.70974" lon="1.67987">
        <ele>181.60000610352</ele>
        <time>2013-04-29T12:47:17.000Z</time>
      </trkpt>
      <trkpt lat="48.70965" lon="1.67982">
        <ele>182.19999694824</ele>
        <time>2013-04-29T12:47:24.000Z</time>
      </trkpt>
      <trkpt lat="48.70957" lon="1.67979">
        <ele>182.80000305176</ele>
        <time>2013-04-29T12:47:30.000Z</time>
      </trkpt>
      <trkpt lat="48.70947" lon="1.67971">
        <ele>183.39999389648</ele>
        <time>2013-04-29T12:47:38.000Z</time>
      </trkpt>
      <trkpt lat="48.70938" lon="1.67966">
        <ele>184</ele>
        <time>2013-04-29T12:47:46.000Z</time>
      </trkpt>
      <trkpt lat="48.70931" lon="1.67963">
        <ele>184.60000610352</ele>
        <time>2013-04-29T12:47:51.000Z</time>
      </trkpt>
      <trkpt lat="48.70926" lon="1.6796">
        <ele>185</ele>
        <time>2013-04-29T12:47:55.000Z</time>
      </trkpt>
      <trkpt lat="48.70916" lon="1.67955">
        <ele>185.80000305176</ele>
        <time>2013-04-29T12:48:02.000Z</time>
      </trkpt>
      <trkpt lat="48.70907" lon="1.6795">
        <ele>186</ele>
        <time>2013-04-29T12:48:09.000Z</time>
      </trkpt>
      <trkpt lat="48.70897" lon="1.67945">
        <ele>186.39999389648</ele>
        <time>2013-04-29T12:48:13.000Z</time>
      </trkpt>
      <trkpt lat="48.70882" lon="1.67938">
        <ele>186.80000305176</ele>
        <time>2013-04-29T12:48:18.000Z</time>
      </trkpt>
      <trkpt lat="48.7087" lon="1.6793">
        <ele>187</ele>
        <time>2013-04-29T12:48:24.000Z</time>
      </trkpt>
      <trkpt lat="48.70859" lon="1.67923">
        <ele>187.19999694824</ele>
        <time>2013-04-29T12:48:33.000Z</time>
      </trkpt>
      <trkpt lat="48.70849" lon="1.67917">
        <ele>187.39999389648</ele>
        <time>2013-04-29T12:48:40.000Z</time>
      </trkpt>
      <trkpt lat="48.70836" lon="1.67911">
        <ele>187.60000610352</ele>
        <time>2013-04-29T12:48:49.000Z</time>
      </trkpt>
      <trkpt lat="48.70831" lon="1.6791">
        <ele>187.80000305176</ele>
        <time>2013-04-29T12:48:53.000Z</time>
      </trkpt>
      <trkpt lat="48.70825" lon="1.67906">
        <ele>187.80000305176</ele>
        <time>2013-04-29T12:48:58.000Z</time>
      </trkpt>
      <trkpt lat="48.70814" lon="1.67902">
        <ele>188</ele>
        <time>2013-04-29T12:49:06.000Z</time>
      </trkpt>
      <trkpt lat="48.70808" lon="1.67898">
        <ele>188.19999694824</ele>
        <time>2013-04-29T12:49:12.000Z</time>
      </trkpt>
      <trkpt lat="48.70804" lon="1.67896">
        <ele>188.19999694824</ele>
        <time>2013-04-29T12:49:15.000Z</time>
      </trkpt>
      <trkpt lat="48.70793" lon="1.67889">
        <ele>188.39999389648</ele>
        <time>2013-04-29T12:49:23.000Z</time>
      </trkpt>
      <trkpt lat="48.70785" lon="1.67884">
        <ele>188.39999389648</ele>
        <time>2013-04-29T12:49:29.000Z</time>
      </trkpt>
      <trkpt lat="48.70774" lon="1.67878">
        <ele>188.80000305176</ele>
        <time>2013-04-29T12:49:38.000Z</time>
      </trkpt>
      <trkpt lat="48.70766" lon="1.67875">
        <ele>189</ele>
        <time>2013-04-29T12:49:43.000Z</time>
      </trkpt>
      <trkpt lat="48.70758" lon="1.67871">
        <ele>189.19999694824</ele>
        <time>2013-04-29T12:49:49.000Z</time>
      </trkpt>
      <trkpt lat="48.70747" lon="1.67862">
        <ele>189.19999694824</ele>
        <time>2013-04-29T12:49:57.000Z</time>
      </trkpt>
      <trkpt lat="48.70737" lon="1.67856">
        <ele>188.60000610352</ele>
        <time>2013-04-29T12:50:04.000Z</time>
      </trkpt>
      <trkpt lat="48.70728" lon="1.67851">
        <ele>188.19999694824</ele>
        <time>2013-04-29T12:50:11.000Z</time>
      </trkpt>
      <trkpt lat="48.70718" lon="1.67846">
        <ele>187.80000305176</ele>
        <time>2013-04-29T12:50:18.000Z</time>
      </trkpt>
      <trkpt lat="48.7071" lon="1.67841">
        <ele>187.39999389648</ele>
        <time>2013-04-29T12:50:24.000Z</time>
      </trkpt>
      <trkpt lat="48.70705" lon="1.67838">
        <ele>187.19999694824</ele>
        <time>2013-04-29T12:50:28.000Z</time>
      </trkpt>
      <trkpt lat="48.70696" lon="1.67834">
        <ele>187</ele>
        <time>2013-04-29T12:50:34.000Z</time>
      </trkpt>
      <trkpt lat="48.70691" lon="1.67831">
        <ele>186.80000305176</ele>
        <time>2013-04-29T12:50:38.000Z</time>
      </trkpt>
      <trkpt lat="48.70687" lon="1.67827">
        <ele>186.80000305176</ele>
        <time>2013-04-29T12:50:42.000Z</time>
      </trkpt>
      <trkpt lat="48.70673" lon="1.6782">
        <ele>186.60000610352</ele>
        <time>2013-04-29T12:50:52.000Z</time>
      </trkpt>
      <trkpt lat="48.70661" lon="1.67815">
        <ele>186.39999389648</ele>
        <time>2013-04-29T12:51:01.000Z</time>
      </trkpt>
      <trkpt lat="48.70654" lon="1.67809">
        <ele>186.39999389648</ele>
        <time>2013-04-29T12:51:06.000Z</time>
      </trkpt>
      <trkpt lat="48.70647" lon="1.67804">
        <ele>186.19999694824</ele>
        <time>2013-04-29T12:51:11.000Z</time>
      </trkpt>
      <trkpt lat="48.70638" lon="1.678">
        <ele>186.19999694824</ele>
        <time>2013-04-29T12:51:16.000Z</time>
      </trkpt>
      <trkpt lat="48.70636" lon="1.67799">
        <ele>186</ele>
        <time>2013-04-29T12:51:17.000Z</time>
      </trkpt>
      <trkpt lat="48.70625" lon="1.67794">
        <ele>186</ele>
        <time>2013-04-29T12:51:24.000Z</time>
      </trkpt>
      <trkpt lat="48.70622" lon="1.67793">
        <ele>186</ele>
        <time>2013-04-29T12:51:26.000Z</time>
      </trkpt>
      <trkpt lat="48.70611" lon="1.67787">
        <ele>186</ele>
        <time>2013-04-29T12:51:34.000Z</time>
      </trkpt>
      <trkpt lat="48.70599" lon="1.6778">
        <ele>186.19999694824</ele>
        <time>2013-04-29T12:51:43.000Z</time>
      </trkpt>
      <trkpt lat="48.70584" lon="1.67773">
        <ele>186.19999694824</ele>
        <time>2013-04-29T12:51:53.000Z</time>
      </trkpt>
      <trkpt lat="48.70572" lon="1.67767">
        <ele>186</ele>
        <time>2013-04-29T12:52:01.000Z</time>
      </trkpt>
      <trkpt lat="48.70561" lon="1.67761">
        <ele>185.80000305176</ele>
        <time>2013-04-29T12:52:09.000Z</time>
      </trkpt>
      <trkpt lat="48.70546" lon="1.67753">
        <ele>185.60000610352</ele>
        <time>2013-04-29T12:52:20.000Z</time>
      </trkpt>
      <trkpt lat="48.70532" lon="1.67745">
        <ele>185</ele>
        <time>2013-04-29T12:52:30.000Z</time>
      </trkpt>
      <trkpt lat="48.70521" lon="1.67738">
        <ele>184.80000305176</ele>
        <time>2013-04-29T12:52:38.000Z</time>
      </trkpt>
      <trkpt lat="48.7051" lon="1.67734">
        <ele>184.60000610352</ele>
        <time>2013-04-29T12:52:45.000Z</time>
      </trkpt>
      <trkpt lat="48.70499" lon="1.67728">
        <ele>184.39999389648</ele>
        <time>2013-04-29T12:52:53.000Z</time>
      </trkpt>
      <trkpt lat="48.70485" lon="1.67719">
        <ele>185</ele>
        <time>2013-04-29T12:53:03.000Z</time>
      </trkpt>
      <trkpt lat="48.70473" lon="1.67714">
        <ele>185</ele>
        <time>2013-04-29T12:53:12.000Z</time>
      </trkpt>
      <trkpt lat="48.70454" lon="1.67703">
        <ele>185.39999389648</ele>
        <time>2013-04-29T12:53:26.000Z</time>
      </trkpt>
      <trkpt lat="48.70439" lon="1.67694">
        <ele>185.39999389648</ele>
        <time>2013-04-29T12:53:37.000Z</time>
      </trkpt>
      <trkpt lat="48.70425" lon="1.67685">
        <ele>185.39999389648</ele>
        <time>2013-04-29T12:53:47.000Z</time>
      </trkpt>
      <trkpt lat="48.70413" lon="1.67678">
        <ele>185.39999389648</ele>
        <time>2013-04-29T12:53:56.000Z</time>
      </trkpt>
      <trkpt lat="48.70401" lon="1.67671">
        <ele>185.80000305176</ele>
        <time>2013-04-29T12:54:05.000Z</time>
      </trkpt>
      <trkpt lat="48.704" lon="1.67671">
        <ele>185.80000305176</ele>
        <time>2013-04-29T12:54:06.000Z</time>
      </trkpt>
      <trkpt lat="48.70392" lon="1.67668">
        <ele>185.80000305176</ele>
        <time>2013-04-29T12:54:12.000Z</time>
      </trkpt>
      <trkpt lat="48.70382" lon="1.67663">
        <ele>186</ele>
        <time>2013-04-29T12:54:19.000Z</time>
      </trkpt>
      <trkpt lat="48.70373" lon="1.67658">
        <ele>185.80000305176</ele>
        <time>2013-04-29T12:54:26.000Z</time>
      </trkpt>
      <trkpt lat="48.70364" lon="1.6765">
        <ele>185.80000305176</ele>
        <time>2013-04-29T12:54:33.000Z</time>
      </trkpt>
      <trkpt lat="48.70353" lon="1.67643">
        <ele>185.80000305176</ele>
        <time>2013-04-29T12:54:41.000Z</time>
      </trkpt>
      <trkpt lat="48.70342" lon="1.67639">
        <ele>185.60000610352</ele>
        <time>2013-04-29T12:54:48.000Z</time>
      </trkpt>
      <trkpt lat="48.70332" lon="1.67635">
        <ele>185.39999389648</ele>
        <time>2013-04-29T12:54:56.000Z</time>
      </trkpt>
      <trkpt lat="48.70321" lon="1.67628">
        <ele>184.80000305176</ele>
        <time>2013-04-29T12:55:04.000Z</time>
      </trkpt>
      <trkpt lat="48.70306" lon="1.6762">
        <ele>183.80000305176</ele>
        <time>2013-04-29T12:55:14.000Z</time>
      </trkpt>
      <trkpt lat="48.70294" lon="1.67613">
        <ele>183</ele>
        <time>2013-04-29T12:55:22.000Z</time>
      </trkpt>
      <trkpt lat="48.70283" lon="1.67607">
        <ele>182.19999694824</ele>
        <time>2013-04-29T12:55:30.000Z</time>
      </trkpt>
      <trkpt lat="48.70271" lon="1.67601">
        <ele>181.19999694824</ele>
        <time>2013-04-29T12:55:38.000Z</time>
      </trkpt>
      <trkpt lat="48.70258" lon="1.67594">
        <ele>180</ele>
        <time>2013-04-29T12:55:48.000Z</time>
      </trkpt>
      <trkpt lat="48.70248" lon="1.67587">
        <ele>179</ele>
        <time>2013-04-29T12:55:56.000Z</time>
      </trkpt>
      <trkpt lat="48.70236" lon="1.6758">
        <ele>178</ele>
        <time>2013-04-29T12:56:04.000Z</time>
      </trkpt>
      <trkpt lat="48.70224" lon="1.67573">
        <ele>176.80000305176</ele>
        <time>2013-04-29T12:56:13.000Z</time>
      </trkpt>
      <trkpt lat="48.70212" lon="1.67567">
        <ele>175.80000305176</ele>
        <time>2013-04-29T12:56:21.000Z</time>
      </trkpt>
      <trkpt lat="48.70203" lon="1.67565">
        <ele>175.19999694824</ele>
        <time>2013-04-29T12:56:27.000Z</time>
      </trkpt>
      <trkpt lat="48.70195" lon="1.67561">
        <ele>174.39999389648</ele>
        <time>2013-04-29T12:56:32.000Z</time>
      </trkpt>
      <trkpt lat="48.70185" lon="1.67555">
        <ele>173.39999389648</ele>
        <time>2013-04-29T12:56:39.000Z</time>
      </trkpt>
      <trkpt lat="48.70177" lon="1.6755">
        <ele>172.60000610352</ele>
        <time>2013-04-29T12:56:45.000Z</time>
      </trkpt>
      <trkpt lat="48.70175" lon="1.67549">
        <ele>172.39999389648</ele>
        <time>2013-04-29T12:56:46.000Z</time>
      </trkpt>
      <trkpt lat="48.70166" lon="1.67544">
        <ele>171.39999389648</ele>
        <time>2013-04-29T12:56:52.000Z</time>
      </trkpt>
      <trkpt lat="48.70155" lon="1.67535">
        <ele>170.19999694824</ele>
        <time>2013-04-29T12:56:59.000Z</time>
      </trkpt>
      <trkpt lat="48.70141" lon="1.67528">
        <ele>169</ele>
        <time>2013-04-29T12:57:08.000Z</time>
      </trkpt>
      <trkpt lat="48.70133" lon="1.67524">
        <ele>168.19999694824</ele>
        <time>2013-04-29T12:57:15.000Z</time>
      </trkpt>
      <trkpt lat="48.70131" lon="1.67523">
        <ele>168</ele>
        <time>2013-04-29T12:57:19.000Z</time>
      </trkpt>
      <trkpt lat="48.70127" lon="1.67523">
        <ele>167.80000305176</ele>
        <time>2013-04-29T12:57:28.000Z</time>
      </trkpt>
      <trkpt lat="48.7012" lon="1.67521">
        <ele>167.39999389648</ele>
        <time>2013-04-29T12:57:32.000Z</time>
      </trkpt>
      <trkpt lat="48.70111" lon="1.67514">
        <ele>166.60000610352</ele>
        <time>2013-04-29T12:57:39.000Z</time>
      </trkpt>
      <trkpt lat="48.70102" lon="1.67508">
        <ele>166</ele>
        <time>2013-04-29T12:57:46.000Z</time>
      </trkpt>
      <trkpt lat="48.70099" lon="1.67506">
        <ele>165.80000305176</ele>
        <time>2013-04-29T12:57:48.000Z</time>
      </trkpt>
      <trkpt lat="48.70088" lon="1.67501">
        <ele>165.19999694824</ele>
        <time>2013-04-29T12:57:55.000Z</time>
      </trkpt>
      <trkpt lat="48.70081" lon="1.67498">
        <ele>164.80000305176</ele>
        <time>2013-04-29T12:58:00.000Z</time>
      </trkpt>
      <trkpt lat="48.70072" lon="1.67494">
        <ele>164</ele>
        <time>2013-04-29T12:58:07.000Z</time>
      </trkpt>
      <trkpt lat="48.70061" lon="1.67488">
        <ele>163.19999694824</ele>
        <time>2013-04-29T12:58:15.000Z</time>
      </trkpt>
      <trkpt lat="48.7005" lon="1.67481">
        <ele>162.19999694824</ele>
        <time>2013-04-29T12:58:23.000Z</time>
      </trkpt>
      <trkpt lat="48.70045" lon="1.67479">
        <ele>162</ele>
        <time>2013-04-29T12:58:26.000Z</time>
      </trkpt>
      <trkpt lat="48.70035" lon="1.67474">
        <ele>161.19999694824</ele>
        <time>2013-04-29T12:58:33.000Z</time>
      </trkpt>
      <trkpt lat="48.70029" lon="1.67471">
        <ele>160.80000305176</ele>
        <time>2013-04-29T12:58:37.000Z</time>
      </trkpt>
      <trkpt lat="48.70021" lon="1.67467">
        <ele>160.19999694824</ele>
        <time>2013-04-29T12:58:43.000Z</time>
      </trkpt>
      <trkpt lat="48.70012" lon="1.67461">
        <ele>159.60000610352</ele>
        <time>2013-04-29T12:58:49.000Z</time>
      </trkpt>
      <trkpt lat="48.7" lon="1.67454">
        <ele>158.80000305176</ele>
        <time>2013-04-29T12:58:57.000Z</time>
      </trkpt>
      <trkpt lat="48.6999" lon="1.67449">
        <ele>157.80000305176</ele>
        <time>2013-04-29T12:59:04.000Z</time>
      </trkpt>
      <trkpt lat="48.69985" lon="1.67446">
        <ele>157.39999389648</ele>
        <time>2013-04-29T12:59:09.000Z</time>
      </trkpt>
      <trkpt lat="48.69979" lon="1.67443">
        <ele>156.80000305176</ele>
        <time>2013-04-29T12:59:15.000Z</time>
      </trkpt>
      <trkpt lat="48.69968" lon="1.67436">
        <ele>155.80000305176</ele>
        <time>2013-04-29T12:59:21.000Z</time>
      </trkpt>
      <trkpt lat="48.69953" lon="1.67431">
        <ele>154.60000610352</ele>
        <time>2013-04-29T12:59:31.000Z</time>
      </trkpt>
      <trkpt lat="48.69946" lon="1.67427">
        <ele>154</ele>
        <time>2013-04-29T12:59:36.000Z</time>
      </trkpt>
      <trkpt lat="48.69939" lon="1.67421">
        <ele>153.39999389648</ele>
        <time>2013-04-29T12:59:42.000Z</time>
      </trkpt>
      <trkpt lat="48.69934" lon="1.67418">
        <ele>153.19999694824</ele>
        <time>2013-04-29T12:59:48.000Z</time>
      </trkpt>
      <trkpt lat="48.69926" lon="1.67413">
        <ele>152.60000610352</ele>
        <time>2013-04-29T12:59:54.000Z</time>
      </trkpt>
      <trkpt lat="48.69916" lon="1.67408">
        <ele>152.39999389648</ele>
        <time>2013-04-29T13:00:00.000Z</time>
      </trkpt>
      <trkpt lat="48.69907" lon="1.67404">
        <ele>152</ele>
        <time>2013-04-29T13:00:06.000Z</time>
      </trkpt>
      <trkpt lat="48.69899" lon="1.674">
        <ele>151.60000610352</ele>
        <time>2013-04-29T13:00:12.000Z</time>
      </trkpt>
      <trkpt lat="48.69891" lon="1.67395">
        <ele>151.39999389648</ele>
        <time>2013-04-29T13:00:17.000Z</time>
      </trkpt>
      <trkpt lat="48.69884" lon="1.67391">
        <ele>151.19999694824</ele>
        <time>2013-04-29T13:00:21.000Z</time>
      </trkpt>
      <trkpt lat="48.69872" lon="1.67385">
        <ele>151</ele>
        <time>2013-04-29T13:00:29.000Z</time>
      </trkpt>
      <trkpt lat="48.69861" lon="1.6738">
        <ele>150.60000610352</ele>
        <time>2013-04-29T13:00:36.000Z</time>
      </trkpt>
      <trkpt lat="48.69847" lon="1.67375">
        <ele>150.19999694824</ele>
        <time>2013-04-29T13:00:45.000Z</time>
      </trkpt>
      <trkpt lat="48.69834" lon="1.67368">
        <ele>149.80000305176</ele>
        <time>2013-04-29T13:00:54.000Z</time>
      </trkpt>
      <trkpt lat="48.69828" lon="1.67365">
        <ele>150.19999694824</ele>
        <time>2013-04-29T13:00:58.000Z</time>
      </trkpt>
      <trkpt lat="48.69817" lon="1.67356">
        <ele>150.80000305176</ele>
        <time>2013-04-29T13:01:07.000Z</time>
      </trkpt>
      <trkpt lat="48.6981" lon="1.67352">
        <ele>151.19999694824</ele>
        <time>2013-04-29T13:01:13.000Z</time>
      </trkpt>
      <trkpt lat="48.69801" lon="1.67348">
        <ele>151.60000610352</ele>
        <time>2013-04-29T13:01:20.000Z</time>
      </trkpt>
      <trkpt lat="48.69789" lon="1.67342">
        <ele>152</ele>
        <time>2013-04-29T13:01:27.000Z</time>
      </trkpt>
      <trkpt lat="48.69775" lon="1.67336">
        <ele>152.39999389648</ele>
        <time>2013-04-29T13:01:31.000Z</time>
      </trkpt>
      <trkpt lat="48.69755" lon="1.67328">
        <ele>153</ele>
        <time>2013-04-29T13:01:36.000Z</time>
      </trkpt>
      <trkpt lat="48.69739" lon="1.67319">
        <ele>152.80000305176</ele>
        <time>2013-04-29T13:01:40.000Z</time>
      </trkpt>
      <trkpt lat="48.69733" lon="1.67315">
        <ele>152.60000610352</ele>
        <time>2013-04-29T13:01:42.000Z</time>
      </trkpt>
      <trkpt lat="48.69717" lon="1.67305">
        <ele>152.39999389648</ele>
        <time>2013-04-29T13:01:47.000Z</time>
      </trkpt>
      <trkpt lat="48.69694" lon="1.67292">
        <ele>151.80000305176</ele>
        <time>2013-04-29T13:01:53.000Z</time>
      </trkpt>
      <trkpt lat="48.69672" lon="1.67278">
        <ele>151</ele>
        <time>2013-04-29T13:01:59.000Z</time>
      </trkpt>
      <trkpt lat="48.69654" lon="1.67269">
        <ele>150.39999389648</ele>
        <time>2013-04-29T13:02:04.000Z</time>
      </trkpt>
      <trkpt lat="48.69637" lon="1.67259">
        <ele>149.80000305176</ele>
        <time>2013-04-29T13:02:09.000Z</time>
      </trkpt>
      <trkpt lat="48.69622" lon="1.67254">
        <ele>149.19999694824</ele>
        <time>2013-04-29T13:02:13.000Z</time>
      </trkpt>
      <trkpt lat="48.69599" lon="1.67249">
        <ele>148.39999389648</ele>
        <time>2013-04-29T13:02:19.000Z</time>
      </trkpt>
      <trkpt lat="48.69579" lon="1.67242">
        <ele>147.80000305176</ele>
        <time>2013-04-29T13:02:24.000Z</time>
      </trkpt>
      <trkpt lat="48.69556" lon="1.67234">
        <ele>147.60000610352</ele>
        <time>2013-04-29T13:02:30.000Z</time>
      </trkpt>
      <trkpt lat="48.69542" lon="1.67228">
        <ele>147.39999389648</ele>
        <time>2013-04-29T13:02:34.000Z</time>
      </trkpt>
      <trkpt lat="48.69536" lon="1.67227">
        <ele>147.39999389648</ele>
        <time>2013-04-29T13:02:36.000Z</time>
      </trkpt>
      <trkpt lat="48.69531" lon="1.67239">
        <ele>147.19999694824</ele>
        <time>2013-04-29T13:02:40.000Z</time>
      </trkpt>
      <trkpt lat="48.69537" lon="1.67257">
        <ele>147.39999389648</ele>
        <time>2013-04-29T13:02:44.000Z</time>
      </trkpt>
      <trkpt lat="48.69539" lon="1.67262">
        <ele>147.39999389648</ele>
        <time>2013-04-29T13:02:45.000Z</time>
      </trkpt>
      <trkpt lat="48.69553" lon="1.67292">
        <ele>147.60000610352</ele>
        <time>2013-04-29T13:02:51.000Z</time>
      </trkpt>
      <trkpt lat="48.69558" lon="1.67302">
        <ele>147.60000610352</ele>
        <time>2013-04-29T13:02:53.000Z</time>
      </trkpt>
      <trkpt lat="48.69574" lon="1.67332">
        <ele>147.80000305176</ele>
        <time>2013-04-29T13:02:59.000Z</time>
      </trkpt>
      <trkpt lat="48.69584" lon="1.67351">
        <ele>147.60000610352</ele>
        <time>2013-04-29T13:03:03.000Z</time>
      </trkpt>
      <trkpt lat="48.69595" lon="1.67373">
        <ele>147.80000305176</ele>
        <time>2013-04-29T13:03:07.000Z</time>
      </trkpt>
      <trkpt lat="48.69613" lon="1.67408">
        <ele>147.39999389648</ele>
        <time>2013-04-29T13:03:14.000Z</time>
      </trkpt>
      <trkpt lat="48.69626" lon="1.67438">
        <ele>146.60000610352</ele>
        <time>2013-04-29T13:03:20.000Z</time>
      </trkpt>
      <trkpt lat="48.69632" lon="1.67447">
        <ele>146.39999389648</ele>
        <time>2013-04-29T13:03:22.000Z</time>
      </trkpt>
      <trkpt lat="48.69646" lon="1.67462">
        <ele>146</ele>
        <time>2013-04-29T13:03:26.000Z</time>
      </trkpt>
      <trkpt lat="48.69661" lon="1.6749">
        <ele>145.19999694824</ele>
        <time>2013-04-29T13:03:32.000Z</time>
      </trkpt>
      <trkpt lat="48.69667" lon="1.67509">
        <ele>145</ele>
        <time>2013-04-29T13:03:36.000Z</time>
      </trkpt>
      <trkpt lat="48.69675" lon="1.67539">
        <ele>145.19999694824</ele>
        <time>2013-04-29T13:03:41.000Z</time>
      </trkpt>
      <trkpt lat="48.69682" lon="1.67577">
        <ele>145.60000610352</ele>
        <time>2013-04-29T13:03:46.000Z</time>
      </trkpt>
      <trkpt lat="48.69689" lon="1.67613">
        <ele>145.80000305176</ele>
        <time>2013-04-29T13:03:50.000Z</time>
      </trkpt>
      <trkpt lat="48.69699" lon="1.67668">
        <ele>145.80000305176</ele>
        <time>2013-04-29T13:03:56.000Z</time>
      </trkpt>
      <trkpt lat="48.69707" lon="1.67723">
        <ele>146.60000610352</ele>
        <time>2013-04-29T13:04:02.000Z</time>
      </trkpt>
      <trkpt lat="48.69716" lon="1.67759">
        <ele>147.19999694824</ele>
        <time>2013-04-29T13:04:06.000Z</time>
      </trkpt>
      <trkpt lat="48.69723" lon="1.67791">
        <ele>147.19999694824</ele>
        <time>2013-04-29T13:04:10.000Z</time>
      </trkpt>
      <trkpt lat="48.69726" lon="1.67831">
        <ele>147</ele>
        <time>2013-04-29T13:04:14.000Z</time>
      </trkpt>
      <trkpt lat="48.69738" lon="1.6789">
        <ele>147.39999389648</ele>
        <time>2013-04-29T13:04:20.000Z</time>
      </trkpt>
      <trkpt lat="48.69742" lon="1.67924">
        <ele>147.60000610352</ele>
        <time>2013-04-29T13:04:24.000Z</time>
      </trkpt>
      <trkpt lat="48.69746" lon="1.67969">
        <ele>147.80000305176</ele>
        <time>2013-04-29T13:04:30.000Z</time>
      </trkpt>
      <trkpt lat="48.6975" lon="1.68009">
        <ele>147.80000305176</ele>
        <time>2013-04-29T13:04:36.000Z</time>
      </trkpt>
      <trkpt lat="48.69753" lon="1.68031">
        <ele>147.19999694824</ele>
        <time>2013-04-29T13:04:40.000Z</time>
      </trkpt>
      <trkpt lat="48.69757" lon="1.68053">
        <ele>147</ele>
        <time>2013-04-29T13:04:46.000Z</time>
      </trkpt>
      <trkpt lat="48.69759" lon="1.68075">
        <ele>146.60000610352</ele>
        <time>2013-04-29T13:04:52.000Z</time>
      </trkpt>
      <trkpt lat="48.69761" lon="1.68092">
        <ele>146.60000610352</ele>
        <time>2013-04-29T13:04:56.000Z</time>
      </trkpt>
      <trkpt lat="48.69761" lon="1.68111">
        <ele>146.60000610352</ele>
        <time>2013-04-29T13:05:00.000Z</time>
      </trkpt>
      <trkpt lat="48.69762" lon="1.68133">
        <ele>146.60000610352</ele>
        <time>2013-04-29T13:05:06.000Z</time>
      </trkpt>
      <trkpt lat="48.69762" lon="1.68153">
        <ele>146.60000610352</ele>
        <time>2013-04-29T13:05:11.000Z</time>
      </trkpt>
      <trkpt lat="48.69759" lon="1.68183">
        <ele>146.80000305176</ele>
        <time>2013-04-29T13:05:18.000Z</time>
      </trkpt>
      <trkpt lat="48.69757" lon="1.6821">
        <ele>147.39999389648</ele>
        <time>2013-04-29T13:05:24.000Z</time>
      </trkpt>
      <trkpt lat="48.69757" lon="1.6824">
        <ele>148</ele>
        <time>2013-04-29T13:05:30.000Z</time>
      </trkpt>
      <trkpt lat="48.69756" lon="1.68271">
        <ele>148</ele>
        <time>2013-04-29T13:05:36.000Z</time>
      </trkpt>
      <trkpt lat="48.69754" lon="1.68299">
        <ele>147.60000610352</ele>
        <time>2013-04-29T13:05:41.000Z</time>
      </trkpt>
      <trkpt lat="48.69753" lon="1.68333">
        <ele>147</ele>
        <time>2013-04-29T13:05:46.000Z</time>
      </trkpt>
      <trkpt lat="48.6975" lon="1.68381">
        <ele>148</ele>
        <time>2013-04-29T13:05:52.000Z</time>
      </trkpt>
      <trkpt lat="48.69751" lon="1.68389">
        <ele>148.19999694824</ele>
        <time>2013-04-29T13:05:53.000Z</time>
      </trkpt>
      <trkpt lat="48.69748" lon="1.68432">
        <ele>149</ele>
        <time>2013-04-29T13:05:58.000Z</time>
      </trkpt>
      <trkpt lat="48.69744" lon="1.68466">
        <ele>149.39999389648</ele>
        <time>2013-04-29T13:06:02.000Z</time>
      </trkpt>
      <trkpt lat="48.69741" lon="1.68508">
        <ele>150</ele>
        <time>2013-04-29T13:06:07.000Z</time>
      </trkpt>
      <trkpt lat="48.69739" lon="1.68524">
        <ele>150</ele>
        <time>2013-04-29T13:06:09.000Z</time>
      </trkpt>
      <trkpt lat="48.69739" lon="1.68541">
        <ele>150</ele>
        <time>2013-04-29T13:06:11.000Z</time>
      </trkpt>
      <trkpt lat="48.69738" lon="1.68565">
        <ele>150.19999694824</ele>
        <time>2013-04-29T13:06:14.000Z</time>
      </trkpt>
      <trkpt lat="48.69738" lon="1.68597">
        <ele>149.80000305176</ele>
        <time>2013-04-29T13:06:18.000Z</time>
      </trkpt>
      <trkpt lat="48.69739" lon="1.68631">
        <ele>149</ele>
        <time>2013-04-29T13:06:22.000Z</time>
      </trkpt>
      <trkpt lat="48.69739" lon="1.68647">
        <ele>148.60000610352</ele>
        <time>2013-04-29T13:06:24.000Z</time>
      </trkpt>
      <trkpt lat="48.69743" lon="1.6869">
        <ele>148.60000610352</ele>
        <time>2013-04-29T13:06:29.000Z</time>
      </trkpt>
      <trkpt lat="48.69743" lon="1.68698">
        <ele>148.80000305176</ele>
        <time>2013-04-29T13:06:30.000Z</time>
      </trkpt>
      <trkpt lat="48.69744" lon="1.68744">
        <ele>150</ele>
        <time>2013-04-29T13:06:35.000Z</time>
      </trkpt>
      <trkpt lat="48.69744" lon="1.68761">
        <ele>150.19999694824</ele>
        <time>2013-04-29T13:06:37.000Z</time>
      </trkpt>
      <trkpt lat="48.69745" lon="1.6879">
        <ele>150.19999694824</ele>
        <time>2013-04-29T13:06:41.000Z</time>
      </trkpt>
      <trkpt lat="48.69746" lon="1.68827">
        <ele>150</ele>
        <time>2013-04-29T13:06:46.000Z</time>
      </trkpt>
      <trkpt lat="48.6975" lon="1.68851">
        <ele>150.19999694824</ele>
        <time>2013-04-29T13:06:49.000Z</time>
      </trkpt>
      <trkpt lat="48.69751" lon="1.68868">
        <ele>150.19999694824</ele>
        <time>2013-04-29T13:06:51.000Z</time>
      </trkpt>
      <trkpt lat="48.69752" lon="1.68908">
        <ele>150.80000305176</ele>
        <time>2013-04-29T13:06:56.000Z</time>
      </trkpt>
      <trkpt lat="48.69754" lon="1.68924">
        <ele>150.80000305176</ele>
        <time>2013-04-29T13:06:58.000Z</time>
      </trkpt>
      <trkpt lat="48.69757" lon="1.68953">
        <ele>151.19999694824</ele>
        <time>2013-04-29T13:07:02.000Z</time>
      </trkpt>
      <trkpt lat="48.69757" lon="1.68997">
        <ele>151.80000305176</ele>
        <time>2013-04-29T13:07:08.000Z</time>
      </trkpt>
      <trkpt lat="48.69759" lon="1.69026">
        <ele>152.60000610352</ele>
        <time>2013-04-29T13:07:13.000Z</time>
      </trkpt>
      <trkpt lat="48.69761" lon="1.69049">
        <ele>153.39999389648</ele>
        <time>2013-04-29T13:07:17.000Z</time>
      </trkpt>
      <trkpt lat="48.69762" lon="1.69079">
        <ele>154.39999389648</ele>
        <time>2013-04-29T13:07:22.000Z</time>
      </trkpt>
      <trkpt lat="48.69764" lon="1.69098">
        <ele>154.60000610352</ele>
        <time>2013-04-29T13:07:25.000Z</time>
      </trkpt>
      <trkpt lat="48.69767" lon="1.69135">
        <ele>155.19999694824</ele>
        <time>2013-04-29T13:07:31.000Z</time>
      </trkpt>
      <trkpt lat="48.6977" lon="1.69163">
        <ele>155.60000610352</ele>
        <time>2013-04-29T13:07:36.000Z</time>
      </trkpt>
      <trkpt lat="48.69772" lon="1.69194">
        <ele>155.80000305176</ele>
        <time>2013-04-29T13:07:41.000Z</time>
      </trkpt>
      <trkpt lat="48.69775" lon="1.69206">
        <ele>156</ele>
        <time>2013-04-29T13:07:43.000Z</time>
      </trkpt>
      <trkpt lat="48.69783" lon="1.69254">
        <ele>156.60000610352</ele>
        <time>2013-04-29T13:07:51.000Z</time>
      </trkpt>
      <trkpt lat="48.69784" lon="1.6926">
        <ele>156.60000610352</ele>
        <time>2013-04-29T13:07:52.000Z</time>
      </trkpt>
      <trkpt lat="48.6979" lon="1.69287">
        <ele>156.80000305176</ele>
        <time>2013-04-29T13:07:57.000Z</time>
      </trkpt>
      <trkpt lat="48.69794" lon="1.69312">
        <ele>157</ele>
        <time>2013-04-29T13:08:02.000Z</time>
      </trkpt>
      <trkpt lat="48.698" lon="1.69338">
        <ele>157.39999389648</ele>
        <time>2013-04-29T13:08:07.000Z</time>
      </trkpt>
      <trkpt lat="48.69803" lon="1.69358">
        <ele>158</ele>
        <time>2013-04-29T13:08:11.000Z</time>
      </trkpt>
      <trkpt lat="48.69809" lon="1.69391">
        <ele>159.19999694824</ele>
        <time>2013-04-29T13:08:17.000Z</time>
      </trkpt>
      <trkpt lat="48.69815" lon="1.69415">
        <ele>160.39999389648</ele>
        <time>2013-04-29T13:08:22.000Z</time>
      </trkpt>
      <trkpt lat="48.69817" lon="1.69425">
        <ele>160.60000610352</ele>
        <time>2013-04-29T13:08:26.000Z</time>
      </trkpt>
      <trkpt lat="48.69821" lon="1.69443">
        <ele>161.39999389648</ele>
        <time>2013-04-29T13:08:30.000Z</time>
      </trkpt>
      <trkpt lat="48.69827" lon="1.69454">
        <ele>162.19999694824</ele>
        <time>2013-04-29T13:08:33.000Z</time>
      </trkpt>
      <trkpt lat="48.69825" lon="1.69466">
        <ele>162.19999694824</ele>
        <time>2013-04-29T13:08:38.000Z</time>
      </trkpt>
      <trkpt lat="48.69821" lon="1.69475">
        <ele>162</ele>
        <time>2013-04-29T13:08:43.000Z</time>
      </trkpt>
      <trkpt lat="48.69825" lon="1.69491">
        <ele>162.80000305176</ele>
        <time>2013-04-29T13:08:50.000Z</time>
      </trkpt>
      <trkpt lat="48.69825" lon="1.69493">
        <ele>162.80000305176</ele>
        <time>2013-04-29T13:08:51.000Z</time>
      </trkpt>
      <trkpt lat="48.69829" lon="1.69499">
        <ele>163.39999389648</ele>
        <time>2013-04-29T13:08:55.000Z</time>
      </trkpt>
      <trkpt lat="48.69833" lon="1.69517">
        <ele>163.39999389648</ele>
        <time>2013-04-29T13:09:02.000Z</time>
      </trkpt>
      <trkpt lat="48.69835" lon="1.69528">
        <ele>163.19999694824</ele>
        <time>2013-04-29T13:09:07.000Z</time>
      </trkpt>
      <trkpt lat="48.6984" lon="1.69544">
        <ele>163</ele>
        <time>2013-04-29T13:09:15.000Z</time>
      </trkpt>
      <trkpt lat="48.69846" lon="1.69562">
        <ele>162.60000610352</ele>
        <time>2013-04-29T13:09:24.000Z</time>
      </trkpt>
      <trkpt lat="48.6985" lon="1.69579">
        <ele>162.39999389648</ele>
        <time>2013-04-29T13:09:32.000Z</time>
      </trkpt>
      <trkpt lat="48.69856" lon="1.69595">
        <ele>162.39999389648</ele>
        <time>2013-04-29T13:09:40.000Z</time>
      </trkpt>
      <trkpt lat="48.69861" lon="1.6961">
        <ele>162.39999389648</ele>
        <time>2013-04-29T13:09:47.000Z</time>
      </trkpt>
      <trkpt lat="48.69865" lon="1.6962">
        <ele>162.39999389648</ele>
        <time>2013-04-29T13:09:51.000Z</time>
      </trkpt>
      <trkpt lat="48.69871" lon="1.69637">
        <ele>162.39999389648</ele>
        <time>2013-04-29T13:09:59.000Z</time>
      </trkpt>
      <trkpt lat="48.69872" lon="1.69641">
        <ele>162.39999389648</ele>
        <time>2013-04-29T13:10:01.000Z</time>
      </trkpt>
      <trkpt lat="48.69876" lon="1.69654">
        <ele>162.60000610352</ele>
        <time>2013-04-29T13:10:07.000Z</time>
      </trkpt>
      <trkpt lat="48.69879" lon="1.6967">
        <ele>162.60000610352</ele>
        <time>2013-04-29T13:10:14.000Z</time>
      </trkpt>
      <trkpt lat="48.69885" lon="1.69686">
        <ele>163.60000610352</ele>
        <time>2013-04-29T13:10:22.000Z</time>
      </trkpt>
      <trkpt lat="48.69892" lon="1.69704">
        <ele>164.80000305176</ele>
        <time>2013-04-29T13:10:31.000Z</time>
      </trkpt>
      <trkpt lat="48.699" lon="1.69725">
        <ele>166</ele>
        <time>2013-04-29T13:10:41.000Z</time>
      </trkpt>
      <trkpt lat="48.69905" lon="1.6974">
        <ele>167</ele>
        <time>2013-04-29T13:10:49.000Z</time>
      </trkpt>
      <trkpt lat="48.69912" lon="1.69758">
        <ele>168.19999694824</ele>
        <time>2013-04-29T13:10:58.000Z</time>
      </trkpt>
      <trkpt lat="48.69915" lon="1.6977">
        <ele>169</ele>
        <time>2013-04-29T13:11:04.000Z</time>
      </trkpt>
      <trkpt lat="48.69916" lon="1.69772">
        <ele>169.19999694824</ele>
        <time>2013-04-29T13:11:05.000Z</time>
      </trkpt>
      <trkpt lat="48.69917" lon="1.69779">
        <ele>169.60000610352</ele>
        <time>2013-04-29T13:11:09.000Z</time>
      </trkpt>
      <trkpt lat="48.69921" lon="1.69791">
        <ele>170.39999389648</ele>
        <time>2013-04-29T13:11:16.000Z</time>
      </trkpt>
      <trkpt lat="48.69926" lon="1.69806">
        <ele>171.39999389648</ele>
        <time>2013-04-29T13:11:24.000Z</time>
      </trkpt>
      <trkpt lat="48.69931" lon="1.69824">
        <ele>172.39999389648</ele>
        <time>2013-04-29T13:11:33.000Z</time>
      </trkpt>
      <trkpt lat="48.69939" lon="1.69847">
        <ele>173.39999389648</ele>
        <time>2013-04-29T13:11:44.000Z</time>
      </trkpt>
      <trkpt lat="48.69945" lon="1.69863">
        <ele>173.80000305176</ele>
        <time>2013-04-29T13:11:52.000Z</time>
      </trkpt>
      <trkpt lat="48.69951" lon="1.69881">
        <ele>174.39999389648</ele>
        <time>2013-04-29T13:12:00.000Z</time>
      </trkpt>
      <trkpt lat="48.6996" lon="1.69902">
        <ele>175</ele>
        <time>2013-04-29T13:12:10.000Z</time>
      </trkpt>
      <trkpt lat="48.69969" lon="1.69915">
        <ele>175.19999694824</ele>
        <time>2013-04-29T13:12:15.000Z</time>
      </trkpt>
      <trkpt lat="48.69988" lon="1.69942">
        <ele>175.60000610352</ele>
        <time>2013-04-29T13:12:20.000Z</time>
      </trkpt>
      <trkpt lat="48.69992" lon="1.69948">
        <ele>175.80000305176</ele>
        <time>2013-04-29T13:12:21.000Z</time>
      </trkpt>
      <trkpt lat="48.70013" lon="1.6998">
        <ele>177</ele>
        <time>2013-04-29T13:12:26.000Z</time>
      </trkpt>
      <trkpt lat="48.70022" lon="1.69992">
        <ele>177.80000305176</ele>
        <time>2013-04-29T13:12:28.000Z</time>
      </trkpt>
      <trkpt lat="48.70037" lon="1.70018">
        <ele>178.80000305176</ele>
        <time>2013-04-29T13:12:32.000Z</time>
      </trkpt>
      <trkpt lat="48.70049" lon="1.7004">
        <ele>179.39999389648</ele>
        <time>2013-04-29T13:12:35.000Z</time>
      </trkpt>
      <trkpt lat="48.7007" lon="1.70074">
        <ele>180.39999389648</ele>
        <time>2013-04-29T13:12:40.000Z</time>
      </trkpt>
      <trkpt lat="48.70077" lon="1.70086">
        <ele>180.60000610352</ele>
        <time>2013-04-29T13:12:42.000Z</time>
      </trkpt>
      <trkpt lat="48.70086" lon="1.70099">
        <ele>180.39999389648</ele>
        <time>2013-04-29T13:12:44.000Z</time>
      </trkpt>
      <trkpt lat="48.70098" lon="1.70118">
        <ele>180</ele>
        <time>2013-04-29T13:12:47.000Z</time>
      </trkpt>
      <trkpt lat="48.70114" lon="1.70144">
        <ele>179.19999694824</ele>
        <time>2013-04-29T13:12:51.000Z</time>
      </trkpt>
      <trkpt lat="48.70132" lon="1.70184">
        <ele>178</ele>
        <time>2013-04-29T13:12:57.000Z</time>
      </trkpt>
      <trkpt lat="48.70144" lon="1.70216">
        <ele>177.39999389648</ele>
        <time>2013-04-29T13:13:01.000Z</time>
      </trkpt>
      <trkpt lat="48.70156" lon="1.70249">
        <ele>176.80000305176</ele>
        <time>2013-04-29T13:13:06.000Z</time>
      </trkpt>
      <trkpt lat="48.70164" lon="1.70272">
        <ele>177.19999694824</ele>
        <time>2013-04-29T13:13:09.000Z</time>
      </trkpt>
      <trkpt lat="48.70173" lon="1.70295">
        <ele>177.80000305176</ele>
        <time>2013-04-29T13:13:12.000Z</time>
      </trkpt>
      <trkpt lat="48.70181" lon="1.70324">
        <ele>178.60000610352</ele>
        <time>2013-04-29T13:13:16.000Z</time>
      </trkpt>
      <trkpt lat="48.70191" lon="1.70348">
        <ele>179.60000610352</ele>
        <time>2013-04-29T13:13:19.000Z</time>
      </trkpt>
      <trkpt lat="48.70199" lon="1.7037">
        <ele>180.19999694824</ele>
        <time>2013-04-29T13:13:22.000Z</time>
      </trkpt>
      <trkpt lat="48.70218" lon="1.70422">
        <ele>181.80000305176</ele>
        <time>2013-04-29T13:13:27.000Z</time>
      </trkpt>
      <trkpt lat="48.70239" lon="1.70482">
        <ele>181.80000305176</ele>
        <time>2013-04-29T13:13:34.000Z</time>
      </trkpt>
      <trkpt lat="48.70255" lon="1.7053">
        <ele>181.80000305176</ele>
        <time>2013-04-29T13:13:40.000Z</time>
      </trkpt>
      <trkpt lat="48.70267" lon="1.70567">
        <ele>182</ele>
        <time>2013-04-29T13:13:45.000Z</time>
      </trkpt>
      <trkpt lat="48.70281" lon="1.70606">
        <ele>182.80000305176</ele>
        <time>2013-04-29T13:13:51.000Z</time>
      </trkpt>
      <trkpt lat="48.70287" lon="1.70626">
        <ele>183.19999694824</ele>
        <time>2013-04-29T13:13:54.000Z</time>
      </trkpt>
      <trkpt lat="48.703" lon="1.70662">
        <ele>184</ele>
        <time>2013-04-29T13:14:00.000Z</time>
      </trkpt>
      <trkpt lat="48.7031" lon="1.70688">
        <ele>184.19999694824</ele>
        <time>2013-04-29T13:14:04.000Z</time>
      </trkpt>
      <trkpt lat="48.70325" lon="1.70737">
        <ele>184</ele>
        <time>2013-04-29T13:14:12.000Z</time>
      </trkpt>
      <trkpt lat="48.70332" lon="1.70758">
        <ele>184</ele>
        <time>2013-04-29T13:14:17.000Z</time>
      </trkpt>
      <trkpt lat="48.70338" lon="1.70777">
        <ele>184.60000610352</ele>
        <time>2013-04-29T13:14:21.000Z</time>
      </trkpt>
      <trkpt lat="48.70344" lon="1.70796">
        <ele>185.19999694824</ele>
        <time>2013-04-29T13:14:25.000Z</time>
      </trkpt>
      <trkpt lat="48.70353" lon="1.70826">
        <ele>186</ele>
        <time>2013-04-29T13:14:31.000Z</time>
      </trkpt>
      <trkpt lat="48.70364" lon="1.70855">
        <ele>186.39999389648</ele>
        <time>2013-04-29T13:14:37.000Z</time>
      </trkpt>
      <trkpt lat="48.70373" lon="1.70879">
        <ele>186.60000610352</ele>
        <time>2013-04-29T13:14:42.000Z</time>
      </trkpt>
      <trkpt lat="48.70385" lon="1.70915">
        <ele>186.80000305176</ele>
        <time>2013-04-29T13:14:49.000Z</time>
      </trkpt>
      <trkpt lat="48.70394" lon="1.70939">
        <ele>186.80000305176</ele>
        <time>2013-04-29T13:14:54.000Z</time>
      </trkpt>
      <trkpt lat="48.70405" lon="1.70969">
        <ele>186.80000305176</ele>
        <time>2013-04-29T13:15:00.000Z</time>
      </trkpt>
      <trkpt lat="48.70414" lon="1.70992">
        <ele>186.80000305176</ele>
        <time>2013-04-29T13:15:05.000Z</time>
      </trkpt>
      <trkpt lat="48.70422" lon="1.71017">
        <ele>186.39999389648</ele>
        <time>2013-04-29T13:15:10.000Z</time>
      </trkpt>
      <trkpt lat="48.70432" lon="1.71044">
        <ele>185.60000610352</ele>
        <time>2013-04-29T13:15:16.000Z</time>
      </trkpt>
      <trkpt lat="48.70442" lon="1.71072">
        <ele>185</ele>
        <time>2013-04-29T13:15:22.000Z</time>
      </trkpt>
      <trkpt lat="48.70447" lon="1.71092">
        <ele>185</ele>
        <time>2013-04-29T13:15:27.000Z</time>
      </trkpt>
      <trkpt lat="48.70451" lon="1.71108">
        <ele>185</ele>
        <time>2013-04-29T13:15:33.000Z</time>
      </trkpt>
      <trkpt lat="48.70457" lon="1.71118">
        <ele>185.19999694824</ele>
        <time>2013-04-29T13:15:39.000Z</time>
      </trkpt>
      <trkpt lat="48.70459" lon="1.71124">
        <ele>185.19999694824</ele>
        <time>2013-04-29T13:15:42.000Z</time>
      </trkpt>
      <trkpt lat="48.70464" lon="1.71133">
        <ele>185.19999694824</ele>
        <time>2013-04-29T13:15:47.000Z</time>
      </trkpt>
      <trkpt lat="48.70475" lon="1.71146">
        <ele>185.19999694824</ele>
        <time>2013-04-29T13:15:56.000Z</time>
      </trkpt>
      <trkpt lat="48.7048" lon="1.71159">
        <ele>185.19999694824</ele>
        <time>2013-04-29T13:16:03.000Z</time>
      </trkpt>
      <trkpt lat="48.70484" lon="1.71179">
        <ele>185.19999694824</ele>
        <time>2013-04-29T13:16:12.000Z</time>
      </trkpt>
      <trkpt lat="48.70485" lon="1.71195">
        <ele>185.39999389648</ele>
        <time>2013-04-29T13:16:20.000Z</time>
      </trkpt>
      <trkpt lat="48.70485" lon="1.712">
        <ele>185.39999389648</ele>
        <time>2013-04-29T13:16:25.000Z</time>
      </trkpt>
      <trkpt lat="48.70484" lon="1.71214">
        <ele>185.60000610352</ele>
        <time>2013-04-29T13:16:55.000Z</time>
      </trkpt>
      <trkpt lat="48.70482" lon="1.71223">
        <ele>185.80000305176</ele>
        <time>2013-04-29T13:16:59.000Z</time>
      </trkpt>
      <trkpt lat="48.70479" lon="1.71234">
        <ele>186</ele>
        <time>2013-04-29T13:17:04.000Z</time>
      </trkpt>
      <trkpt lat="48.70476" lon="1.71253">
        <ele>186.19999694824</ele>
        <time>2013-04-29T13:17:12.000Z</time>
      </trkpt>
      <trkpt lat="48.70474" lon="1.71268">
        <ele>186.39999389648</ele>
        <time>2013-04-29T13:17:18.000Z</time>
      </trkpt>
      <trkpt lat="48.7047" lon="1.71286">
        <ele>186.60000610352</ele>
        <time>2013-04-29T13:17:25.000Z</time>
      </trkpt>
      <trkpt lat="48.70468" lon="1.71298">
        <ele>186.80000305176</ele>
        <time>2013-04-29T13:17:31.000Z</time>
      </trkpt>
      <trkpt lat="48.70466" lon="1.71309">
        <ele>186.80000305176</ele>
        <time>2013-04-29T13:17:36.000Z</time>
      </trkpt>
      <trkpt lat="48.70464" lon="1.71315">
        <ele>186.80000305176</ele>
        <time>2013-04-29T13:17:39.000Z</time>
      </trkpt>
      <trkpt lat="48.70461" lon="1.71326">
        <ele>187</ele>
        <time>2013-04-29T13:17:44.000Z</time>
      </trkpt>
      <trkpt lat="48.70459" lon="1.71335">
        <ele>187</ele>
        <time>2013-04-29T13:17:48.000Z</time>
      </trkpt>
      <trkpt lat="48.70454" lon="1.71355">
        <ele>186.80000305176</ele>
        <time>2013-04-29T13:17:56.000Z</time>
      </trkpt>
      <trkpt lat="48.7045" lon="1.71375">
        <ele>186.60000610352</ele>
        <time>2013-04-29T13:18:05.000Z</time>
      </trkpt>
      <trkpt lat="48.70448" lon="1.71391">
        <ele>186.39999389648</ele>
        <time>2013-04-29T13:18:12.000Z</time>
      </trkpt>
      <trkpt lat="48.70449" lon="1.71392">
        <ele>186.60000610352</ele>
        <time>2013-04-29T13:18:13.000Z</time>
      </trkpt>
      <trkpt lat="48.70448" lon="1.71401">
        <ele>186.39999389648</ele>
        <time>2013-04-29T13:18:17.000Z</time>
      </trkpt>
      <trkpt lat="48.70443" lon="1.71421">
        <ele>186.19999694824</ele>
        <time>2013-04-29T13:18:25.000Z</time>
      </trkpt>
      <trkpt lat="48.70443" lon="1.71429">
        <ele>186.19999694824</ele>
        <time>2013-04-29T13:18:32.000Z</time>
      </trkpt>
      <trkpt lat="48.70442" lon="1.71436">
        <ele>186.19999694824</ele>
        <time>2013-04-29T13:18:38.000Z</time>
      </trkpt>
      <trkpt lat="48.70436" lon="1.71459">
        <ele>186</ele>
        <time>2013-04-29T13:18:46.000Z</time>
      </trkpt>
      <trkpt lat="48.70432" lon="1.71474">
        <ele>186</ele>
        <time>2013-04-29T13:18:52.000Z</time>
      </trkpt>
      <trkpt lat="48.70428" lon="1.71489">
        <ele>186</ele>
        <time>2013-04-29T13:18:59.000Z</time>
      </trkpt>
      <trkpt lat="48.70425" lon="1.71501">
        <ele>186</ele>
        <time>2013-04-29T13:19:05.000Z</time>
      </trkpt>
      <trkpt lat="48.70422" lon="1.71513">
        <ele>185.80000305176</ele>
        <time>2013-04-29T13:19:11.000Z</time>
      </trkpt>
      <trkpt lat="48.70417" lon="1.71534">
        <ele>185.60000610352</ele>
        <time>2013-04-29T13:19:19.000Z</time>
      </trkpt>
      <trkpt lat="48.70412" lon="1.71554">
        <ele>185.19999694824</ele>
        <time>2013-04-29T13:19:27.000Z</time>
      </trkpt>
      <trkpt lat="48.70408" lon="1.71576">
        <ele>184.80000305176</ele>
        <time>2013-04-29T13:19:35.000Z</time>
      </trkpt>
      <trkpt lat="48.70405" lon="1.7159">
        <ele>184.80000305176</ele>
        <time>2013-04-29T13:19:41.000Z</time>
      </trkpt>
      <trkpt lat="48.70403" lon="1.71606">
        <ele>184.80000305176</ele>
        <time>2013-04-29T13:19:47.000Z</time>
      </trkpt>
      <trkpt lat="48.704" lon="1.7163">
        <ele>185</ele>
        <time>2013-04-29T13:19:56.000Z</time>
      </trkpt>
      <trkpt lat="48.70396" lon="1.71647">
        <ele>185.19999694824</ele>
        <time>2013-04-29T13:20:02.000Z</time>
      </trkpt>
      <trkpt lat="48.70392" lon="1.71662">
        <ele>185.19999694824</ele>
        <time>2013-04-29T13:20:09.000Z</time>
      </trkpt>
      <trkpt lat="48.70389" lon="1.7168">
        <ele>185.39999389648</ele>
        <time>2013-04-29T13:20:16.000Z</time>
      </trkpt>
      <trkpt lat="48.70386" lon="1.71691">
        <ele>185.60000610352</ele>
        <time>2013-04-29T13:20:21.000Z</time>
      </trkpt>
      <trkpt lat="48.70383" lon="1.71708">
        <ele>185.80000305176</ele>
        <time>2013-04-29T13:20:28.000Z</time>
      </trkpt>
      <trkpt lat="48.70381" lon="1.71718">
        <ele>186</ele>
        <time>2013-04-29T13:20:32.000Z</time>
      </trkpt>
      <trkpt lat="48.70379" lon="1.7173">
        <ele>186.19999694824</ele>
        <time>2013-04-29T13:20:37.000Z</time>
      </trkpt>
      <trkpt lat="48.70374" lon="1.7175">
        <ele>186.39999389648</ele>
        <time>2013-04-29T13:20:44.000Z</time>
      </trkpt>
      <trkpt lat="48.70371" lon="1.71764">
        <ele>186</ele>
        <time>2013-04-29T13:20:50.000Z</time>
      </trkpt>
      <trkpt lat="48.70367" lon="1.71782">
        <ele>185.60000610352</ele>
        <time>2013-04-29T13:20:56.000Z</time>
      </trkpt>
      <trkpt lat="48.70361" lon="1.71799">
        <ele>185.19999694824</ele>
        <time>2013-04-29T13:21:03.000Z</time>
      </trkpt>
      <trkpt lat="48.70357" lon="1.71817">
        <ele>184.80000305176</ele>
        <time>2013-04-29T13:21:10.000Z</time>
      </trkpt>
      <trkpt lat="48.70355" lon="1.71836">
        <ele>184.39999389648</ele>
        <time>2013-04-29T13:21:17.000Z</time>
      </trkpt>
      <trkpt lat="48.70354" lon="1.7185">
        <ele>184.19999694824</ele>
        <time>2013-04-29T13:21:22.000Z</time>
      </trkpt>
      <trkpt lat="48.7035" lon="1.71868">
        <ele>183.80000305176</ele>
        <time>2013-04-29T13:21:29.000Z</time>
      </trkpt>
      <trkpt lat="48.70347" lon="1.71888">
        <ele>183.60000610352</ele>
        <time>2013-04-29T13:21:37.000Z</time>
      </trkpt>
      <trkpt lat="48.70343" lon="1.71905">
        <ele>183.19999694824</ele>
        <time>2013-04-29T13:21:44.000Z</time>
      </trkpt>
      <trkpt lat="48.7034" lon="1.71913">
        <ele>183.19999694824</ele>
        <time>2013-04-29T13:21:49.000Z</time>
      </trkpt>
      <trkpt lat="48.70336" lon="1.71931">
        <ele>183</ele>
        <time>2013-04-29T13:21:56.000Z</time>
      </trkpt>
      <trkpt lat="48.70334" lon="1.71945">
        <ele>183</ele>
        <time>2013-04-29T13:22:02.000Z</time>
      </trkpt>
      <trkpt lat="48.7033" lon="1.71962">
        <ele>182.80000305176</ele>
        <time>2013-04-29T13:22:08.000Z</time>
      </trkpt>
      <trkpt lat="48.70327" lon="1.71974">
        <ele>182.60000610352</ele>
        <time>2013-04-29T13:22:13.000Z</time>
      </trkpt>
      <trkpt lat="48.70324" lon="1.7199">
        <ele>182.39999389648</ele>
        <time>2013-04-29T13:22:19.000Z</time>
      </trkpt>
      <trkpt lat="48.70318" lon="1.72007">
        <ele>182.19999694824</ele>
        <time>2013-04-29T13:22:26.000Z</time>
      </trkpt>
      <trkpt lat="48.70313" lon="1.72029">
        <ele>182.39999389648</ele>
        <time>2013-04-29T13:22:34.000Z</time>
      </trkpt>
      <trkpt lat="48.70308" lon="1.7205">
        <ele>182.80000305176</ele>
        <time>2013-04-29T13:22:41.000Z</time>
      </trkpt>
      <trkpt lat="48.70307" lon="1.72061">
        <ele>183</ele>
        <time>2013-04-29T13:22:45.000Z</time>
      </trkpt>
      <trkpt lat="48.70307" lon="1.72063">
        <ele>183</ele>
        <time>2013-04-29T13:22:48.000Z</time>
      </trkpt>
      <trkpt lat="48.70305" lon="1.72071">
        <ele>183.19999694824</ele>
        <time>2013-04-29T13:22:54.000Z</time>
      </trkpt>
      <trkpt lat="48.70303" lon="1.72081">
        <ele>183.39999389648</ele>
        <time>2013-04-29T13:22:58.000Z</time>
      </trkpt>
      <trkpt lat="48.703" lon="1.72097">
        <ele>183.60000610352</ele>
        <time>2013-04-29T13:23:04.000Z</time>
      </trkpt>
      <trkpt lat="48.70298" lon="1.72115">
        <ele>183.80000305176</ele>
        <time>2013-04-29T13:23:10.000Z</time>
      </trkpt>
      <trkpt lat="48.70298" lon="1.72118">
        <ele>184</ele>
        <time>2013-04-29T13:23:11.000Z</time>
      </trkpt>
      <trkpt lat="48.70296" lon="1.72128">
        <ele>184.19999694824</ele>
        <time>2013-04-29T13:23:16.000Z</time>
      </trkpt>
      <trkpt lat="48.70294" lon="1.72135">
        <ele>184.19999694824</ele>
        <time>2013-04-29T13:23:19.000Z</time>
      </trkpt>
      <trkpt lat="48.70289" lon="1.72156">
        <ele>184.60000610352</ele>
        <time>2013-04-29T13:23:27.000Z</time>
      </trkpt>
      <trkpt lat="48.70285" lon="1.72177">
        <ele>184.80000305176</ele>
        <time>2013-04-29T13:23:34.000Z</time>
      </trkpt>
      <trkpt lat="48.70283" lon="1.72184">
        <ele>184.80000305176</ele>
        <time>2013-04-29T13:23:37.000Z</time>
      </trkpt>
      <trkpt lat="48.7028" lon="1.72195">
        <ele>184.80000305176</ele>
        <time>2013-04-29T13:23:42.000Z</time>
      </trkpt>
      <trkpt lat="48.70276" lon="1.72213">
        <ele>184.80000305176</ele>
        <time>2013-04-29T13:23:49.000Z</time>
      </trkpt>
      <trkpt lat="48.7027" lon="1.72234">
        <ele>185</ele>
        <time>2013-04-29T13:23:58.000Z</time>
      </trkpt>
      <trkpt lat="48.70267" lon="1.72254">
        <ele>185</ele>
        <time>2013-04-29T13:24:06.000Z</time>
      </trkpt>
      <trkpt lat="48.70268" lon="1.72256">
        <ele>185</ele>
        <time>2013-04-29T13:24:07.000Z</time>
      </trkpt>
      <trkpt lat="48.70265" lon="1.7227">
        <ele>185</ele>
        <time>2013-04-29T13:24:13.000Z</time>
      </trkpt>
      <trkpt lat="48.70263" lon="1.72289">
        <ele>185</ele>
        <time>2013-04-29T13:24:21.000Z</time>
      </trkpt>
      <trkpt lat="48.70259" lon="1.72303">
        <ele>184.80000305176</ele>
        <time>2013-04-29T13:24:27.000Z</time>
      </trkpt>
      <trkpt lat="48.70255" lon="1.72321">
        <ele>184.80000305176</ele>
        <time>2013-04-29T13:24:34.000Z</time>
      </trkpt>
      <trkpt lat="48.70251" lon="1.72332">
        <ele>184.80000305176</ele>
        <time>2013-04-29T13:24:40.000Z</time>
      </trkpt>
      <trkpt lat="48.70248" lon="1.72346">
        <ele>184.39999389648</ele>
        <time>2013-04-29T13:24:45.000Z</time>
      </trkpt>
      <trkpt lat="48.70248" lon="1.72351">
        <ele>184.19999694824</ele>
        <time>2013-04-29T13:24:47.000Z</time>
      </trkpt>
      <trkpt lat="48.70246" lon="1.7236">
        <ele>184</ele>
        <time>2013-04-29T13:24:51.000Z</time>
      </trkpt>
      <trkpt lat="48.70247" lon="1.72371">
        <ele>183.60000610352</ele>
        <time>2013-04-29T13:24:57.000Z</time>
      </trkpt>
      <trkpt lat="48.70246" lon="1.72373">
        <ele>183.39999389648</ele>
        <time>2013-04-29T13:24:58.000Z</time>
      </trkpt>
      <trkpt lat="48.70242" lon="1.72392">
        <ele>183</ele>
        <time>2013-04-29T13:25:06.000Z</time>
      </trkpt>
      <trkpt lat="48.70238" lon="1.72408">
        <ele>182.60000610352</ele>
        <time>2013-04-29T13:25:12.000Z</time>
      </trkpt>
      <trkpt lat="48.70235" lon="1.72425">
        <ele>182.39999389648</ele>
        <time>2013-04-29T13:25:18.000Z</time>
      </trkpt>
      <trkpt lat="48.70233" lon="1.72437">
        <ele>182.19999694824</ele>
        <time>2013-04-29T13:25:24.000Z</time>
      </trkpt>
      <trkpt lat="48.70228" lon="1.72452">
        <ele>182.19999694824</ele>
        <time>2013-04-29T13:25:31.000Z</time>
      </trkpt>
      <trkpt lat="48.70222" lon="1.7247">
        <ele>182.19999694824</ele>
        <time>2013-04-29T13:25:38.000Z</time>
      </trkpt>
      <trkpt lat="48.70221" lon="1.72484">
        <ele>182</ele>
        <time>2013-04-29T13:25:44.000Z</time>
      </trkpt>
      <trkpt lat="48.70218" lon="1.72497">
        <ele>181.80000305176</ele>
        <time>2013-04-29T13:25:50.000Z</time>
      </trkpt>
      <trkpt lat="48.70215" lon="1.72511">
        <ele>181.80000305176</ele>
        <time>2013-04-29T13:25:56.000Z</time>
      </trkpt>
      <trkpt lat="48.70213" lon="1.72529">
        <ele>181.39999389648</ele>
        <time>2013-04-29T13:26:03.000Z</time>
      </trkpt>
      <trkpt lat="48.7021" lon="1.72541">
        <ele>181.19999694824</ele>
        <time>2013-04-29T13:26:08.000Z</time>
      </trkpt>
      <trkpt lat="48.70209" lon="1.72553">
        <ele>181.19999694824</ele>
        <time>2013-04-29T13:26:14.000Z</time>
      </trkpt>
      <trkpt lat="48.70205" lon="1.72571">
        <ele>181</ele>
        <time>2013-04-29T13:26:21.000Z</time>
      </trkpt>
      <trkpt lat="48.702" lon="1.72591">
        <ele>180.80000305176</ele>
        <time>2013-04-29T13:26:29.000Z</time>
      </trkpt>
      <trkpt lat="48.70197" lon="1.72604">
        <ele>180.60000610352</ele>
        <time>2013-04-29T13:26:35.000Z</time>
      </trkpt>
      <trkpt lat="48.70195" lon="1.72615">
        <ele>180.39999389648</ele>
        <time>2013-04-29T13:26:40.000Z</time>
      </trkpt>
      <trkpt lat="48.7019" lon="1.72635">
        <ele>180</ele>
        <time>2013-04-29T13:26:49.000Z</time>
      </trkpt>
      <trkpt lat="48.70185" lon="1.72654">
        <ele>179.60000610352</ele>
        <time>2013-04-29T13:26:57.000Z</time>
      </trkpt>
      <trkpt lat="48.7018" lon="1.72672">
        <ele>179</ele>
        <time>2013-04-29T13:27:04.000Z</time>
      </trkpt>
      <trkpt lat="48.70177" lon="1.72683">
        <ele>178.80000305176</ele>
        <time>2013-04-29T13:27:09.000Z</time>
      </trkpt>
      <trkpt lat="48.70175" lon="1.72694">
        <ele>178.39999389648</ele>
        <time>2013-04-29T13:27:15.000Z</time>
      </trkpt>
      <trkpt lat="48.7017" lon="1.7271">
        <ele>177.80000305176</ele>
        <time>2013-04-29T13:27:22.000Z</time>
      </trkpt>
      <trkpt lat="48.70163" lon="1.72725">
        <ele>177.19999694824</ele>
        <time>2013-04-29T13:27:29.000Z</time>
      </trkpt>
      <trkpt lat="48.70158" lon="1.72739">
        <ele>176.80000305176</ele>
        <time>2013-04-29T13:27:36.000Z</time>
      </trkpt>
      <trkpt lat="48.70155" lon="1.72751">
        <ele>176.60000610352</ele>
        <time>2013-04-29T13:27:41.000Z</time>
      </trkpt>
      <trkpt lat="48.70152" lon="1.72765">
        <ele>176.39999389648</ele>
        <time>2013-04-29T13:27:47.000Z</time>
      </trkpt>
      <trkpt lat="48.70147" lon="1.72776">
        <ele>176.60000610352</ele>
        <time>2013-04-29T13:27:52.000Z</time>
      </trkpt>
      <trkpt lat="48.70141" lon="1.72792">
        <ele>176.80000305176</ele>
        <time>2013-04-29T13:27:59.000Z</time>
      </trkpt>
      <trkpt lat="48.70137" lon="1.72809">
        <ele>176.80000305176</ele>
        <time>2013-04-29T13:28:05.000Z</time>
      </trkpt>
      <trkpt lat="48.70131" lon="1.72829">
        <ele>177</ele>
        <time>2013-04-29T13:28:14.000Z</time>
      </trkpt>
      <trkpt lat="48.70124" lon="1.72839">
        <ele>177.39999389648</ele>
        <time>2013-04-29T13:28:20.000Z</time>
      </trkpt>
      <trkpt lat="48.70119" lon="1.72853">
        <ele>177.60000610352</ele>
        <time>2013-04-29T13:28:26.000Z</time>
      </trkpt>
      <trkpt lat="48.70113" lon="1.72874">
        <ele>177.60000610352</ele>
        <time>2013-04-29T13:28:34.000Z</time>
      </trkpt>
      <trkpt lat="48.70107" lon="1.72897">
        <ele>177.60000610352</ele>
        <time>2013-04-29T13:28:42.000Z</time>
      </trkpt>
      <trkpt lat="48.70101" lon="1.72914">
        <ele>177.60000610352</ele>
        <time>2013-04-29T13:28:49.000Z</time>
      </trkpt>
      <trkpt lat="48.70096" lon="1.72931">
        <ele>178.19999694824</ele>
        <time>2013-04-29T13:28:56.000Z</time>
      </trkpt>
      <trkpt lat="48.7009" lon="1.72945">
        <ele>178.80000305176</ele>
        <time>2013-04-29T13:29:03.000Z</time>
      </trkpt>
      <trkpt lat="48.70082" lon="1.72969">
        <ele>179.60000610352</ele>
        <time>2013-04-29T13:29:14.000Z</time>
      </trkpt>
      <trkpt lat="48.70076" lon="1.72984">
        <ele>180.39999389648</ele>
        <time>2013-04-29T13:29:22.000Z</time>
      </trkpt>
      <trkpt lat="48.70069" lon="1.7301">
        <ele>181.39999389648</ele>
        <time>2013-04-29T13:29:33.000Z</time>
      </trkpt>
      <trkpt lat="48.70064" lon="1.73026">
        <ele>182</ele>
        <time>2013-04-29T13:29:40.000Z</time>
      </trkpt>
      <trkpt lat="48.70059" lon="1.73038">
        <ele>182.60000610352</ele>
        <time>2013-04-29T13:29:46.000Z</time>
      </trkpt>
      <trkpt lat="48.70057" lon="1.73042">
        <ele>182.80000305176</ele>
        <time>2013-04-29T13:29:48.000Z</time>
      </trkpt>
      <trkpt lat="48.70052" lon="1.73058">
        <ele>183.19999694824</ele>
        <time>2013-04-29T13:29:56.000Z</time>
      </trkpt>
      <trkpt lat="48.70048" lon="1.73072">
        <ele>183.60000610352</ele>
        <time>2013-04-29T13:30:01.000Z</time>
      </trkpt>
      <trkpt lat="48.70043" lon="1.73088">
        <ele>183.60000610352</ele>
        <time>2013-04-29T13:30:07.000Z</time>
      </trkpt>
      <trkpt lat="48.70038" lon="1.73108">
        <ele>183.39999389648</ele>
        <time>2013-04-29T13:30:15.000Z</time>
      </trkpt>
      <trkpt lat="48.70037" lon="1.73112">
        <ele>183.19999694824</ele>
        <time>2013-04-29T13:30:17.000Z</time>
      </trkpt>
      <trkpt lat="48.7003" lon="1.73133">
        <ele>182.80000305176</ele>
        <time>2013-04-29T13:30:25.000Z</time>
      </trkpt>
      <trkpt lat="48.70025" lon="1.73145">
        <ele>182.39999389648</ele>
        <time>2013-04-29T13:30:32.000Z</time>
      </trkpt>
      <trkpt lat="48.70019" lon="1.73159">
        <ele>182</ele>
        <time>2013-04-29T13:30:39.000Z</time>
      </trkpt>
      <trkpt lat="48.70014" lon="1.73169">
        <ele>181.60000610352</ele>
        <time>2013-04-29T13:30:44.000Z</time>
      </trkpt>
      <trkpt lat="48.70013" lon="1.73174">
        <ele>181.39999389648</ele>
        <time>2013-04-29T13:30:46.000Z</time>
      </trkpt>
      <trkpt lat="48.70006" lon="1.73187">
        <ele>181</ele>
        <time>2013-04-29T13:30:52.000Z</time>
      </trkpt>
      <trkpt lat="48.69999" lon="1.73201">
        <ele>180.19999694824</ele>
        <time>2013-04-29T13:30:59.000Z</time>
      </trkpt>
      <trkpt lat="48.69989" lon="1.73219">
        <ele>179</ele>
        <time>2013-04-29T13:31:09.000Z</time>
      </trkpt>
      <trkpt lat="48.69983" lon="1.73235">
        <ele>178</ele>
        <time>2013-04-29T13:31:16.000Z</time>
      </trkpt>
      <trkpt lat="48.69977" lon="1.73246">
        <ele>177.19999694824</ele>
        <time>2013-04-29T13:31:23.000Z</time>
      </trkpt>
      <trkpt lat="48.69976" lon="1.73255">
        <ele>177.19999694824</ele>
        <time>2013-04-29T13:31:30.000Z</time>
      </trkpt>
      <trkpt lat="48.69976" lon="1.73257">
        <ele>177.19999694824</ele>
        <time>2013-04-29T13:31:33.000Z</time>
      </trkpt>
      <trkpt lat="48.6997" lon="1.73268">
        <ele>177.19999694824</ele>
        <time>2013-04-29T13:31:43.000Z</time>
      </trkpt>
      <trkpt lat="48.69967" lon="1.73275">
        <ele>177.19999694824</ele>
        <time>2013-04-29T13:31:46.000Z</time>
      </trkpt>
      <trkpt lat="48.69959" lon="1.73288">
        <ele>177.19999694824</ele>
        <time>2013-04-29T13:31:53.000Z</time>
      </trkpt>
      <trkpt lat="48.69952" lon="1.73308">
        <ele>177.19999694824</ele>
        <time>2013-04-29T13:32:02.000Z</time>
      </trkpt>
      <trkpt lat="48.69945" lon="1.7332">
        <ele>177.39999389648</ele>
        <time>2013-04-29T13:32:09.000Z</time>
      </trkpt>
      <trkpt lat="48.69939" lon="1.7333">
        <ele>177.39999389648</ele>
        <time>2013-04-29T13:32:15.000Z</time>
      </trkpt>
      <trkpt lat="48.69929" lon="1.73342">
        <ele>177.39999389648</ele>
        <time>2013-04-29T13:32:24.000Z</time>
      </trkpt>
      <trkpt lat="48.6992" lon="1.73357">
        <ele>177.60000610352</ele>
        <time>2013-04-29T13:32:33.000Z</time>
      </trkpt>
      <trkpt lat="48.69914" lon="1.73368">
        <ele>177.80000305176</ele>
        <time>2013-04-29T13:32:39.000Z</time>
      </trkpt>
      <trkpt lat="48.69909" lon="1.73382">
        <ele>178.19999694824</ele>
        <time>2013-04-29T13:32:46.000Z</time>
      </trkpt>
      <trkpt lat="48.69902" lon="1.73395">
        <ele>178.39999389648</ele>
        <time>2013-04-29T13:32:53.000Z</time>
      </trkpt>
      <trkpt lat="48.69895" lon="1.73413">
        <ele>178.80000305176</ele>
        <time>2013-04-29T13:33:02.000Z</time>
      </trkpt>
      <trkpt lat="48.69889" lon="1.73427">
        <ele>178.60000610352</ele>
        <time>2013-04-29T13:33:09.000Z</time>
      </trkpt>
      <trkpt lat="48.69883" lon="1.73439">
        <ele>178.39999389648</ele>
        <time>2013-04-29T13:33:15.000Z</time>
      </trkpt>
      <trkpt lat="48.69876" lon="1.73456">
        <ele>178.19999694824</ele>
        <time>2013-04-29T13:33:24.000Z</time>
      </trkpt>
      <trkpt lat="48.69878" lon="1.73474">
        <ele>177.80000305176</ele>
        <time>2013-04-29T13:33:31.000Z</time>
      </trkpt>
      <trkpt lat="48.69882" lon="1.73491">
        <ele>177.39999389648</ele>
        <time>2013-04-29T13:33:38.000Z</time>
      </trkpt>
      <trkpt lat="48.69889" lon="1.73505">
        <ele>176.80000305176</ele>
        <time>2013-04-29T13:33:45.000Z</time>
      </trkpt>
      <trkpt lat="48.69897" lon="1.73515">
        <ele>176.60000610352</ele>
        <time>2013-04-29T13:33:52.000Z</time>
      </trkpt>
      <trkpt lat="48.69906" lon="1.73522">
        <ele>176.19999694824</ele>
        <time>2013-04-29T13:33:58.000Z</time>
      </trkpt>
      <trkpt lat="48.69917" lon="1.73531">
        <ele>175.80000305176</ele>
        <time>2013-04-29T13:34:05.000Z</time>
      </trkpt>
      <trkpt lat="48.69928" lon="1.73544">
        <ele>176</ele>
        <time>2013-04-29T13:34:14.000Z</time>
      </trkpt>
      <trkpt lat="48.69938" lon="1.73556">
        <ele>176</ele>
        <time>2013-04-29T13:34:22.000Z</time>
      </trkpt>
      <trkpt lat="48.69943" lon="1.73565">
        <ele>176</ele>
        <time>2013-04-29T13:34:27.000Z</time>
      </trkpt>
      <trkpt lat="48.69954" lon="1.73583">
        <ele>176.39999389648</ele>
        <time>2013-04-29T13:34:36.000Z</time>
      </trkpt>
      <trkpt lat="48.69967" lon="1.73602">
        <ele>176.80000305176</ele>
        <time>2013-04-29T13:34:47.000Z</time>
      </trkpt>
      <trkpt lat="48.69974" lon="1.73612">
        <ele>177.19999694824</ele>
        <time>2013-04-29T13:34:53.000Z</time>
      </trkpt>
      <trkpt lat="48.69983" lon="1.73624">
        <ele>177.60000610352</ele>
        <time>2013-04-29T13:35:00.000Z</time>
      </trkpt>
      <trkpt lat="48.69994" lon="1.73641">
        <ele>178.19999694824</ele>
        <time>2013-04-29T13:35:08.000Z</time>
      </trkpt>
      <trkpt lat="48.70003" lon="1.73659">
        <ele>178.60000610352</ele>
        <time>2013-04-29T13:35:15.000Z</time>
      </trkpt>
      <trkpt lat="48.70016" lon="1.73679">
        <ele>178.39999389648</ele>
        <time>2013-04-29T13:35:23.000Z</time>
      </trkpt>
      <trkpt lat="48.70025" lon="1.73693">
        <ele>178</ele>
        <time>2013-04-29T13:35:29.000Z</time>
      </trkpt>
      <trkpt lat="48.70037" lon="1.73703">
        <ele>177.80000305176</ele>
        <time>2013-04-29T13:35:36.000Z</time>
      </trkpt>
      <trkpt lat="48.70051" lon="1.73704">
        <ele>177.39999389648</ele>
        <time>2013-04-29T13:35:43.000Z</time>
      </trkpt>
      <trkpt lat="48.70059" lon="1.73705">
        <ele>177.39999389648</ele>
        <time>2013-04-29T13:35:48.000Z</time>
      </trkpt>
      <trkpt lat="48.70067" lon="1.73705">
        <ele>177.19999694824</ele>
        <time>2013-04-29T13:35:53.000Z</time>
      </trkpt>
      <trkpt lat="48.70078" lon="1.73707">
        <ele>177</ele>
        <time>2013-04-29T13:35:59.000Z</time>
      </trkpt>
      <trkpt lat="48.70088" lon="1.73709">
        <ele>177</ele>
        <time>2013-04-29T13:36:06.000Z</time>
      </trkpt>
      <trkpt lat="48.70097" lon="1.73709">
        <ele>177.19999694824</ele>
        <time>2013-04-29T13:36:11.000Z</time>
      </trkpt>
      <trkpt lat="48.70111" lon="1.73712">
        <ele>177.39999389648</ele>
        <time>2013-04-29T13:36:17.000Z</time>
      </trkpt>
      <trkpt lat="48.70121" lon="1.73712">
        <ele>177.60000610352</ele>
        <time>2013-04-29T13:36:22.000Z</time>
      </trkpt>
      <trkpt lat="48.70126" lon="1.73713">
        <ele>177.60000610352</ele>
        <time>2013-04-29T13:36:26.000Z</time>
      </trkpt>
      <trkpt lat="48.70133" lon="1.73713">
        <ele>177.80000305176</ele>
        <time>2013-04-29T13:36:32.000Z</time>
      </trkpt>
      <trkpt lat="48.7014" lon="1.73715">
        <ele>177.80000305176</ele>
        <time>2013-04-29T13:36:38.000Z</time>
      </trkpt>
      <trkpt lat="48.70156" lon="1.73715">
        <ele>178.19999694824</ele>
        <time>2013-04-29T13:36:47.000Z</time>
      </trkpt>
      <trkpt lat="48.70166" lon="1.73717">
        <ele>178.19999694824</ele>
        <time>2013-04-29T13:36:51.000Z</time>
      </trkpt>
      <trkpt lat="48.70167" lon="1.73718">
        <ele>178.19999694824</ele>
        <time>2013-04-29T13:36:54.000Z</time>
      </trkpt>
      <trkpt lat="48.70175" lon="1.73719">
        <ele>178.39999389648</ele>
        <time>2013-04-29T13:37:01.000Z</time>
      </trkpt>
      <trkpt lat="48.7018" lon="1.7372">
        <ele>178.39999389648</ele>
        <time>2013-04-29T13:37:06.000Z</time>
      </trkpt>
      <trkpt lat="48.70186" lon="1.73721">
        <ele>178.39999389648</ele>
        <time>2013-04-29T13:37:10.000Z</time>
      </trkpt>
      <trkpt lat="48.70201" lon="1.73721">
        <ele>178.39999389648</ele>
        <time>2013-04-29T13:37:18.000Z</time>
      </trkpt>
      <trkpt lat="48.70211" lon="1.73723">
        <ele>178.39999389648</ele>
        <time>2013-04-29T13:37:24.000Z</time>
      </trkpt>
      <trkpt lat="48.70221" lon="1.73724">
        <ele>178.39999389648</ele>
        <time>2013-04-29T13:37:31.000Z</time>
      </trkpt>
      <trkpt lat="48.70233" lon="1.73726">
        <ele>178.39999389648</ele>
        <time>2013-04-29T13:37:41.000Z</time>
      </trkpt>
      <trkpt lat="48.70245" lon="1.73727">
        <ele>178.39999389648</ele>
        <time>2013-04-29T13:37:49.000Z</time>
      </trkpt>
      <trkpt lat="48.70254" lon="1.73729">
        <ele>178.39999389648</ele>
        <time>2013-04-29T13:37:55.000Z</time>
      </trkpt>
      <trkpt lat="48.70267" lon="1.7373">
        <ele>178.39999389648</ele>
        <time>2013-04-29T13:38:02.000Z</time>
      </trkpt>
      <trkpt lat="48.70279" lon="1.73731">
        <ele>178.60000610352</ele>
        <time>2013-04-29T13:38:08.000Z</time>
      </trkpt>
      <trkpt lat="48.7029" lon="1.73732">
        <ele>178.60000610352</ele>
        <time>2013-04-29T13:38:14.000Z</time>
      </trkpt>
      <trkpt lat="48.70302" lon="1.73731">
        <ele>178.60000610352</ele>
        <time>2013-04-29T13:38:20.000Z</time>
      </trkpt>
      <trkpt lat="48.70316" lon="1.73732">
        <ele>178.80000305176</ele>
        <time>2013-04-29T13:38:25.000Z</time>
      </trkpt>
      <trkpt lat="48.70332" lon="1.73734">
        <ele>178.80000305176</ele>
        <time>2013-04-29T13:38:32.000Z</time>
      </trkpt>
      <trkpt lat="48.70345" lon="1.73735">
        <ele>179</ele>
        <time>2013-04-29T13:38:38.000Z</time>
      </trkpt>
      <trkpt lat="48.70358" lon="1.73737">
        <ele>179.19999694824</ele>
        <time>2013-04-29T13:38:45.000Z</time>
      </trkpt>
      <trkpt lat="48.70371" lon="1.73738">
        <ele>179.39999389648</ele>
        <time>2013-04-29T13:38:52.000Z</time>
      </trkpt>
      <trkpt lat="48.70379" lon="1.73738">
        <ele>179.39999389648</ele>
        <time>2013-04-29T13:38:59.000Z</time>
      </trkpt>
      <trkpt lat="48.70387" lon="1.7374">
        <ele>179.60000610352</ele>
        <time>2013-04-29T13:39:04.000Z</time>
      </trkpt>
      <trkpt lat="48.70397" lon="1.73741">
        <ele>179.60000610352</ele>
        <time>2013-04-29T13:39:10.000Z</time>
      </trkpt>
      <trkpt lat="48.70411" lon="1.73742">
        <ele>179.80000305176</ele>
        <time>2013-04-29T13:39:17.000Z</time>
      </trkpt>
      <trkpt lat="48.70421" lon="1.73745">
        <ele>180</ele>
        <time>2013-04-29T13:39:24.000Z</time>
      </trkpt>
      <trkpt lat="48.70432" lon="1.73747">
        <ele>180</ele>
        <time>2013-04-29T13:39:31.000Z</time>
      </trkpt>
      <trkpt lat="48.70445" lon="1.73748">
        <ele>180</ele>
        <time>2013-04-29T13:39:39.000Z</time>
      </trkpt>
      <trkpt lat="48.70461" lon="1.7375">
        <ele>180</ele>
        <time>2013-04-29T13:39:48.000Z</time>
      </trkpt>
      <trkpt lat="48.70471" lon="1.73751">
        <ele>179.80000305176</ele>
        <time>2013-04-29T13:39:55.000Z</time>
      </trkpt>
      <trkpt lat="48.70488" lon="1.73753">
        <ele>179.80000305176</ele>
        <time>2013-04-29T13:40:04.000Z</time>
      </trkpt>
      <trkpt lat="48.70501" lon="1.73755">
        <ele>179.80000305176</ele>
        <time>2013-04-29T13:40:12.000Z</time>
      </trkpt>
      <trkpt lat="48.7051" lon="1.73757">
        <ele>179.19999694824</ele>
        <time>2013-04-29T13:40:18.000Z</time>
      </trkpt>
      <trkpt lat="48.70516" lon="1.73757">
        <ele>178.80000305176</ele>
        <time>2013-04-29T13:40:23.000Z</time>
      </trkpt>
      <trkpt lat="48.70529" lon="1.73758">
        <ele>178.19999694824</ele>
        <time>2013-04-29T13:40:30.000Z</time>
      </trkpt>
      <trkpt lat="48.70531" lon="1.73758">
        <ele>178</ele>
        <time>2013-04-29T13:40:33.000Z</time>
      </trkpt>
      <trkpt lat="48.70538" lon="1.73758">
        <ele>177.80000305176</ele>
        <time>2013-04-29T13:40:47.000Z</time>
      </trkpt>
      <trkpt lat="48.70548" lon="1.73759">
        <ele>177.19999694824</ele>
        <time>2013-04-29T13:40:51.000Z</time>
      </trkpt>
      <trkpt lat="48.70552" lon="1.73759">
        <ele>177</ele>
        <time>2013-04-29T13:40:55.000Z</time>
      </trkpt>
      <trkpt lat="48.70557" lon="1.73758">
        <ele>176.80000305176</ele>
        <time>2013-04-29T13:40:59.000Z</time>
      </trkpt>
      <trkpt lat="48.70571" lon="1.73761">
        <ele>175.80000305176</ele>
        <time>2013-04-29T13:41:10.000Z</time>
      </trkpt>
      <trkpt lat="48.70571" lon="1.73761">
        <ele>175.80000305176</ele>
        <time>2013-04-29T13:41:11.000Z</time>
      </trkpt>
      <trkpt lat="48.70578" lon="1.73761">
        <ele>175.39999389648</ele>
        <time>2013-04-29T13:41:23.000Z</time>
      </trkpt>
      <trkpt lat="48.70579" lon="1.73761">
        <ele>175.39999389648</ele>
        <time>2013-04-29T13:41:24.000Z</time>
      </trkpt>
      <trkpt lat="48.70592" lon="1.73761">
        <ele>175.39999389648</ele>
        <time>2013-04-29T13:41:29.000Z</time>
      </trkpt>
      <trkpt lat="48.70608" lon="1.73762">
        <ele>176</ele>
        <time>2013-04-29T13:41:34.000Z</time>
      </trkpt>
      <trkpt lat="48.70628" lon="1.73766">
        <ele>176.39999389648</ele>
        <time>2013-04-29T13:41:39.000Z</time>
      </trkpt>
      <trkpt lat="48.7065" lon="1.73767">
        <ele>177.19999694824</ele>
        <time>2013-04-29T13:41:44.000Z</time>
      </trkpt>
      <trkpt lat="48.70669" lon="1.7377">
        <ele>177.80000305176</ele>
        <time>2013-04-29T13:41:48.000Z</time>
      </trkpt>
      <trkpt lat="48.70695" lon="1.73771">
        <ele>179</ele>
        <time>2013-04-29T13:41:53.000Z</time>
      </trkpt>
      <trkpt lat="48.70733" lon="1.73774">
        <ele>180.60000610352</ele>
        <time>2013-04-29T13:42:00.000Z</time>
      </trkpt>
      <trkpt lat="48.70748" lon="1.73776">
        <ele>181.19999694824</ele>
        <time>2013-04-29T13:42:03.000Z</time>
      </trkpt>
      <trkpt lat="48.70776" lon="1.73779">
        <ele>180.19999694824</ele>
        <time>2013-04-29T13:42:09.000Z</time>
      </trkpt>
      <trkpt lat="48.70813" lon="1.73784">
        <ele>178.60000610352</ele>
        <time>2013-04-29T13:42:17.000Z</time>
      </trkpt>
      <trkpt lat="48.70818" lon="1.73785">
        <ele>178.39999389648</ele>
        <time>2013-04-29T13:42:18.000Z</time>
      </trkpt>
      <trkpt lat="48.70836" lon="1.73787">
        <ele>178</ele>
        <time>2013-04-29T13:42:22.000Z</time>
      </trkpt>
      <trkpt lat="48.70869" lon="1.73789">
        <ele>178</ele>
        <time>2013-04-29T13:42:29.000Z</time>
      </trkpt>
      <trkpt lat="48.70884" lon="1.73791">
        <ele>178.19999694824</ele>
        <time>2013-04-29T13:42:33.000Z</time>
      </trkpt>
      <trkpt lat="48.70915" lon="1.73793">
        <ele>178.39999389648</ele>
        <time>2013-04-29T13:42:40.000Z</time>
      </trkpt>
      <trkpt lat="48.70921" lon="1.73793">
        <ele>178.60000610352</ele>
        <time>2013-04-29T13:42:41.000Z</time>
      </trkpt>
      <trkpt lat="48.70942" lon="1.73797">
        <ele>179.60000610352</ele>
        <time>2013-04-29T13:42:47.000Z</time>
      </trkpt>
      <trkpt lat="48.70963" lon="1.73797">
        <ele>180.39999389648</ele>
        <time>2013-04-29T13:42:53.000Z</time>
      </trkpt>
      <trkpt lat="48.70983" lon="1.73799">
        <ele>181.39999389648</ele>
        <time>2013-04-29T13:42:59.000Z</time>
      </trkpt>
      <trkpt lat="48.71007" lon="1.73802">
        <ele>182.19999694824</ele>
        <time>2013-04-29T13:43:05.000Z</time>
      </trkpt>
      <trkpt lat="48.71011" lon="1.73805">
        <ele>182.19999694824</ele>
        <time>2013-04-29T13:43:07.000Z</time>
      </trkpt>
      <trkpt lat="48.71003" lon="1.73832">
        <ele>182.80000305176</ele>
        <time>2013-04-29T13:43:12.000Z</time>
      </trkpt>
      <trkpt lat="48.70996" lon="1.73857">
        <ele>183.39999389648</ele>
        <time>2013-04-29T13:43:17.000Z</time>
      </trkpt>
      <trkpt lat="48.7099" lon="1.73879">
        <ele>183.60000610352</ele>
        <time>2013-04-29T13:43:23.000Z</time>
      </trkpt>
      <trkpt lat="48.70989" lon="1.73888">
        <ele>183.80000305176</ele>
        <time>2013-04-29T13:43:29.000Z</time>
      </trkpt>
      <trkpt lat="48.70985" lon="1.73899">
        <ele>184</ele>
        <time>2013-04-29T13:43:36.000Z</time>
      </trkpt>
      <trkpt lat="48.70983" lon="1.73908">
        <ele>184.19999694824</ele>
        <time>2013-04-29T13:43:41.000Z</time>
      </trkpt>
      <trkpt lat="48.7098" lon="1.7391">
        <ele>184.19999694824</ele>
        <time>2013-04-29T13:43:43.000Z</time>
      </trkpt>
      <trkpt lat="48.70978" lon="1.73921">
        <ele>184.19999694824</ele>
        <time>2013-04-29T13:43:47.000Z</time>
      </trkpt>
      <trkpt lat="48.70975" lon="1.73934">
        <ele>183.80000305176</ele>
        <time>2013-04-29T13:43:53.000Z</time>
      </trkpt>
      <trkpt lat="48.70972" lon="1.73943">
        <ele>183.60000610352</ele>
        <time>2013-04-29T13:43:58.000Z</time>
      </trkpt>
      <trkpt lat="48.7097" lon="1.73957">
        <ele>183.19999694824</ele>
        <time>2013-04-29T13:44:06.000Z</time>
      </trkpt>
      <trkpt lat="48.70968" lon="1.7397">
        <ele>183</ele>
        <time>2013-04-29T13:44:13.000Z</time>
      </trkpt>
      <trkpt lat="48.70967" lon="1.73978">
        <ele>182.80000305176</ele>
        <time>2013-04-29T13:44:19.000Z</time>
      </trkpt>
      <trkpt lat="48.70966" lon="1.73983">
        <ele>182.60000610352</ele>
        <time>2013-04-29T13:44:22.000Z</time>
      </trkpt>
      <trkpt lat="48.70964" lon="1.7399">
        <ele>182.60000610352</ele>
        <time>2013-04-29T13:44:27.000Z</time>
      </trkpt>
      <trkpt lat="48.70962" lon="1.73998">
        <ele>182.39999389648</ele>
        <time>2013-04-29T13:44:31.000Z</time>
      </trkpt>
      <trkpt lat="48.70959" lon="1.74014">
        <ele>182.39999389648</ele>
        <time>2013-04-29T13:44:39.000Z</time>
      </trkpt>
      <trkpt lat="48.70955" lon="1.74027">
        <ele>182.39999389648</ele>
        <time>2013-04-29T13:44:46.000Z</time>
      </trkpt>
      <trkpt lat="48.70952" lon="1.74043">
        <ele>182.39999389648</ele>
        <time>2013-04-29T13:44:52.000Z</time>
      </trkpt>
      <trkpt lat="48.7095" lon="1.74046">
        <ele>182.39999389648</ele>
        <time>2013-04-29T13:44:54.000Z</time>
      </trkpt>
      <trkpt lat="48.70947" lon="1.74061">
        <ele>182.60000610352</ele>
        <time>2013-04-29T13:45:02.000Z</time>
      </trkpt>
      <trkpt lat="48.70945" lon="1.74069">
        <ele>182.60000610352</ele>
        <time>2013-04-29T13:45:06.000Z</time>
      </trkpt>
      <trkpt lat="48.70944" lon="1.74078">
        <ele>182.60000610352</ele>
        <time>2013-04-29T13:45:13.000Z</time>
      </trkpt>
      <trkpt lat="48.70944" lon="1.74079">
        <ele>182.60000610352</ele>
        <time>2013-04-29T13:45:15.000Z</time>
      </trkpt>
      <trkpt lat="48.70942" lon="1.74084">
        <ele>182.60000610352</ele>
        <time>2013-04-29T13:45:20.000Z</time>
      </trkpt>
      <trkpt lat="48.7094" lon="1.74095">
        <ele>182.60000610352</ele>
        <time>2013-04-29T13:45:25.000Z</time>
      </trkpt>
      <trkpt lat="48.7094" lon="1.74096">
        <ele>182.60000610352</ele>
        <time>2013-04-29T13:45:26.000Z</time>
      </trkpt>
      <trkpt lat="48.70938" lon="1.74097">
        <ele>182.60000610352</ele>
        <time>2013-04-29T13:45:32.000Z</time>
      </trkpt>
      <trkpt lat="48.70933" lon="1.74101">
        <ele>182.60000610352</ele>
        <time>2013-04-29T13:45:36.000Z</time>
      </trkpt>
      <trkpt lat="48.70929" lon="1.74117">
        <ele>182.60000610352</ele>
        <time>2013-04-29T13:45:43.000Z</time>
      </trkpt>
      <trkpt lat="48.70927" lon="1.74126">
        <ele>182.60000610352</ele>
        <time>2013-04-29T13:45:48.000Z</time>
      </trkpt>
      <trkpt lat="48.70926" lon="1.74136">
        <ele>182.60000610352</ele>
        <time>2013-04-29T13:45:53.000Z</time>
      </trkpt>
      <trkpt lat="48.70924" lon="1.74146">
        <ele>182.60000610352</ele>
        <time>2013-04-29T13:45:58.000Z</time>
      </trkpt>
      <trkpt lat="48.70918" lon="1.74165">
        <ele>182.80000305176</ele>
        <time>2013-04-29T13:46:07.000Z</time>
      </trkpt>
      <trkpt lat="48.70916" lon="1.74177">
        <ele>182.60000610352</ele>
        <time>2013-04-29T13:46:13.000Z</time>
      </trkpt>
      <trkpt lat="48.70915" lon="1.74181">
        <ele>182.60000610352</ele>
        <time>2013-04-29T13:46:16.000Z</time>
      </trkpt>
      <trkpt lat="48.7091" lon="1.74197">
        <ele>182.19999694824</ele>
        <time>2013-04-29T13:46:22.000Z</time>
      </trkpt>
      <trkpt lat="48.70905" lon="1.7421">
        <ele>181.80000305176</ele>
        <time>2013-04-29T13:46:28.000Z</time>
      </trkpt>
      <trkpt lat="48.70903" lon="1.74218">
        <ele>181.60000610352</ele>
        <time>2013-04-29T13:46:32.000Z</time>
      </trkpt>
      <trkpt lat="48.70902" lon="1.74232">
        <ele>181.19999694824</ele>
        <time>2013-04-29T13:46:38.000Z</time>
      </trkpt>
      <trkpt lat="48.70903" lon="1.74237">
        <ele>181</ele>
        <time>2013-04-29T13:46:40.000Z</time>
      </trkpt>
      <trkpt lat="48.70905" lon="1.74249">
        <ele>180.80000305176</ele>
        <time>2013-04-29T13:46:46.000Z</time>
      </trkpt>
      <trkpt lat="48.70904" lon="1.74252">
        <ele>180.60000610352</ele>
        <time>2013-04-29T13:46:47.000Z</time>
      </trkpt>
      <trkpt lat="48.70901" lon="1.74261">
        <ele>180.19999694824</ele>
        <time>2013-04-29T13:46:52.000Z</time>
      </trkpt>
      <trkpt lat="48.70894" lon="1.74275">
        <ele>179.39999389648</ele>
        <time>2013-04-29T13:46:59.000Z</time>
      </trkpt>
      <trkpt lat="48.70886" lon="1.74287">
        <ele>178.60000610352</ele>
        <time>2013-04-29T13:47:06.000Z</time>
      </trkpt>
      <trkpt lat="48.7088" lon="1.743">
        <ele>178</ele>
        <time>2013-04-29T13:47:13.000Z</time>
      </trkpt>
      <trkpt lat="48.70873" lon="1.74313">
        <ele>177.39999389648</ele>
        <time>2013-04-29T13:47:20.000Z</time>
      </trkpt>
      <trkpt lat="48.70868" lon="1.74323">
        <ele>177</ele>
        <time>2013-04-29T13:47:26.000Z</time>
      </trkpt>
      <trkpt lat="48.70862" lon="1.74333">
        <ele>176.60000610352</ele>
        <time>2013-04-29T13:47:32.000Z</time>
      </trkpt>
      <trkpt lat="48.70862" lon="1.74335">
        <ele>176.60000610352</ele>
        <time>2013-04-29T13:47:33.000Z</time>
      </trkpt>
      <trkpt lat="48.70859" lon="1.74339">
        <ele>176.60000610352</ele>
        <time>2013-04-29T13:47:38.000Z</time>
      </trkpt>
      <trkpt lat="48.70852" lon="1.74354">
        <ele>176.39999389648</ele>
        <time>2013-04-29T13:48:02.000Z</time>
      </trkpt>
      <trkpt lat="48.70845" lon="1.74364">
        <ele>176.39999389648</ele>
        <time>2013-04-29T13:48:08.000Z</time>
      </trkpt>
      <trkpt lat="48.70838" lon="1.74377">
        <ele>176.39999389648</ele>
        <time>2013-04-29T13:48:16.000Z</time>
      </trkpt>
      <trkpt lat="48.70825" lon="1.74393">
        <ele>176.39999389648</ele>
        <time>2013-04-29T13:48:27.000Z</time>
      </trkpt>
      <trkpt lat="48.70814" lon="1.74403">
        <ele>176.60000610352</ele>
        <time>2013-04-29T13:48:36.000Z</time>
      </trkpt>
      <trkpt lat="48.70803" lon="1.74411">
        <ele>176.80000305176</ele>
        <time>2013-04-29T13:48:44.000Z</time>
      </trkpt>
      <trkpt lat="48.70788" lon="1.74422">
        <ele>177</ele>
        <time>2013-04-29T13:48:55.000Z</time>
      </trkpt>
      <trkpt lat="48.70773" lon="1.74429">
        <ele>177.19999694824</ele>
        <time>2013-04-29T13:49:06.000Z</time>
      </trkpt>
      <trkpt lat="48.7076" lon="1.74438">
        <ele>177.39999389648</ele>
        <time>2013-04-29T13:49:16.000Z</time>
      </trkpt>
      <trkpt lat="48.70748" lon="1.74446">
        <ele>177.60000610352</ele>
        <time>2013-04-29T13:49:25.000Z</time>
      </trkpt>
      <trkpt lat="48.70747" lon="1.74446">
        <ele>177.60000610352</ele>
        <time>2013-04-29T13:49:26.000Z</time>
      </trkpt>
      <trkpt lat="48.70746" lon="1.74445">
        <ele>177.80000305176</ele>
        <time>2013-04-29T13:49:29.000Z</time>
      </trkpt>
      <trkpt lat="48.70739" lon="1.74451">
        <ele>177.80000305176</ele>
        <time>2013-04-29T13:49:45.000Z</time>
      </trkpt>
      <trkpt lat="48.70736" lon="1.74454">
        <ele>178</ele>
        <time>2013-04-29T13:49:47.000Z</time>
      </trkpt>
      <trkpt lat="48.7073" lon="1.74463">
        <ele>178</ele>
        <time>2013-04-29T13:49:53.000Z</time>
      </trkpt>
      <trkpt lat="48.70731" lon="1.74475">
        <ele>177.80000305176</ele>
        <time>2013-04-29T13:49:59.000Z</time>
      </trkpt>
      <trkpt lat="48.70737" lon="1.74483">
        <ele>177.60000610352</ele>
        <time>2013-04-29T13:50:06.000Z</time>
      </trkpt>
      <trkpt lat="48.70744" lon="1.74493">
        <ele>177.19999694824</ele>
        <time>2013-04-29T13:50:13.000Z</time>
      </trkpt>
      <trkpt lat="48.70752" lon="1.74502">
        <ele>176.80000305176</ele>
        <time>2013-04-29T13:50:20.000Z</time>
      </trkpt>
      <trkpt lat="48.7076" lon="1.74512">
        <ele>176.80000305176</ele>
        <time>2013-04-29T13:50:27.000Z</time>
      </trkpt>
      <trkpt lat="48.70771" lon="1.74523">
        <ele>176.60000610352</ele>
        <time>2013-04-29T13:50:36.000Z</time>
      </trkpt>
      <trkpt lat="48.70782" lon="1.74537">
        <ele>176.60000610352</ele>
        <time>2013-04-29T13:50:46.000Z</time>
      </trkpt>
      <trkpt lat="48.7079" lon="1.74546">
        <ele>176.39999389648</ele>
        <time>2013-04-29T13:50:52.000Z</time>
      </trkpt>
      <trkpt lat="48.70801" lon="1.74559">
        <ele>176.19999694824</ele>
        <time>2013-04-29T13:51:01.000Z</time>
      </trkpt>
      <trkpt lat="48.70809" lon="1.74572">
        <ele>176.19999694824</ele>
        <time>2013-04-29T13:51:09.000Z</time>
      </trkpt>
      <trkpt lat="48.70817" lon="1.74584">
        <ele>176</ele>
        <time>2013-04-29T13:51:17.000Z</time>
      </trkpt>
      <trkpt lat="48.70829" lon="1.74598">
        <ele>176</ele>
        <time>2013-04-29T13:51:27.000Z</time>
      </trkpt>
      <trkpt lat="48.70836" lon="1.74609">
        <ele>175.80000305176</ele>
        <time>2013-04-29T13:51:34.000Z</time>
      </trkpt>
      <trkpt lat="48.70848" lon="1.74624">
        <ele>175.80000305176</ele>
        <time>2013-04-29T13:51:43.000Z</time>
      </trkpt>
      <trkpt lat="48.70855" lon="1.74635">
        <ele>175.80000305176</ele>
        <time>2013-04-29T13:51:50.000Z</time>
      </trkpt>
      <trkpt lat="48.70867" lon="1.7465">
        <ele>175.80000305176</ele>
        <time>2013-04-29T13:52:00.000Z</time>
      </trkpt>
      <trkpt lat="48.70879" lon="1.74668">
        <ele>176</ele>
        <time>2013-04-29T13:52:11.000Z</time>
      </trkpt>
      <trkpt lat="48.70887" lon="1.74676">
        <ele>176.19999694824</ele>
        <time>2013-04-29T13:52:17.000Z</time>
      </trkpt>
      <trkpt lat="48.70895" lon="1.74686">
        <ele>176.39999389648</ele>
        <time>2013-04-29T13:52:23.000Z</time>
      </trkpt>
      <trkpt lat="48.70903" lon="1.74697">
        <ele>176.80000305176</ele>
        <time>2013-04-29T13:52:30.000Z</time>
      </trkpt>
      <trkpt lat="48.70912" lon="1.74706">
        <ele>177</ele>
        <time>2013-04-29T13:52:36.000Z</time>
      </trkpt>
      <trkpt lat="48.70922" lon="1.74721">
        <ele>177.19999694824</ele>
        <time>2013-04-29T13:52:44.000Z</time>
      </trkpt>
      <trkpt lat="48.70931" lon="1.74734">
        <ele>177.60000610352</ele>
        <time>2013-04-29T13:52:51.000Z</time>
      </trkpt>
      <trkpt lat="48.70944" lon="1.7475">
        <ele>178</ele>
        <time>2013-04-29T13:53:01.000Z</time>
      </trkpt>
      <trkpt lat="48.70958" lon="1.74769">
        <ele>178</ele>
        <time>2013-04-29T13:53:13.000Z</time>
      </trkpt>
      <trkpt lat="48.70967" lon="1.74779">
        <ele>178.19999694824</ele>
        <time>2013-04-29T13:53:20.000Z</time>
      </trkpt>
      <trkpt lat="48.70979" lon="1.74793">
        <ele>178.19999694824</ele>
        <time>2013-04-29T13:53:30.000Z</time>
      </trkpt>
      <trkpt lat="48.70986" lon="1.74804">
        <ele>178.39999389648</ele>
        <time>2013-04-29T13:53:36.000Z</time>
      </trkpt>
      <trkpt lat="48.70996" lon="1.74819">
        <ele>178.60000610352</ele>
        <time>2013-04-29T13:53:45.000Z</time>
      </trkpt>
      <trkpt lat="48.71006" lon="1.74835">
        <ele>178.60000610352</ele>
        <time>2013-04-29T13:53:55.000Z</time>
      </trkpt>
      <trkpt lat="48.71007" lon="1.74851">
        <ele>178.39999389648</ele>
        <time>2013-04-29T13:54:03.000Z</time>
      </trkpt>
      <trkpt lat="48.71001" lon="1.74863">
        <ele>178.80000305176</ele>
        <time>2013-04-29T13:54:10.000Z</time>
      </trkpt>
      <trkpt lat="48.70993" lon="1.74875">
        <ele>178.60000610352</ele>
        <time>2013-04-29T13:54:18.000Z</time>
      </trkpt>
      <trkpt lat="48.70979" lon="1.74894">
        <ele>178</ele>
        <time>2013-04-29T13:54:30.000Z</time>
      </trkpt>
      <trkpt lat="48.70966" lon="1.74908">
        <ele>177.39999389648</ele>
        <time>2013-04-29T13:54:40.000Z</time>
      </trkpt>
      <trkpt lat="48.70957" lon="1.74921">
        <ele>176.80000305176</ele>
        <time>2013-04-29T13:54:48.000Z</time>
      </trkpt>
      <trkpt lat="48.70947" lon="1.74935">
        <ele>176.19999694824</ele>
        <time>2013-04-29T13:54:57.000Z</time>
      </trkpt>
      <trkpt lat="48.70938" lon="1.74952">
        <ele>175.80000305176</ele>
        <time>2013-04-29T13:55:07.000Z</time>
      </trkpt>
      <trkpt lat="48.70933" lon="1.7496">
        <ele>175.60000610352</ele>
        <time>2013-04-29T13:55:12.000Z</time>
      </trkpt>
      <trkpt lat="48.70927" lon="1.74968">
        <ele>175.39999389648</ele>
        <time>2013-04-29T13:55:17.000Z</time>
      </trkpt>
      <trkpt lat="48.70918" lon="1.74983">
        <ele>175</ele>
        <time>2013-04-29T13:55:27.000Z</time>
      </trkpt>
      <trkpt lat="48.70918" lon="1.74984">
        <ele>175</ele>
        <time>2013-04-29T13:55:28.000Z</time>
      </trkpt>
      <trkpt lat="48.70906" lon="1.75012">
        <ele>174.80000305176</ele>
        <time>2013-04-29T13:58:24.000Z</time>
      </trkpt>
      <trkpt lat="48.70905" lon="1.75016">
        <ele>174.80000305176</ele>
        <time>2013-04-29T13:58:25.000Z</time>
      </trkpt>
      <trkpt lat="48.70901" lon="1.75024">
        <ele>174.60000610352</ele>
        <time>2013-04-29T13:58:32.000Z</time>
      </trkpt>
      <trkpt lat="48.70899" lon="1.75027">
        <ele>174.60000610352</ele>
        <time>2013-04-29T13:58:34.000Z</time>
      </trkpt>
      <trkpt lat="48.70895" lon="1.75035">
        <ele>174.39999389648</ele>
        <time>2013-04-29T13:58:40.000Z</time>
      </trkpt>
      <trkpt lat="48.70894" lon="1.75037">
        <ele>174.39999389648</ele>
        <time>2013-04-29T13:58:41.000Z</time>
      </trkpt>
      <trkpt lat="48.70889" lon="1.75047">
        <ele>174.39999389648</ele>
        <time>2013-04-29T13:58:48.000Z</time>
      </trkpt>
      <trkpt lat="48.70886" lon="1.75052">
        <ele>174.19999694824</ele>
        <time>2013-04-29T13:58:53.000Z</time>
      </trkpt>
      <trkpt lat="48.70884" lon="1.75058">
        <ele>174.19999694824</ele>
        <time>2013-04-29T13:58:57.000Z</time>
      </trkpt>
      <trkpt lat="48.7088" lon="1.75063">
        <ele>174.19999694824</ele>
        <time>2013-04-29T13:59:03.000Z</time>
      </trkpt>
      <trkpt lat="48.7088" lon="1.75063">
        <ele>174.19999694824</ele>
        <time>2013-04-29T13:59:05.000Z</time>
      </trkpt>
      <trkpt lat="48.70874" lon="1.75081">
        <ele>174</ele>
        <time>2013-04-29T13:59:18.000Z</time>
      </trkpt>
      <trkpt lat="48.70871" lon="1.75085">
        <ele>174</ele>
        <time>2013-04-29T13:59:20.000Z</time>
      </trkpt>
      <trkpt lat="48.7087" lon="1.75087">
        <ele>174</ele>
        <time>2013-04-29T13:59:24.000Z</time>
      </trkpt>
      <trkpt lat="48.70825" lon="1.75188">
        <ele>173.80000305176</ele>
        <time>2013-04-29T14:03:48.000Z</time>
      </trkpt>
      <trkpt lat="48.70822" lon="1.75195">
        <ele>173.80000305176</ele>
        <time>2013-04-29T14:03:51.000Z</time>
      </trkpt>
      <trkpt lat="48.70817" lon="1.7521">
        <ele>173.80000305176</ele>
        <time>2013-04-29T14:04:01.000Z</time>
      </trkpt>
      <trkpt lat="48.70812" lon="1.75223">
        <ele>173.60000610352</ele>
        <time>2013-04-29T14:04:09.000Z</time>
      </trkpt>
      <trkpt lat="48.70806" lon="1.75235">
        <ele>173.60000610352</ele>
        <time>2013-04-29T14:04:16.000Z</time>
      </trkpt>
      <trkpt lat="48.708" lon="1.75249">
        <ele>173.39999389648</ele>
        <time>2013-04-29T14:04:24.000Z</time>
      </trkpt>
      <trkpt lat="48.70793" lon="1.75266">
        <ele>173.39999389648</ele>
        <time>2013-04-29T14:04:33.000Z</time>
      </trkpt>
      <trkpt lat="48.70789" lon="1.75277">
        <ele>173.39999389648</ele>
        <time>2013-04-29T14:04:38.000Z</time>
      </trkpt>
      <trkpt lat="48.70786" lon="1.75284">
        <ele>173.39999389648</ele>
        <time>2013-04-29T14:04:42.000Z</time>
      </trkpt>
      <trkpt lat="48.70781" lon="1.75296">
        <ele>173.19999694824</ele>
        <time>2013-04-29T14:04:49.000Z</time>
      </trkpt>
      <trkpt lat="48.70774" lon="1.75314">
        <ele>173.19999694824</ele>
        <time>2013-04-29T14:04:58.000Z</time>
      </trkpt>
      <trkpt lat="48.70769" lon="1.75326">
        <ele>173.19999694824</ele>
        <time>2013-04-29T14:05:05.000Z</time>
      </trkpt>
      <trkpt lat="48.70763" lon="1.75338">
        <ele>173</ele>
        <time>2013-04-29T14:05:12.000Z</time>
      </trkpt>
      <trkpt lat="48.70756" lon="1.75356">
        <ele>172.80000305176</ele>
        <time>2013-04-29T14:05:22.000Z</time>
      </trkpt>
      <trkpt lat="48.70748" lon="1.75372">
        <ele>172.39999389648</ele>
        <time>2013-04-29T14:05:32.000Z</time>
      </trkpt>
      <trkpt lat="48.70747" lon="1.75373">
        <ele>172.39999389648</ele>
        <time>2013-04-29T14:05:33.000Z</time>
      </trkpt>
      <trkpt lat="48.70747" lon="1.75373">
        <ele>172.39999389648</ele>
        <time>2013-04-29T14:05:36.000Z</time>
      </trkpt>
    </trkseg>
  </trk>
</gpx>